VIR787 EGLL-YSSY
Flight info
| Callsign | VIR787 |
|---|---|
| Flight time | 18h 32m |
| Altitude | 33000 |
| Route | DET L6 DVR UL9 KONAN UL607 SPI DCT BOMBI DCT DETEV DCT DINKU DCT BESNI DCT ALUTU DCT ESEGA DCT STEIN DCT TEGRI DCT ZUBOK DCT DINRO N743 UDROS/N0493F350 UM859 KARDE UN644 ROLIN N644 LAGAS M747 SUBUT T923 ERLEV M11 RODAR A909 NINOP B475 DAVET P173 TAPIS L509 GIDOG/N0493F370 L509 SULOM A466 ASARI L509 GGC R460 CEA L507 NUNLI/N0493F390 L507 BKK N506 ELMOP R468 SAPEN/K0913F390 R468 TSH M768 MOXON/N0492F390 M768 PORAK/N0488F410 M768 DN J251 TN A464 MIGAX Y139 IGNIX Y161 OVNOM H652 LALIB/N0433F190 W702 OLTIN H201 MEPIL |
| Aircraft | B789/H-SDE1E2E3FGHIJ2J3J4J5M1RWXY/LB1D1 |
Departure
| Time | 2026-04-24 00:29 |
|---|---|
| Airport | London Heathrow Airport (EGLL) |
Arrival
| Time | 2026-04-24 19:01 |
|---|---|
| Airport | Sydney Kingsford Smith International Airport (YSSY) |
| Time | Latitude | Longitude | Altitude | Speed | Heading |
|---|---|---|---|---|---|
| 2026-04-24 00:01 | 51.47156 | -0.46205 | 96 ft | 0 kts | 55° |
| 2026-04-24 00:14 | 51.47155 | -0.46208 | 96 ft | 1 kts | 55° |
| 2026-04-24 00:15 | 51.47147 | -0.46227 | 96 ft | 3 kts | 55° |
| 2026-04-24 00:15 | 51.47136 | -0.46252 | 96 ft | 3 kts | 55° |
| 2026-04-24 00:15 | 51.47124 | -0.46279 | 96 ft | 3 kts | 55° |
| 2026-04-24 00:15 | 51.47113 | -0.46306 | 96 ft | 3 kts | 55° |
| 2026-04-24 00:16 | 51.47104 | -0.46326 | 96 ft | 0 kts | 55° |
| 2026-04-24 00:18 | 51.47104 | -0.46325 | 96 ft | 0 kts | 55° |
| 2026-04-24 00:18 | 51.47113 | -0.46314 | 96 ft | 3 kts | 35° |
| 2026-04-24 00:18 | 51.47136 | -0.46320 | 96 ft | 5 kts | 339° |
| 2026-04-24 00:19 | 51.47180 | -0.46359 | 96 ft | 10 kts | 328° |
| 2026-04-24 00:19 | 51.47238 | -0.46449 | 96 ft | 13 kts | 291° |
| 2026-04-24 00:19 | 51.47239 | -0.46591 | 96 ft | 7 kts | 270° |
| 2026-04-24 00:19 | 51.47238 | -0.46674 | 96 ft | 9 kts | 269° |
| 2026-04-24 00:20 | 51.47236 | -0.46805 | 96 ft | 14 kts | 265° |
| 2026-04-24 00:20 | 51.47183 | -0.46865 | 96 ft | 11 kts | 184° |
| 2026-04-24 00:20 | 51.47099 | -0.46866 | 96 ft | 13 kts | 179° |
| 2026-04-24 00:20 | 51.46992 | -0.46865 | 96 ft | 18 kts | 180° |
| 2026-04-24 00:21 | 51.46864 | -0.46865 | 96 ft | 16 kts | 178° |
| 2026-04-24 00:21 | 51.46785 | -0.46862 | 96 ft | 13 kts | 179° |
| 2026-04-24 00:21 | 51.46697 | -0.46863 | 96 ft | 11 kts | 189° |
| 2026-04-24 00:21 | 51.46659 | -0.46935 | 96 ft | 10 kts | 261° |
| 2026-04-24 00:22 | 51.46657 | -0.47073 | 96 ft | 15 kts | 269° |
| 2026-04-24 00:22 | 51.46656 | -0.47258 | 96 ft | 19 kts | 269° |
| 2026-04-24 00:22 | 51.46655 | -0.47486 | 96 ft | 22 kts | 270° |
| 2026-04-24 00:22 | 51.46655 | -0.47744 | 96 ft | 21 kts | 270° |
| 2026-04-24 00:23 | 51.46654 | -0.47992 | 96 ft | 24 kts | 269° |
| 2026-04-24 00:23 | 51.46653 | -0.48262 | 96 ft | 23 kts | 270° |
| 2026-04-24 00:23 | 51.46652 | -0.48516 | 96 ft | 19 kts | 270° |
| 2026-04-24 00:23 | 51.46652 | -0.48669 | 96 ft | 8 kts | 267° |
| 2026-04-24 00:24 | 51.46623 | -0.48750 | 96 ft | 6 kts | 210° |
| 2026-04-24 00:24 | 51.46604 | -0.48763 | 96 ft | 0 kts | 202° |
| 2026-04-24 00:25 | 51.46604 | -0.48764 | 96 ft | 0 kts | 202° |
| 2026-04-24 00:26 | 51.46603 | -0.48764 | 96 ft | 0 kts | 202° |
| 2026-04-24 00:27 | 51.46595 | -0.48769 | 96 ft | 4 kts | 202° |
| 2026-04-24 00:27 | 51.46546 | -0.48782 | 96 ft | 10 kts | 176° |
| 2026-04-24 00:28 | 51.46485 | -0.48717 | 96 ft | 10 kts | 111° |
| 2026-04-24 00:28 | 51.46479 | -0.48655 | 96 ft | 8 kts | 91° |
| 2026-04-24 00:28 | 51.46477 | -0.48432 | 96 ft | 41 kts | 91° |
| 2026-04-24 00:28 | 51.46484 | -0.47645 | 96 ft | 99 kts | 90° |
| 2026-04-24 00:29 | 51.46483 | -0.46785 | 96 ft | 133 kts | 90° |
| 2026-04-24 00:29 | 51.46490 | -0.45051 | 97 ft | 175 kts | 90° |
| 2026-04-24 00:29 | 51.46494 | -0.43061 | 557 ft | 173 kts | 90° |
| 2026-04-24 00:29 | 51.46315 | -0.41145 | 1054 ft | 183 kts | 112° |
| 2026-04-24 00:30 | 51.45653 | -0.39397 | 1607 ft | 185 kts | 123° |
| 2026-04-24 00:30 | 51.44898 | -0.37655 | 2004 ft | 197 kts | 121° |
| 2026-04-24 00:30 | 51.44347 | -0.35571 | 2254 ft | 207 kts | 110° |
| 2026-04-24 00:30 | 51.43858 | -0.33339 | 2427 ft | 217 kts | 109° |
| 2026-04-24 00:31 | 51.43341 | -0.30970 | 2526 ft | 234 kts | 109° |
| 2026-04-24 00:31 | 51.42809 | -0.28423 | 2742 ft | 247 kts | 105° |
| 2026-04-24 00:31 | 51.42409 | -0.25693 | 3023 ft | 257 kts | 102° |
| 2026-04-24 00:31 | 51.42023 | -0.22860 | 3447 ft | 263 kts | 102° |
| 2026-04-24 00:32 | 51.41633 | -0.20000 | 4009 ft | 263 kts | 101° |
| 2026-04-24 00:32 | 51.41243 | -0.17150 | 4545 ft | 265 kts | 101° |
| 2026-04-24 00:32 | 51.40838 | -0.14190 | 4844 ft | 277 kts | 101° |
| 2026-04-24 00:32 | 51.40415 | -0.11103 | 5127 ft | 289 kts | 101° |
| 2026-04-24 00:33 | 51.39972 | -0.07890 | 5456 ft | 299 kts | 102° |
| 2026-04-24 00:33 | 51.39523 | -0.04648 | 5783 ft | 302 kts | 102° |
| 2026-04-24 00:33 | 51.39059 | -0.01316 | 5946 ft | 303 kts | 102° |
| 2026-04-24 00:33 | 51.38605 | 0.01946 | 5981 ft | 305 kts | 102° |
| 2026-04-24 00:34 | 51.38136 | 0.05303 | 5984 ft | 305 kts | 102° |
| 2026-04-24 00:34 | 51.37674 | 0.08612 | 5988 ft | 305 kts | 102° |
| 2026-04-24 00:34 | 51.37215 | 0.11883 | 5994 ft | 305 kts | 102° |
| 2026-04-24 00:34 | 51.36748 | 0.15212 | 6004 ft | 308 kts | 102° |
| 2026-04-24 00:35 | 51.36266 | 0.18631 | 6009 ft | 312 kts | 102° |
| 2026-04-24 00:35 | 51.35789 | 0.22010 | 6002 ft | 313 kts | 102° |
| 2026-04-24 00:35 | 51.35267 | 0.25428 | 6075 ft | 320 kts | 105° |
| 2026-04-24 00:35 | 51.34682 | 0.28853 | 6611 ft | 320 kts | 106° |
| 2026-04-24 00:36 | 51.34090 | 0.32316 | 7174 ft | 322 kts | 106° |
| 2026-04-24 00:36 | 51.33503 | 0.35769 | 7684 ft | 325 kts | 106° |
| 2026-04-24 00:36 | 51.32910 | 0.39277 | 8181 ft | 328 kts | 106° |
| 2026-04-24 00:36 | 51.32314 | 0.42813 | 8695 ft | 330 kts | 106° |
| 2026-04-24 00:37 | 51.31714 | 0.46380 | 9214 ft | 333 kts | 106° |
| 2026-04-24 00:37 | 51.31109 | 0.49965 | 9716 ft | 335 kts | 106° |
| 2026-04-24 00:37 | 51.30500 | 0.53575 | 10205 ft | 338 kts | 106° |
| 2026-04-24 00:37 | 51.29890 | 0.57182 | 10689 ft | 340 kts | 106° |
| 2026-04-24 00:38 | 51.29257 | 0.60920 | 11186 ft | 343 kts | 106° |
| 2026-04-24 00:38 | 51.28640 | 0.64553 | 11658 ft | 345 kts | 106° |
| 2026-04-24 00:38 | 51.28009 | 0.68260 | 12129 ft | 347 kts | 106° |
| 2026-04-24 00:38 | 51.27372 | 0.71997 | 12596 ft | 350 kts | 106° |
| 2026-04-24 00:39 | 51.26727 | 0.75766 | 13060 ft | 352 kts | 106° |
| 2026-04-24 00:39 | 51.26078 | 0.79556 | 13516 ft | 355 kts | 106° |
| 2026-04-24 00:39 | 51.25425 | 0.83361 | 13965 ft | 357 kts | 106° |
| 2026-04-24 00:39 | 51.24766 | 0.87195 | 14409 ft | 360 kts | 106° |
| 2026-04-24 00:40 | 51.24099 | 0.91061 | 14851 ft | 362 kts | 106° |
| 2026-04-24 00:40 | 51.23482 | 0.94636 | 15252 ft | 364 kts | 106° |
| 2026-04-24 00:40 | 51.22802 | 0.98559 | 15683 ft | 366 kts | 106° |
| 2026-04-24 00:40 | 51.22121 | 1.02489 | 16107 ft | 369 kts | 107° |
| 2026-04-24 00:41 | 51.21434 | 1.06438 | 16527 ft | 371 kts | 107° |
| 2026-04-24 00:41 | 51.20740 | 1.10419 | 16942 ft | 373 kts | 107° |
| 2026-04-24 00:41 | 51.20041 | 1.14421 | 17350 ft | 376 kts | 107° |
| 2026-04-24 00:41 | 51.19336 | 1.18449 | 17754 ft | 378 kts | 107° |
| 2026-04-24 00:42 | 51.18625 | 1.22501 | 18152 ft | 380 kts | 107° |
| 2026-04-24 00:42 | 51.17910 | 1.26567 | 18543 ft | 383 kts | 107° |
| 2026-04-24 00:42 | 51.17188 | 1.30660 | 18928 ft | 385 kts | 107° |
| 2026-04-24 00:42 | 51.16533 | 1.34815 | 19310 ft | 387 kts | 101° |
| 2026-04-24 00:43 | 51.16167 | 1.39078 | 19676 ft | 390 kts | 96° |
| 2026-04-24 00:43 | 51.15913 | 1.43402 | 20030 ft | 393 kts | 95° |
| 2026-04-24 00:43 | 51.15697 | 1.47739 | 20413 ft | 394 kts | 94° |
| 2026-04-24 00:43 | 51.15488 | 1.52114 | 20790 ft | 396 kts | 94° |
| 2026-04-24 00:44 | 51.15280 | 1.56504 | 21141 ft | 398 kts | 94° |
| 2026-04-24 00:44 | 51.15067 | 1.60913 | 21487 ft | 401 kts | 94° |
| 2026-04-24 00:44 | 51.14850 | 1.65354 | 21841 ft | 403 kts | 94° |
| 2026-04-24 00:44 | 51.14631 | 1.69793 | 22189 ft | 404 kts | 95° |
| 2026-04-24 00:45 | 51.14407 | 1.74279 | 22529 ft | 406 kts | 95° |
| 2026-04-24 00:45 | 51.14180 | 1.78775 | 22862 ft | 409 kts | 95° |
| 2026-04-24 00:45 | 51.13950 | 1.83296 | 23193 ft | 411 kts | 95° |
| 2026-04-24 00:45 | 51.13719 | 1.87814 | 23521 ft | 412 kts | 95° |
| 2026-04-24 00:46 | 51.13483 | 1.92388 | 23845 ft | 414 kts | 95° |
| 2026-04-24 00:46 | 51.13244 | 1.96974 | 24163 ft | 416 kts | 95° |
| 2026-04-24 00:46 | 51.13006 | 2.01527 | 24473 ft | 418 kts | 95° |
| 2026-04-24 00:46 | 51.12762 | 2.06149 | 24783 ft | 420 kts | 95° |
| 2026-04-24 00:47 | 51.12515 | 2.10787 | 25087 ft | 422 kts | 95° |
| 2026-04-24 00:47 | 51.12261 | 2.15523 | 25391 ft | 424 kts | 95° |
| 2026-04-24 00:47 | 51.12008 | 2.20204 | 25687 ft | 426 kts | 95° |
| 2026-04-24 00:47 | 51.11756 | 2.24847 | 25985 ft | 428 kts | 95° |
| 2026-04-24 00:48 | 51.11498 | 2.29569 | 26310 ft | 429 kts | 95° |
| 2026-04-24 00:48 | 51.11236 | 2.34315 | 26619 ft | 432 kts | 95° |
| 2026-04-24 00:48 | 51.10971 | 2.39077 | 26920 ft | 434 kts | 95° |
| 2026-04-24 00:48 | 51.10703 | 2.43866 | 27222 ft | 436 kts | 95° |
| 2026-04-24 00:49 | 51.10430 | 2.48692 | 27521 ft | 437 kts | 95° |
| 2026-04-24 00:49 | 51.10156 | 2.53510 | 27810 ft | 439 kts | 95° |
| 2026-04-24 00:49 | 51.09878 | 2.58363 | 28091 ft | 441 kts | 95° |
| 2026-04-24 00:49 | 51.09466 | 2.63223 | 28350 ft | 443 kts | 101° |
| 2026-04-24 00:50 | 51.08806 | 2.68021 | 28639 ft | 444 kts | 104° |
| 2026-04-24 00:50 | 51.08043 | 2.72779 | 28918 ft | 446 kts | 106° |
| 2026-04-24 00:50 | 51.07218 | 2.77546 | 29177 ft | 447 kts | 107° |
| 2026-04-24 00:50 | 51.06361 | 2.82316 | 29432 ft | 449 kts | 107° |
| 2026-04-24 00:51 | 51.05491 | 2.87095 | 29690 ft | 451 kts | 107° |
| 2026-04-24 00:51 | 51.04614 | 2.91883 | 29945 ft | 453 kts | 107° |
| 2026-04-24 00:51 | 51.03733 | 2.96686 | 30190 ft | 454 kts | 108° |
| 2026-04-24 00:51 | 51.02844 | 3.01527 | 30433 ft | 456 kts | 108° |
| 2026-04-24 00:52 | 51.01953 | 3.06370 | 30673 ft | 458 kts | 108° |
| 2026-04-24 00:52 | 51.01059 | 3.11219 | 30906 ft | 459 kts | 108° |
| 2026-04-24 00:52 | 51.00158 | 3.16098 | 31136 ft | 461 kts | 108° |
| 2026-04-24 00:52 | 50.99256 | 3.20971 | 31366 ft | 462 kts | 108° |
| 2026-04-24 00:53 | 50.98343 | 3.25887 | 31595 ft | 464 kts | 108° |
| 2026-04-24 00:53 | 50.97429 | 3.30796 | 31813 ft | 465 kts | 108° |
| 2026-04-24 00:53 | 50.96508 | 3.35727 | 32016 ft | 467 kts | 108° |
| 2026-04-24 00:53 | 50.95599 | 3.40582 | 32259 ft | 468 kts | 108° |
| 2026-04-24 00:54 | 50.93694 | 3.50717 | 32362 ft | 479 kts | 108° |
| 2026-04-24 00:54 | 50.92742 | 3.55761 | 32718 ft | 476 kts | 107° |
| 2026-04-24 00:54 | 50.91799 | 3.60787 | 32911 ft | 476 kts | 107° |
| 2026-04-24 00:55 | 50.89898 | 3.70800 | 32999 ft | 474 kts | 108° |
| 2026-04-24 00:55 | 50.87972 | 3.80802 | 33009 ft | 482 kts | 108° |
| 2026-04-24 00:56 | 50.85971 | 3.91112 | 33008 ft | 492 kts | 108° |
| 2026-04-24 00:56 | 50.83927 | 4.01587 | 33004 ft | 503 kts | 108° |
| 2026-04-24 00:57 | 50.81831 | 4.12276 | 33003 ft | 514 kts | 108° |
| 2026-04-24 00:57 | 50.79697 | 4.23098 | 32998 ft | 525 kts | 108° |
| 2026-04-24 00:58 | 50.78598 | 4.28649 | 32995 ft | 529 kts | 108° |
| 2026-04-24 00:58 | 50.76380 | 4.39801 | 32992 ft | 534 kts | 108° |
| 2026-04-24 00:59 | 50.74140 | 4.51004 | 32999 ft | 536 kts | 108° |
| 2026-04-24 00:59 | 50.71896 | 4.62233 | 33001 ft | 537 kts | 108° |
| 2026-04-24 01:00 | 50.69704 | 4.73509 | 32992 ft | 537 kts | 108° |
| 2026-04-24 01:00 | 50.67515 | 4.84792 | 33003 ft | 538 kts | 108° |
| 2026-04-24 01:01 | 50.65285 | 4.96044 | 32993 ft | 538 kts | 108° |
| 2026-04-24 01:01 | 50.62986 | 5.07252 | 32995 ft | 538 kts | 109° |
| 2026-04-24 01:02 | 50.60670 | 5.18442 | 33004 ft | 538 kts | 109° |
| 2026-04-24 01:02 | 50.58363 | 5.29539 | 32990 ft | 538 kts | 109° |
| 2026-04-24 01:03 | 50.56013 | 5.40798 | 32998 ft | 537 kts | 109° |
| 2026-04-24 01:03 | 50.53686 | 5.51885 | 33003 ft | 537 kts | 109° |
| 2026-04-24 01:04 | 50.51299 | 5.63098 | 32989 ft | 537 kts | 110° |
| 2026-04-24 01:04 | 50.48676 | 5.74100 | 33000 ft | 537 kts | 112° |
| 2026-04-24 01:05 | 50.45987 | 5.84985 | 33001 ft | 537 kts | 112° |
| 2026-04-24 01:05 | 50.43277 | 5.95978 | 32990 ft | 537 kts | 112° |
| 2026-04-24 01:06 | 50.40590 | 6.06892 | 32999 ft | 537 kts | 112° |
| 2026-04-24 01:06 | 50.38348 | 6.15973 | 33004 ft | 537 kts | 112° |
| 2026-04-24 01:07 | 50.37150 | 6.20811 | 32996 ft | 537 kts | 112° |
| 2026-04-24 01:07 | 50.34680 | 6.30753 | 32977 ft | 537 kts | 112° |
| 2026-04-24 01:08 | 50.31989 | 6.41529 | 32999 ft | 537 kts | 112° |
| 2026-04-24 01:08 | 50.29261 | 6.52400 | 33002 ft | 537 kts | 112° |
| 2026-04-24 01:09 | 50.26524 | 6.63254 | 32989 ft | 536 kts | 112° |
| 2026-04-24 01:09 | 50.23778 | 6.74092 | 32998 ft | 536 kts | 112° |
| 2026-04-24 01:10 | 50.21022 | 6.84918 | 33002 ft | 536 kts | 113° |
| 2026-04-24 01:10 | 50.18273 | 6.95661 | 32988 ft | 536 kts | 113° |
| 2026-04-24 01:11 | 50.15497 | 7.06462 | 33000 ft | 536 kts | 113° |
| 2026-04-24 01:11 | 50.12694 | 7.17316 | 33000 ft | 536 kts | 113° |
| 2026-04-24 01:12 | 50.09917 | 7.28017 | 32991 ft | 536 kts | 113° |
| 2026-04-24 01:12 | 50.07112 | 7.38775 | 33004 ft | 536 kts | 113° |
| 2026-04-24 01:13 | 50.04302 | 7.49502 | 32995 ft | 536 kts | 113° |
| 2026-04-24 01:13 | 50.01475 | 7.60244 | 32994 ft | 536 kts | 113° |
| 2026-04-24 01:14 | 49.98639 | 7.70970 | 33004 ft | 536 kts | 114° |
| 2026-04-24 01:14 | 49.95793 | 7.81682 | 32991 ft | 536 kts | 114° |
| 2026-04-24 01:15 | 49.92941 | 7.92370 | 32999 ft | 536 kts | 114° |
| 2026-04-24 01:15 | 49.90078 | 8.03050 | 33001 ft | 536 kts | 114° |
| 2026-04-24 01:16 | 49.87205 | 8.13717 | 32990 ft | 536 kts | 114° |
| 2026-04-24 01:16 | 49.84324 | 8.24362 | 33003 ft | 536 kts | 114° |
| 2026-04-24 01:17 | 49.81434 | 8.34995 | 32997 ft | 536 kts | 114° |
| 2026-04-24 01:17 | 49.78534 | 8.45614 | 32993 ft | 536 kts | 114° |
| 2026-04-24 01:18 | 49.75641 | 8.56159 | 33004 ft | 536 kts | 114° |
| 2026-04-24 01:18 | 49.72722 | 8.66751 | 32991 ft | 536 kts | 114° |
| 2026-04-24 01:19 | 49.69788 | 8.77329 | 33002 ft | 534 kts | 115° |
| 2026-04-24 01:19 | 49.66759 | 8.87825 | 32941 ft | 535 kts | 115° |
| 2026-04-24 01:20 | 49.63784 | 8.98352 | 32922 ft | 535 kts | 114° |
| 2026-04-24 01:20 | 49.60968 | 9.08981 | 32930 ft | 535 kts | 112° |
| 2026-04-24 01:21 | 49.58346 | 9.19738 | 32991 ft | 536 kts | 111° |
| 2026-04-24 01:21 | 49.55937 | 9.30592 | 32977 ft | 536 kts | 109° |
| 2026-04-24 01:22 | 49.53740 | 9.41567 | 32908 ft | 536 kts | 107° |
| 2026-04-24 01:22 | 49.51763 | 9.52647 | 32877 ft | 536 kts | 105° |
| 2026-04-24 01:23 | 49.50012 | 9.63799 | 32948 ft | 536 kts | 103° |
| 2026-04-24 01:23 | 49.48492 | 9.74965 | 32987 ft | 537 kts | 101° |
| 2026-04-24 01:24 | 49.47188 | 9.86270 | 32977 ft | 537 kts | 99° |
| 2026-04-24 01:24 | 49.46111 | 9.97629 | 32918 ft | 537 kts | 98° |
| 2026-04-24 01:25 | 49.45261 | 10.09044 | 32925 ft | 537 kts | 96° |
| 2026-04-24 01:25 | 49.44619 | 10.20492 | 32938 ft | 537 kts | 97° |
| 2026-04-24 01:25 | 49.43857 | 10.26121 | 32948 ft | 539 kts | 108° |
| 2026-04-24 01:26 | 49.42422 | 10.31449 | 32979 ft | 540 kts | 119° |
| 2026-04-24 01:26 | 49.38123 | 10.40751 | 33022 ft | 537 kts | 129° |
| 2026-04-24 01:27 | 49.33751 | 10.50128 | 33000 ft | 534 kts | 124° |
| 2026-04-24 01:27 | 49.29925 | 10.59796 | 32989 ft | 534 kts | 121° |
| 2026-04-24 01:28 | 49.26257 | 10.69674 | 33000 ft | 533 kts | 121° |
| 2026-04-24 01:28 | 49.22602 | 10.79570 | 32996 ft | 533 kts | 121° |
| 2026-04-24 01:29 | 49.18933 | 10.89435 | 32994 ft | 533 kts | 121° |
| 2026-04-24 01:29 | 49.15251 | 10.99274 | 33005 ft | 533 kts | 121° |
| 2026-04-24 01:30 | 49.11556 | 11.09107 | 32992 ft | 533 kts | 121° |
| 2026-04-24 01:30 | 49.07850 | 11.18932 | 33000 ft | 533 kts | 121° |
| 2026-04-24 01:31 | 49.04161 | 11.28675 | 33001 ft | 533 kts | 121° |
| 2026-04-24 01:31 | 49.00443 | 11.38459 | 32991 ft | 533 kts | 121° |
| 2026-04-24 01:32 | 48.96719 | 11.48223 | 33003 ft | 533 kts | 121° |
| 2026-04-24 01:32 | 48.92981 | 11.57987 | 32995 ft | 533 kts | 121° |
| 2026-04-24 01:33 | 48.89240 | 11.67723 | 32994 ft | 533 kts | 121° |
| 2026-04-24 01:33 | 48.85486 | 11.77455 | 33004 ft | 533 kts | 121° |
| 2026-04-24 01:34 | 48.81731 | 11.87157 | 32991 ft | 533 kts | 122° |
| 2026-04-24 01:34 | 48.77960 | 11.96861 | 33000 ft | 533 kts | 122° |
| 2026-04-24 01:35 | 48.74188 | 12.06535 | 33000 ft | 533 kts | 122° |
| 2026-04-24 01:35 | 48.70407 | 12.16197 | 32991 ft | 533 kts | 122° |
| 2026-04-24 01:36 | 48.66615 | 12.25850 | 33004 ft | 533 kts | 122° |
| 2026-04-24 01:36 | 48.62822 | 12.35471 | 32995 ft | 533 kts | 122° |
| 2026-04-24 01:37 | 48.59013 | 12.45097 | 32995 ft | 533 kts | 122° |
| 2026-04-24 01:37 | 48.55201 | 12.54697 | 33004 ft | 533 kts | 122° |
| 2026-04-24 01:38 | 48.51380 | 12.64288 | 32991 ft | 533 kts | 122° |
| 2026-04-24 01:38 | 48.47553 | 12.73857 | 33000 ft | 533 kts | 122° |
| 2026-04-24 01:39 | 48.43715 | 12.83417 | 33000 ft | 533 kts | 122° |
| 2026-04-24 01:39 | 48.39870 | 12.92965 | 32991 ft | 533 kts | 122° |
| 2026-04-24 01:40 | 48.36018 | 13.02493 | 33004 ft | 533 kts | 122° |
| 2026-04-24 01:40 | 48.32182 | 13.11948 | 32995 ft | 533 kts | 122° |
| 2026-04-24 01:41 | 48.28861 | 13.21874 | 33005 ft | 533 kts | 113° |
| 2026-04-24 01:41 | 48.26263 | 13.32312 | 32993 ft | 534 kts | 110° |
| 2026-04-24 01:42 | 48.23804 | 13.42838 | 32995 ft | 535 kts | 110° |
| 2026-04-24 01:42 | 48.21323 | 13.53362 | 33004 ft | 535 kts | 110° |
| 2026-04-24 01:43 | 48.18810 | 13.63881 | 32991 ft | 535 kts | 110° |
| 2026-04-24 01:43 | 48.16284 | 13.74368 | 33000 ft | 535 kts | 110° |
| 2026-04-24 01:44 | 48.13745 | 13.84860 | 33000 ft | 536 kts | 110° |
| 2026-04-24 01:44 | 48.11197 | 13.95338 | 32991 ft | 536 kts | 110° |
| 2026-04-24 01:45 | 48.08640 | 14.05805 | 33004 ft | 535 kts | 110° |
| 2026-04-24 01:45 | 48.06076 | 14.16253 | 32995 ft | 536 kts | 110° |
| 2026-04-24 01:46 | 48.03498 | 14.26708 | 32995 ft | 535 kts | 111° |
| 2026-04-24 01:46 | 48.00915 | 14.37135 | 33004 ft | 535 kts | 111° |
| 2026-04-24 01:47 | 47.98320 | 14.47562 | 32991 ft | 535 kts | 111° |
| 2026-04-24 01:47 | 47.95716 | 14.57978 | 33001 ft | 535 kts | 111° |
| 2026-04-24 01:48 | 47.93119 | 14.68315 | 32999 ft | 535 kts | 111° |
| 2026-04-24 01:48 | 47.90498 | 14.78704 | 32991 ft | 535 kts | 111° |
| 2026-04-24 01:49 | 47.87867 | 14.89083 | 33004 ft | 535 kts | 111° |
| 2026-04-24 01:49 | 47.85228 | 14.99446 | 32994 ft | 535 kts | 111° |
| 2026-04-24 01:50 | 47.83025 | 15.08058 | 32993 ft | 535 kts | 111° |
| 2026-04-24 01:50 | 47.80368 | 15.18407 | 33004 ft | 535 kts | 111° |
| 2026-04-24 01:51 | 47.77700 | 15.28749 | 32992 ft | 535 kts | 111° |
| 2026-04-24 01:51 | 47.75025 | 15.39076 | 32999 ft | 535 kts | 111° |
| 2026-04-24 01:52 | 47.72340 | 15.49389 | 33002 ft | 535 kts | 111° |
| 2026-04-24 01:52 | 47.69647 | 15.59692 | 32990 ft | 535 kts | 112° |
| 2026-04-24 01:53 | 47.66943 | 15.69986 | 33003 ft | 535 kts | 112° |
| 2026-04-24 01:53 | 47.64232 | 15.80266 | 32996 ft | 535 kts | 112° |
| 2026-04-24 01:54 | 47.61511 | 15.90535 | 32994 ft | 535 kts | 112° |
| 2026-04-24 01:54 | 47.58781 | 16.00796 | 33004 ft | 535 kts | 112° |
| 2026-04-24 01:55 | 47.56042 | 16.11043 | 32992 ft | 535 kts | 112° |
| 2026-04-24 01:55 | 47.53293 | 16.21283 | 32999 ft | 535 kts | 112° |
| 2026-04-24 01:56 | 47.50535 | 16.31512 | 33001 ft | 535 kts | 112° |
| 2026-04-24 01:56 | 47.47786 | 16.41663 | 32991 ft | 535 kts | 112° |
| 2026-04-24 01:57 | 47.45010 | 16.51870 | 33003 ft | 535 kts | 112° |
| 2026-04-24 01:57 | 47.42297 | 16.62105 | 32998 ft | 535 kts | 111° |
| 2026-04-24 01:58 | 47.39817 | 16.72470 | 32991 ft | 535 kts | 110° |
| 2026-04-24 01:58 | 47.37388 | 16.82857 | 33004 ft | 535 kts | 110° |
| 2026-04-24 01:59 | 47.34943 | 16.93237 | 32994 ft | 535 kts | 110° |
| 2026-04-24 01:59 | 47.32481 | 17.03599 | 32996 ft | 535 kts | 110° |
| 2026-04-24 02:00 | 47.30005 | 17.13961 | 33003 ft | 535 kts | 110° |
| 2026-04-24 02:00 | 47.27523 | 17.24297 | 32991 ft | 535 kts | 110° |
| 2026-04-24 02:01 | 47.25050 | 17.34551 | 33001 ft | 535 kts | 110° |
| 2026-04-24 02:01 | 47.22546 | 17.44887 | 32998 ft | 535 kts | 110° |
| 2026-04-24 02:02 | 47.20035 | 17.55200 | 32992 ft | 535 kts | 110° |
| 2026-04-24 02:02 | 47.17515 | 17.65501 | 33004 ft | 535 kts | 110° |
| 2026-04-24 02:03 | 47.13719 | 17.80934 | 32991 ft | 535 kts | 110° |
| 2026-04-24 02:03 | 47.11176 | 17.91215 | 33003 ft | 535 kts | 111° |
| 2026-04-24 02:04 | 47.08623 | 18.01486 | 32995 ft | 535 kts | 111° |
| 2026-04-24 02:04 | 47.06062 | 18.11744 | 32994 ft | 535 kts | 111° |
| 2026-04-24 02:05 | 47.03492 | 18.21992 | 33004 ft | 535 kts | 111° |
| 2026-04-24 02:05 | 47.00930 | 18.32159 | 32991 ft | 535 kts | 111° |
| 2026-04-24 02:06 | 46.98341 | 18.42391 | 33000 ft | 535 kts | 111° |
| 2026-04-24 02:06 | 46.95745 | 18.52604 | 33000 ft | 535 kts | 111° |
| 2026-04-24 02:07 | 46.93139 | 18.62809 | 32991 ft | 535 kts | 111° |
| 2026-04-24 02:07 | 46.90524 | 18.73003 | 33004 ft | 535 kts | 111° |
| 2026-04-24 02:08 | 46.87900 | 18.83190 | 32995 ft | 535 kts | 111° |
| 2026-04-24 02:08 | 46.85267 | 18.93365 | 32995 ft | 535 kts | 111° |
| 2026-04-24 02:09 | 46.82626 | 19.03528 | 33004 ft | 535 kts | 111° |
| 2026-04-24 02:09 | 46.79978 | 19.13674 | 32991 ft | 535 kts | 111° |
| 2026-04-24 02:10 | 46.77331 | 19.23771 | 33000 ft | 535 kts | 111° |
| 2026-04-24 02:10 | 46.74663 | 19.33903 | 33000 ft | 535 kts | 112° |
| 2026-04-24 02:11 | 46.71985 | 19.44028 | 32991 ft | 535 kts | 112° |
| 2026-04-24 02:11 | 46.69295 | 19.54158 | 33004 ft | 535 kts | 112° |
| 2026-04-24 02:12 | 46.66597 | 19.64272 | 32995 ft | 535 kts | 112° |
| 2026-04-24 02:12 | 46.63894 | 19.74359 | 32995 ft | 535 kts | 112° |
| 2026-04-24 02:13 | 46.61180 | 19.84448 | 33004 ft | 535 kts | 112° |
| 2026-04-24 02:13 | 46.58460 | 19.94514 | 32991 ft | 535 kts | 112° |
| 2026-04-24 02:14 | 46.55748 | 20.04510 | 33000 ft | 535 kts | 112° |
| 2026-04-24 02:14 | 46.53010 | 20.14560 | 33000 ft | 535 kts | 112° |
| 2026-04-24 02:15 | 46.50260 | 20.24607 | 32991 ft | 535 kts | 112° |
| 2026-04-24 02:15 | 46.47505 | 20.34635 | 33004 ft | 535 kts | 112° |
| 2026-04-24 02:16 | 46.44739 | 20.44656 | 32995 ft | 535 kts | 112° |
| 2026-04-24 02:16 | 46.41964 | 20.54674 | 32995 ft | 535 kts | 112° |
| 2026-04-24 02:17 | 46.39183 | 20.64669 | 33004 ft | 535 kts | 112° |
| 2026-04-24 02:17 | 46.36391 | 20.74661 | 32991 ft | 535 kts | 113° |
| 2026-04-24 02:18 | 46.33591 | 20.84639 | 33000 ft | 535 kts | 113° |
| 2026-04-24 02:18 | 46.30784 | 20.94603 | 33000 ft | 535 kts | 113° |
| 2026-04-24 02:19 | 46.27985 | 21.04498 | 32991 ft | 535 kts | 113° |
| 2026-04-24 02:19 | 46.25249 | 21.14500 | 33004 ft | 535 kts | 112° |
| 2026-04-24 02:20 | 46.22619 | 21.24549 | 32993 ft | 535 kts | 111° |
| 2026-04-24 02:20 | 46.20003 | 21.34606 | 32997 ft | 535 kts | 111° |
| 2026-04-24 02:21 | 46.17376 | 21.44656 | 33002 ft | 535 kts | 111° |
| 2026-04-24 02:21 | 46.14736 | 21.54701 | 32990 ft | 535 kts | 111° |
| 2026-04-24 02:22 | 46.12087 | 21.64730 | 33002 ft | 535 kts | 111° |
| 2026-04-24 02:22 | 46.09305 | 21.74679 | 32997 ft | 535 kts | 114° |
| 2026-04-24 02:23 | 46.06396 | 21.84547 | 32993 ft | 535 kts | 114° |
| 2026-04-24 02:23 | 46.03485 | 21.94324 | 33005 ft | 535 kts | 114° |
| 2026-04-24 02:24 | 46.00549 | 22.04160 | 32992 ft | 535 kts | 114° |
| 2026-04-24 02:24 | 45.97608 | 22.13989 | 32998 ft | 535 kts | 114° |
| 2026-04-24 02:25 | 45.94662 | 22.23803 | 33002 ft | 535 kts | 115° |
| 2026-04-24 02:25 | 45.91707 | 22.33608 | 32990 ft | 535 kts | 115° |
| 2026-04-24 02:26 | 45.88743 | 22.43403 | 33003 ft | 535 kts | 115° |
| 2026-04-24 02:26 | 45.85771 | 22.53185 | 32997 ft | 535 kts | 115° |
| 2026-04-24 02:27 | 45.82792 | 22.62954 | 32993 ft | 535 kts | 115° |
| 2026-04-24 02:27 | 45.79806 | 22.72706 | 33004 ft | 535 kts | 115° |
| 2026-04-24 02:28 | 45.76806 | 22.82466 | 32992 ft | 535 kts | 115° |
| 2026-04-24 02:28 | 45.73800 | 22.92212 | 32998 ft | 535 kts | 115° |
| 2026-04-24 02:29 | 45.70785 | 23.01946 | 33002 ft | 535 kts | 115° |
| 2026-04-24 02:29 | 45.67782 | 23.11605 | 32990 ft | 535 kts | 115° |
| 2026-04-24 02:30 | 45.64753 | 23.21314 | 33003 ft | 535 kts | 115° |
| 2026-04-24 02:30 | 45.61716 | 23.31009 | 32997 ft | 535 kts | 115° |
| 2026-04-24 02:31 | 45.58670 | 23.40698 | 32993 ft | 535 kts | 115° |
| 2026-04-24 02:31 | 45.55616 | 23.50372 | 33004 ft | 535 kts | 115° |
| 2026-04-24 02:32 | 45.52555 | 23.60036 | 32992 ft | 535 kts | 116° |
| 2026-04-24 02:32 | 45.49483 | 23.69697 | 32998 ft | 534 kts | 116° |
| 2026-04-24 02:33 | 45.46407 | 23.79333 | 33002 ft | 535 kts | 116° |
| 2026-04-24 02:33 | 45.43321 | 23.88965 | 32990 ft | 534 kts | 116° |
| 2026-04-24 02:34 | 45.40225 | 23.98595 | 33003 ft | 534 kts | 116° |
| 2026-04-24 02:34 | 45.37123 | 24.08205 | 32996 ft | 534 kts | 116° |
| 2026-04-24 02:35 | 45.34033 | 24.17744 | 32993 ft | 534 kts | 116° |
| 2026-04-24 02:35 | 45.30916 | 24.27332 | 33004 ft | 534 kts | 116° |
| 2026-04-24 02:36 | 45.27787 | 24.36919 | 32992 ft | 534 kts | 116° |
| 2026-04-24 02:36 | 45.24651 | 24.46494 | 32998 ft | 534 kts | 116° |
| 2026-04-24 02:37 | 45.22043 | 24.54431 | 33004 ft | 534 kts | 116° |
| 2026-04-24 02:37 | 45.18894 | 24.63981 | 32991 ft | 534 kts | 116° |
| 2026-04-24 02:38 | 45.15739 | 24.73515 | 33001 ft | 534 kts | 116° |
| 2026-04-24 02:38 | 45.12574 | 24.83045 | 32999 ft | 534 kts | 116° |
| 2026-04-24 02:39 | 45.09399 | 24.92573 | 32991 ft | 534 kts | 116° |
| 2026-04-24 02:39 | 45.06218 | 25.02082 | 33004 ft | 534 kts | 117° |
| 2026-04-24 02:40 | 45.03027 | 25.11584 | 32994 ft | 534 kts | 117° |
| 2026-04-24 02:40 | 44.99830 | 25.21076 | 32996 ft | 534 kts | 117° |
| 2026-04-24 02:41 | 44.96647 | 25.30488 | 33004 ft | 534 kts | 117° |
| 2026-04-24 02:41 | 44.93432 | 25.39963 | 32991 ft | 534 kts | 117° |
| 2026-04-24 02:42 | 44.90210 | 25.49424 | 33001 ft | 534 kts | 117° |
| 2026-04-24 02:42 | 44.86982 | 25.58872 | 32999 ft | 534 kts | 117° |
| 2026-04-24 02:43 | 44.83746 | 25.68307 | 32991 ft | 534 kts | 117° |
| 2026-04-24 02:43 | 44.80526 | 25.77662 | 33004 ft | 534 kts | 117° |
| 2026-04-24 02:44 | 44.77277 | 25.87070 | 32994 ft | 534 kts | 117° |
| 2026-04-24 02:44 | 44.74021 | 25.96464 | 32996 ft | 534 kts | 117° |
| 2026-04-24 02:45 | 44.70759 | 26.05844 | 33003 ft | 534 kts | 117° |
| 2026-04-24 02:45 | 44.67487 | 26.15220 | 32991 ft | 534 kts | 117° |
| 2026-04-24 02:46 | 44.64207 | 26.24585 | 33001 ft | 534 kts | 117° |
| 2026-04-24 02:46 | 44.60920 | 26.33941 | 32999 ft | 534 kts | 117° |
| 2026-04-24 02:47 | 44.57624 | 26.43288 | 32991 ft | 534 kts | 117° |
| 2026-04-24 02:47 | 44.54320 | 26.52624 | 33004 ft | 534 kts | 118° |
| 2026-04-24 02:48 | 44.51009 | 26.61948 | 32994 ft | 534 kts | 118° |
| 2026-04-24 02:48 | 44.47690 | 26.71265 | 32996 ft | 534 kts | 118° |
| 2026-04-24 02:49 | 44.44364 | 26.80566 | 33003 ft | 534 kts | 118° |
| 2026-04-24 02:49 | 44.41032 | 26.89855 | 32991 ft | 534 kts | 118° |
| 2026-04-24 02:50 | 44.37692 | 26.99136 | 33001 ft | 534 kts | 118° |
| 2026-04-24 02:50 | 44.34346 | 27.08401 | 32999 ft | 534 kts | 118° |
| 2026-04-24 02:51 | 44.30990 | 27.17659 | 32992 ft | 534 kts | 118° |
| 2026-04-24 02:51 | 44.27628 | 27.26906 | 33004 ft | 534 kts | 118° |
| 2026-04-24 02:52 | 44.24279 | 27.36086 | 32994 ft | 534 kts | 118° |
| 2026-04-24 02:52 | 44.20897 | 27.45326 | 32996 ft | 534 kts | 118° |
| 2026-04-24 02:53 | 44.17513 | 27.54541 | 33003 ft | 534 kts | 118° |
| 2026-04-24 02:53 | 44.14119 | 27.63749 | 32991 ft | 534 kts | 118° |
| 2026-04-24 02:54 | 44.10718 | 27.72950 | 33001 ft | 534 kts | 118° |
| 2026-04-24 02:54 | 44.07311 | 27.82132 | 32998 ft | 534 kts | 118° |
| 2026-04-24 02:55 | 44.03919 | 27.91246 | 32992 ft | 534 kts | 119° |
| 2026-04-24 02:55 | 44.00499 | 28.00406 | 33004 ft | 534 kts | 119° |
| 2026-04-24 02:56 | 43.97072 | 28.09554 | 32993 ft | 534 kts | 119° |
| 2026-04-24 02:56 | 43.93638 | 28.18688 | 32996 ft | 534 kts | 119° |
| 2026-04-24 02:57 | 43.90197 | 28.27814 | 33003 ft | 534 kts | 119° |
| 2026-04-24 02:57 | 43.86746 | 28.36936 | 32991 ft | 534 kts | 119° |
| 2026-04-24 02:58 | 43.83289 | 28.46042 | 33001 ft | 534 kts | 119° |
| 2026-04-24 02:58 | 43.79826 | 28.55137 | 32998 ft | 534 kts | 119° |
| 2026-04-24 02:59 | 43.76353 | 28.64228 | 32992 ft | 534 kts | 119° |
| 2026-04-24 02:59 | 43.72897 | 28.73241 | 33005 ft | 534 kts | 120° |
| 2026-04-24 03:00 | 43.69009 | 28.82054 | 32995 ft | 534 kts | 124° |
| 2026-04-24 03:00 | 43.64852 | 28.90541 | 32994 ft | 533 kts | 127° |
| 2026-04-24 03:01 | 43.60546 | 28.98869 | 33004 ft | 532 kts | 128° |
| 2026-04-24 03:01 | 43.56228 | 29.07078 | 32992 ft | 532 kts | 128° |
| 2026-04-24 03:02 | 43.51873 | 29.15328 | 32999 ft | 532 kts | 128° |
| 2026-04-24 03:02 | 43.47515 | 29.23571 | 33001 ft | 532 kts | 128° |
| 2026-04-24 03:03 | 43.43157 | 29.31795 | 32991 ft | 532 kts | 128° |
| 2026-04-24 03:03 | 43.38790 | 29.40015 | 33003 ft | 532 kts | 128° |
| 2026-04-24 03:04 | 43.34421 | 29.48216 | 32995 ft | 532 kts | 128° |
| 2026-04-24 03:04 | 43.30044 | 29.56407 | 32994 ft | 532 kts | 128° |
| 2026-04-24 03:05 | 43.25662 | 29.64585 | 33004 ft | 532 kts | 128° |
| 2026-04-24 03:05 | 43.21305 | 29.72696 | 32991 ft | 532 kts | 128° |
| 2026-04-24 03:06 | 43.16913 | 29.80847 | 32999 ft | 532 kts | 128° |
| 2026-04-24 03:06 | 43.12516 | 29.88987 | 33001 ft | 532 kts | 128° |
| 2026-04-24 03:07 | 43.08109 | 29.97122 | 32991 ft | 532 kts | 128° |
| 2026-04-24 03:07 | 43.03701 | 30.05236 | 33004 ft | 532 kts | 128° |
| 2026-04-24 03:08 | 42.97071 | 30.17402 | 32990 ft | 532 kts | 129° |
| 2026-04-24 03:09 | 42.92645 | 30.25493 | 33002 ft | 532 kts | 129° |
| 2026-04-24 03:09 | 42.88212 | 30.33576 | 32998 ft | 532 kts | 129° |
| 2026-04-24 03:10 | 42.83779 | 30.41638 | 32992 ft | 532 kts | 129° |
| 2026-04-24 03:10 | 42.79363 | 30.49647 | 33004 ft | 532 kts | 129° |
| 2026-04-24 03:11 | 42.75711 | 30.58331 | 32980 ft | 530 kts | 110° |
| 2026-04-24 03:11 | 42.73738 | 30.68010 | 33011 ft | 532 kts | 103° |
| 2026-04-24 03:12 | 42.72347 | 30.77929 | 32990 ft | 534 kts | 99° |
| 2026-04-24 03:12 | 42.71249 | 30.87937 | 32996 ft | 536 kts | 98° |
| 2026-04-24 03:13 | 42.70210 | 30.97974 | 33004 ft | 537 kts | 98° |
| 2026-04-24 03:13 | 42.69157 | 31.08024 | 32991 ft | 537 kts | 98° |
| 2026-04-24 03:14 | 42.68085 | 31.18072 | 33000 ft | 537 kts | 98° |
| 2026-04-24 03:14 | 42.67002 | 31.28121 | 33000 ft | 537 kts | 98° |
| 2026-04-24 03:15 | 42.65910 | 31.38162 | 32991 ft | 537 kts | 98° |
| 2026-04-24 03:15 | 42.64809 | 31.48202 | 33004 ft | 537 kts | 98° |
| 2026-04-24 03:16 | 42.63700 | 31.58232 | 32995 ft | 537 kts | 98° |
| 2026-04-24 03:16 | 42.62581 | 31.68270 | 32995 ft | 537 kts | 98° |
| 2026-04-24 03:17 | 42.61454 | 31.78299 | 33004 ft | 537 kts | 98° |
| 2026-04-24 03:17 | 42.60318 | 31.88320 | 32991 ft | 537 kts | 99° |
| 2026-04-24 03:18 | 42.59181 | 31.98281 | 33000 ft | 537 kts | 99° |
| 2026-04-24 03:18 | 42.58056 | 32.08300 | 32999 ft | 537 kts | 98° |
| 2026-04-24 03:19 | 42.56916 | 32.18311 | 32991 ft | 537 kts | 99° |
| 2026-04-24 03:19 | 42.55763 | 32.28333 | 33004 ft | 537 kts | 99° |
| 2026-04-24 03:20 | 42.54604 | 32.38336 | 32994 ft | 537 kts | 99° |
| 2026-04-24 03:20 | 42.53435 | 32.48347 | 32995 ft | 537 kts | 99° |
| 2026-04-24 03:21 | 42.52260 | 32.58341 | 33004 ft | 537 kts | 99° |
| 2026-04-24 03:21 | 42.51074 | 32.68344 | 32991 ft | 537 kts | 99° |
| 2026-04-24 03:22 | 42.49880 | 32.78335 | 33001 ft | 537 kts | 99° |
| 2026-04-24 03:22 | 42.48677 | 32.88324 | 32999 ft | 537 kts | 99° |
| 2026-04-24 03:23 | 42.47467 | 32.98303 | 32991 ft | 537 kts | 99° |
| 2026-04-24 03:23 | 42.46454 | 33.06593 | 33003 ft | 537 kts | 99° |
| 2026-04-24 03:24 | 42.45229 | 33.16566 | 32997 ft | 537 kts | 99° |
| 2026-04-24 03:24 | 42.43788 | 33.28159 | 32995 ft | 537 kts | 99° |
| 2026-04-24 03:25 | 42.42744 | 33.36505 | 33004 ft | 537 kts | 99° |
| 2026-04-24 03:25 | 42.41491 | 33.46473 | 32992 ft | 537 kts | 99° |
| 2026-04-24 03:26 | 42.40228 | 33.56431 | 32998 ft | 537 kts | 100° |
| 2026-04-24 03:26 | 42.38965 | 33.66320 | 33002 ft | 537 kts | 100° |
| 2026-04-24 03:27 | 42.37686 | 33.76267 | 32990 ft | 537 kts | 100° |
| 2026-04-24 03:27 | 42.36399 | 33.86214 | 33002 ft | 537 kts | 100° |
| 2026-04-24 03:28 | 42.35109 | 33.96150 | 32997 ft | 537 kts | 100° |
| 2026-04-24 03:28 | 42.33807 | 34.06095 | 32993 ft | 537 kts | 100° |
| 2026-04-24 03:29 | 42.32498 | 34.16029 | 33004 ft | 537 kts | 100° |
| 2026-04-24 03:29 | 42.31182 | 34.25949 | 32992 ft | 537 kts | 100° |
| 2026-04-24 03:30 | 42.29857 | 34.35872 | 32998 ft | 537 kts | 100° |
| 2026-04-24 03:30 | 42.28524 | 34.45791 | 33002 ft | 537 kts | 100° |
| 2026-04-24 03:31 | 42.27179 | 34.55705 | 32990 ft | 537 kts | 101° |
| 2026-04-24 03:31 | 42.25826 | 34.65616 | 33002 ft | 537 kts | 101° |
| 2026-04-24 03:32 | 42.24464 | 34.75521 | 32997 ft | 537 kts | 101° |
| 2026-04-24 03:32 | 42.23093 | 34.85432 | 32993 ft | 537 kts | 101° |
| 2026-04-24 03:33 | 42.21710 | 34.95336 | 33004 ft | 537 kts | 101° |
| 2026-04-24 03:33 | 42.20319 | 35.05224 | 32992 ft | 537 kts | 101° |
| 2026-04-24 03:34 | 42.18930 | 35.15045 | 32998 ft | 537 kts | 101° |
| 2026-04-24 03:34 | 42.17524 | 35.24918 | 33002 ft | 537 kts | 101° |
| 2026-04-24 03:35 | 42.16107 | 35.34803 | 32990 ft | 537 kts | 101° |
| 2026-04-24 03:35 | 42.14687 | 35.44677 | 33003 ft | 537 kts | 101° |
| 2026-04-24 03:36 | 42.13257 | 35.54544 | 32997 ft | 537 kts | 101° |
| 2026-04-24 03:36 | 42.11819 | 35.64415 | 32993 ft | 537 kts | 101° |
| 2026-04-24 03:37 | 42.10373 | 35.74276 | 33004 ft | 537 kts | 101° |
| 2026-04-24 03:37 | 42.08918 | 35.84136 | 32992 ft | 537 kts | 101° |
| 2026-04-24 03:38 | 42.07456 | 35.93986 | 32998 ft | 537 kts | 101° |
| 2026-04-24 03:38 | 42.05984 | 36.03843 | 33002 ft | 537 kts | 101° |
| 2026-04-24 03:39 | 42.04514 | 36.13618 | 32990 ft | 537 kts | 102° |
| 2026-04-24 03:39 | 42.03026 | 36.23459 | 33002 ft | 536 kts | 102° |
| 2026-04-24 03:40 | 42.01530 | 36.33292 | 32997 ft | 537 kts | 102° |
| 2026-04-24 03:40 | 42.00026 | 36.43118 | 32993 ft | 536 kts | 102° |
| 2026-04-24 03:41 | 41.98514 | 36.52940 | 33004 ft | 536 kts | 102° |
| 2026-04-24 03:41 | 41.96993 | 36.62756 | 32992 ft | 536 kts | 102° |
| 2026-04-24 03:42 | 41.95463 | 36.72573 | 32998 ft | 536 kts | 102° |
| 2026-04-24 03:42 | 41.93925 | 36.82385 | 33002 ft | 536 kts | 102° |
| 2026-04-24 03:43 | 41.92378 | 36.92197 | 32990 ft | 536 kts | 102° |
| 2026-04-24 03:43 | 41.90846 | 37.01999 | 32998 ft | 536 kts | 100° |
| 2026-04-24 03:44 | 41.90228 | 37.11960 | 33012 ft | 536 kts | 91° |
| 2026-04-24 03:44 | 41.90110 | 37.21968 | 32989 ft | 536 kts | 90° |
| 2026-04-24 03:45 | 41.90016 | 37.31923 | 33000 ft | 537 kts | 90° |
| 2026-04-24 03:45 | 41.89876 | 37.41948 | 33000 ft | 537 kts | 91° |
| 2026-04-24 03:46 | 41.89707 | 37.51969 | 32991 ft | 537 kts | 91° |
| 2026-04-24 03:46 | 41.89526 | 37.62055 | 33004 ft | 537 kts | 91° |
| 2026-04-24 03:47 | 41.89338 | 37.72017 | 32995 ft | 537 kts | 91° |
| 2026-04-24 03:47 | 41.89141 | 37.82051 | 32995 ft | 537 kts | 91° |
| 2026-04-24 03:48 | 41.88936 | 37.92076 | 33004 ft | 537 kts | 91° |
| 2026-04-24 03:48 | 41.88722 | 38.02092 | 32991 ft | 537 kts | 91° |
| 2026-04-24 03:49 | 41.88499 | 38.12109 | 33000 ft | 537 kts | 91° |
| 2026-04-24 03:49 | 41.88268 | 38.22132 | 33000 ft | 537 kts | 91° |
| 2026-04-24 03:50 | 41.88027 | 38.32163 | 32991 ft | 537 kts | 91° |
| 2026-04-24 03:50 | 41.87778 | 38.42188 | 33004 ft | 537 kts | 91° |
| 2026-04-24 03:51 | 41.87521 | 38.52198 | 32995 ft | 537 kts | 91° |
| 2026-04-24 03:51 | 41.87254 | 38.62224 | 32995 ft | 537 kts | 91° |
| 2026-04-24 03:52 | 41.86981 | 38.72175 | 33004 ft | 537 kts | 91° |
| 2026-04-24 03:52 | 41.86698 | 38.82186 | 32991 ft | 537 kts | 92° |
| 2026-04-24 03:53 | 41.86405 | 38.92202 | 33000 ft | 537 kts | 92° |
| 2026-04-24 03:53 | 41.86104 | 39.02224 | 33000 ft | 537 kts | 92° |
| 2026-04-24 03:54 | 41.85794 | 39.12229 | 32991 ft | 537 kts | 92° |
| 2026-04-24 03:54 | 41.85476 | 39.22241 | 33004 ft | 537 kts | 92° |
| 2026-04-24 03:55 | 41.85149 | 39.32258 | 32995 ft | 537 kts | 92° |
| 2026-04-24 03:55 | 41.84813 | 39.42267 | 32995 ft | 537 kts | 92° |
| 2026-04-24 03:56 | 41.84472 | 39.52275 | 33004 ft | 537 kts | 92° |
| 2026-04-24 03:56 | 41.84119 | 39.62284 | 32991 ft | 537 kts | 92° |
| 2026-04-24 03:57 | 41.83759 | 39.72226 | 33000 ft | 537 kts | 92° |
| 2026-04-24 03:57 | 41.83389 | 39.82222 | 33000 ft | 537 kts | 92° |
| 2026-04-24 03:58 | 41.83011 | 39.92225 | 32991 ft | 537 kts | 92° |
| 2026-04-24 03:58 | 41.82624 | 40.02226 | 33004 ft | 537 kts | 92° |
| 2026-04-24 03:59 | 41.82231 | 40.12225 | 32995 ft | 537 kts | 92° |
| 2026-04-24 03:59 | 41.81826 | 40.22223 | 32995 ft | 537 kts | 92° |
| 2026-04-24 04:00 | 41.81410 | 40.32229 | 33004 ft | 537 kts | 93° |
| 2026-04-24 04:00 | 41.80986 | 40.42226 | 32991 ft | 537 kts | 93° |
| 2026-04-24 04:01 | 41.80555 | 40.52219 | 33000 ft | 537 kts | 93° |
| 2026-04-24 04:01 | 41.80115 | 40.62207 | 33000 ft | 537 kts | 93° |
| 2026-04-24 04:02 | 41.79650 | 40.72199 | 32991 ft | 537 kts | 93° |
| 2026-04-24 04:02 | 41.79165 | 40.82121 | 33004 ft | 537 kts | 93° |
| 2026-04-24 04:03 | 41.78667 | 40.92107 | 32995 ft | 537 kts | 94° |
| 2026-04-24 04:03 | 41.78162 | 41.02090 | 32995 ft | 537 kts | 94° |
| 2026-04-24 04:04 | 41.77648 | 41.12078 | 33004 ft | 537 kts | 94° |
| 2026-04-24 04:04 | 41.77126 | 41.22062 | 32991 ft | 537 kts | 94° |
| 2026-04-24 04:05 | 41.76595 | 41.32038 | 33000 ft | 537 kts | 94° |
| 2026-04-24 04:05 | 41.76056 | 41.42017 | 33000 ft | 537 kts | 94° |
| 2026-04-24 04:06 | 41.75509 | 41.51991 | 32991 ft | 537 kts | 94° |
| 2026-04-24 04:06 | 41.74952 | 41.61964 | 33004 ft | 537 kts | 94° |
| 2026-04-24 04:07 | 41.74387 | 41.71933 | 32995 ft | 537 kts | 94° |
| 2026-04-24 04:07 | 41.73814 | 41.81901 | 32995 ft | 537 kts | 94° |
| 2026-04-24 04:08 | 41.73231 | 41.91870 | 33004 ft | 537 kts | 94° |
| 2026-04-24 04:08 | 41.72640 | 42.01845 | 32991 ft | 537 kts | 94° |
| 2026-04-24 04:09 | 41.72047 | 42.11746 | 33000 ft | 537 kts | 94° |
| 2026-04-24 04:09 | 41.71437 | 42.21710 | 33000 ft | 537 kts | 94° |
| 2026-04-24 04:10 | 41.70919 | 42.30053 | 32990 ft | 537 kts | 94° |
| 2026-04-24 04:10 | 41.70293 | 42.40010 | 33002 ft | 537 kts | 94° |
| 2026-04-24 04:11 | 41.69339 | 42.54944 | 32991 ft | 537 kts | 95° |
| 2026-04-24 04:11 | 41.68692 | 42.64902 | 33000 ft | 537 kts | 95° |
| 2026-04-24 04:12 | 41.68041 | 42.74788 | 33000 ft | 537 kts | 95° |
| 2026-04-24 04:12 | 41.67379 | 42.84737 | 32991 ft | 537 kts | 95° |
| 2026-04-24 04:13 | 41.66706 | 42.94686 | 33004 ft | 537 kts | 95° |
| 2026-04-24 04:13 | 41.66021 | 43.04636 | 32995 ft | 537 kts | 95° |
| 2026-04-24 04:14 | 41.65328 | 43.14570 | 32995 ft | 537 kts | 95° |
| 2026-04-24 04:14 | 41.64627 | 43.24518 | 33004 ft | 537 kts | 95° |
| 2026-04-24 04:15 | 41.63919 | 43.34440 | 32991 ft | 537 kts | 95° |
| 2026-04-24 04:15 | 41.63201 | 43.44382 | 33000 ft | 537 kts | 95° |
| 2026-04-24 04:16 | 41.62480 | 43.54329 | 33000 ft | 537 kts | 95° |
| 2026-04-24 04:16 | 41.61748 | 43.64262 | 32991 ft | 537 kts | 95° |
| 2026-04-24 04:17 | 41.61008 | 43.74196 | 33004 ft | 537 kts | 95° |
| 2026-04-24 04:17 | 41.60265 | 43.84058 | 32995 ft | 537 kts | 95° |
| 2026-04-24 04:18 | 41.59509 | 43.93985 | 32994 ft | 537 kts | 95° |
| 2026-04-24 04:18 | 41.58745 | 44.03912 | 33004 ft | 537 kts | 96° |
| 2026-04-24 04:19 | 41.57972 | 44.13826 | 32991 ft | 537 kts | 96° |
| 2026-04-24 04:19 | 41.56564 | 44.23622 | 33010 ft | 537 kts | 104° |
| 2026-04-24 04:20 | 41.54596 | 44.33238 | 32990 ft | 537 kts | 108° |
| 2026-04-24 04:20 | 41.52338 | 44.42731 | 32996 ft | 536 kts | 109° |
| 2026-04-24 04:21 | 41.49988 | 44.52169 | 33003 ft | 536 kts | 110° |
| 2026-04-24 04:21 | 41.47623 | 44.61603 | 32991 ft | 536 kts | 110° |
| 2026-04-24 04:22 | 41.45261 | 44.71019 | 33000 ft | 535 kts | 110° |
| 2026-04-24 04:22 | 41.42894 | 44.80428 | 33000 ft | 535 kts | 110° |
| 2026-04-24 04:23 | 41.40520 | 44.89834 | 32991 ft | 535 kts | 110° |
| 2026-04-24 04:23 | 41.38151 | 44.99182 | 33004 ft | 535 kts | 110° |
| 2026-04-24 04:24 | 41.35761 | 45.08563 | 32995 ft | 535 kts | 110° |
| 2026-04-24 04:24 | 41.33361 | 45.17953 | 32995 ft | 535 kts | 110° |
| 2026-04-24 04:25 | 41.30954 | 45.27337 | 33004 ft | 535 kts | 110° |
| 2026-04-24 04:25 | 41.28541 | 45.36704 | 32991 ft | 535 kts | 110° |
| 2026-04-24 04:26 | 41.26120 | 45.46061 | 33000 ft | 535 kts | 110° |
| 2026-04-24 04:26 | 41.23691 | 45.55418 | 33000 ft | 535 kts | 110° |
| 2026-04-24 04:27 | 41.21249 | 45.64775 | 32991 ft | 535 kts | 110° |
| 2026-04-24 04:27 | 41.18799 | 45.74104 | 33004 ft | 535 kts | 110° |
| 2026-04-24 04:28 | 41.16341 | 45.83433 | 32995 ft | 535 kts | 110° |
| 2026-04-24 04:28 | 41.13872 | 45.92759 | 32995 ft | 535 kts | 111° |
| 2026-04-24 04:29 | 41.11394 | 46.02084 | 33004 ft | 535 kts | 111° |
| 2026-04-24 04:29 | 41.08912 | 46.11391 | 32991 ft | 535 kts | 111° |
| 2026-04-24 04:30 | 41.06421 | 46.20693 | 33000 ft | 535 kts | 111° |
| 2026-04-24 04:30 | 41.03926 | 46.29989 | 33000 ft | 535 kts | 111° |
| 2026-04-24 04:31 | 41.01442 | 46.39282 | 32991 ft | 535 kts | 111° |
| 2026-04-24 04:31 | 40.98956 | 46.48574 | 33003 ft | 535 kts | 111° |
| 2026-04-24 04:32 | 40.96460 | 46.57865 | 32995 ft | 535 kts | 111° |
| 2026-04-24 04:32 | 40.93975 | 46.67077 | 32994 ft | 535 kts | 111° |
| 2026-04-24 04:33 | 40.91467 | 46.76342 | 33004 ft | 535 kts | 111° |
| 2026-04-24 04:33 | 40.89758 | 46.85900 | 33009 ft | 535 kts | 98° |
| 2026-04-24 04:34 | 40.88912 | 46.95662 | 32992 ft | 536 kts | 95° |
| 2026-04-24 04:34 | 40.88234 | 47.05476 | 32995 ft | 536 kts | 95° |
| 2026-04-24 04:35 | 40.87537 | 47.15296 | 33004 ft | 537 kts | 95° |
| 2026-04-24 04:35 | 40.86809 | 47.25117 | 32991 ft | 537 kts | 95° |
| 2026-04-24 04:36 | 40.86064 | 47.34942 | 33000 ft | 537 kts | 95° |
| 2026-04-24 04:36 | 40.85310 | 47.44759 | 33000 ft | 537 kts | 95° |
| 2026-04-24 04:37 | 40.84601 | 47.54583 | 32990 ft | 537 kts | 95° |
| 2026-04-24 04:37 | 40.83969 | 47.64422 | 33003 ft | 537 kts | 95° |
| 2026-04-24 04:38 | 40.83359 | 47.74256 | 32997 ft | 537 kts | 95° |
| 2026-04-24 04:38 | 40.82745 | 47.84087 | 32993 ft | 537 kts | 95° |
| 2026-04-24 04:39 | 40.82121 | 47.93915 | 33004 ft | 537 kts | 95° |
| 2026-04-24 04:39 | 40.81487 | 48.03749 | 32992 ft | 537 kts | 95° |
| 2026-04-24 04:40 | 40.80845 | 48.13583 | 32998 ft | 537 kts | 95° |
| 2026-04-24 04:40 | 40.80195 | 48.23404 | 33002 ft | 537 kts | 95° |
| 2026-04-24 04:41 | 40.79541 | 48.33157 | 32990 ft | 537 kts | 95° |
| 2026-04-24 04:41 | 40.78873 | 48.42994 | 33003 ft | 537 kts | 95° |
| 2026-04-24 04:42 | 40.78198 | 48.52809 | 32997 ft | 537 kts | 95° |
| 2026-04-24 04:42 | 40.77515 | 48.62628 | 32993 ft | 537 kts | 95° |
| 2026-04-24 04:43 | 40.76823 | 48.72438 | 33004 ft | 537 kts | 95° |
| 2026-04-24 04:43 | 40.76123 | 48.82253 | 32992 ft | 537 kts | 95° |
| 2026-04-24 04:44 | 40.75414 | 48.92068 | 32998 ft | 537 kts | 96° |
| 2026-04-24 04:44 | 40.74698 | 49.01873 | 33002 ft | 537 kts | 96° |
| 2026-04-24 04:45 | 40.73972 | 49.11688 | 32990 ft | 537 kts | 96° |
| 2026-04-24 04:45 | 40.73206 | 49.21482 | 33004 ft | 537 kts | 97° |
| 2026-04-24 04:46 | 40.72184 | 49.31239 | 32995 ft | 537 kts | 99° |
| 2026-04-24 04:46 | 40.71046 | 49.40971 | 32995 ft | 537 kts | 99° |
| 2026-04-24 04:47 | 40.69878 | 49.50696 | 33004 ft | 537 kts | 99° |
| 2026-04-24 04:47 | 40.68711 | 49.60352 | 32991 ft | 537 kts | 99° |
| 2026-04-24 04:48 | 40.67531 | 49.70067 | 32999 ft | 537 kts | 99° |
| 2026-04-24 04:48 | 40.66343 | 49.79783 | 33001 ft | 537 kts | 99° |
| 2026-04-24 04:49 | 40.65149 | 49.89481 | 32991 ft | 537 kts | 100° |
| 2026-04-24 04:49 | 40.63944 | 49.99194 | 33003 ft | 537 kts | 100° |
| 2026-04-24 04:50 | 40.62731 | 50.08902 | 32995 ft | 537 kts | 100° |
| 2026-04-24 04:50 | 40.61512 | 50.18592 | 32994 ft | 537 kts | 100° |
| 2026-04-24 04:51 | 40.60284 | 50.28286 | 33021 ft | 538 kts | 100° |
| 2026-04-24 04:51 | 40.59674 | 50.33082 | 33382 ft | 537 kts | 100° |
| 2026-04-24 04:51 | 40.59048 | 50.37977 | 33863 ft | 534 kts | 100° |
| 2026-04-24 04:52 | 40.58442 | 50.42710 | 34293 ft | 532 kts | 100° |
| 2026-04-24 04:52 | 40.57824 | 50.47513 | 34637 ft | 531 kts | 100° |
| 2026-04-24 04:52 | 40.57205 | 50.52312 | 34863 ft | 532 kts | 100° |
| 2026-04-24 04:52 | 40.56582 | 50.57121 | 34983 ft | 533 kts | 100° |
| 2026-04-24 04:53 | 40.55332 | 50.66723 | 34999 ft | 533 kts | 100° |
| 2026-04-24 04:53 | 40.54287 | 50.74702 | 35001 ft | 532 kts | 100° |
| 2026-04-24 04:54 | 40.53023 | 50.84293 | 34993 ft | 532 kts | 100° |
| 2026-04-24 04:54 | 40.51845 | 50.93896 | 35003 ft | 532 kts | 98° |
| 2026-04-24 04:55 | 40.50947 | 51.03547 | 34993 ft | 532 kts | 97° |
| 2026-04-24 04:55 | 40.50092 | 51.13216 | 34996 ft | 532 kts | 97° |
| 2026-04-24 04:56 | 40.49215 | 51.22882 | 35004 ft | 532 kts | 97° |
| 2026-04-24 04:56 | 40.48321 | 51.32531 | 34991 ft | 532 kts | 97° |
| 2026-04-24 04:57 | 40.47415 | 51.42184 | 34998 ft | 532 kts | 97° |
| 2026-04-24 04:57 | 40.46158 | 51.51771 | 35003 ft | 533 kts | 102° |
| 2026-04-24 04:58 | 40.44564 | 51.61271 | 34989 ft | 532 kts | 104° |
| 2026-04-24 04:58 | 40.42847 | 51.70726 | 35002 ft | 532 kts | 104° |
| 2026-04-24 04:59 | 40.41102 | 51.80161 | 34998 ft | 532 kts | 104° |
| 2026-04-24 04:59 | 40.39366 | 51.89523 | 34992 ft | 532 kts | 104° |
| 2026-04-24 05:00 | 40.37612 | 51.98955 | 35004 ft | 532 kts | 104° |
| 2026-04-24 05:00 | 40.35853 | 52.08374 | 34993 ft | 532 kts | 105° |
| 2026-04-24 05:01 | 40.34086 | 52.17789 | 34997 ft | 532 kts | 105° |
| 2026-04-24 05:01 | 40.32311 | 52.27202 | 35003 ft | 532 kts | 105° |
| 2026-04-24 05:02 | 40.30531 | 52.36599 | 34990 ft | 532 kts | 105° |
| 2026-04-24 05:02 | 40.28741 | 52.45997 | 35001 ft | 532 kts | 105° |
| 2026-04-24 05:03 | 40.26943 | 52.55396 | 34999 ft | 532 kts | 105° |
| 2026-04-24 05:03 | 40.25139 | 52.64794 | 34991 ft | 532 kts | 105° |
| 2026-04-24 05:04 | 40.23335 | 52.74170 | 35004 ft | 532 kts | 105° |
| 2026-04-24 05:04 | 40.21520 | 52.83559 | 34994 ft | 532 kts | 105° |
| 2026-04-24 05:05 | 40.19697 | 52.92939 | 34996 ft | 532 kts | 105° |
| 2026-04-24 05:05 | 40.17878 | 53.02257 | 35003 ft | 532 kts | 105° |
| 2026-04-24 05:06 | 40.16042 | 53.11619 | 34991 ft | 532 kts | 105° |
| 2026-04-24 05:06 | 40.14196 | 53.20988 | 35001 ft | 532 kts | 105° |
| 2026-04-24 05:07 | 40.12343 | 53.30346 | 34999 ft | 532 kts | 105° |
| 2026-04-24 05:07 | 40.10484 | 53.39696 | 34991 ft | 532 kts | 105° |
| 2026-04-24 05:08 | 40.08616 | 53.49048 | 35004 ft | 532 kts | 105° |
| 2026-04-24 05:08 | 40.06740 | 53.58395 | 34994 ft | 532 kts | 105° |
| 2026-04-24 05:09 | 40.04859 | 53.67723 | 34996 ft | 532 kts | 106° |
| 2026-04-24 05:09 | 40.02967 | 53.77066 | 35004 ft | 532 kts | 106° |
| 2026-04-24 05:10 | 40.01082 | 53.86330 | 34991 ft | 532 kts | 106° |
| 2026-04-24 05:10 | 39.99178 | 53.95649 | 35001 ft | 532 kts | 106° |
| 2026-04-24 05:11 | 39.97264 | 54.04970 | 34999 ft | 532 kts | 106° |
| 2026-04-24 05:11 | 39.95345 | 54.14277 | 34991 ft | 532 kts | 106° |
| 2026-04-24 05:12 | 39.93418 | 54.23583 | 35004 ft | 532 kts | 106° |
| 2026-04-24 05:12 | 39.91484 | 54.32880 | 34994 ft | 532 kts | 106° |
| 2026-04-24 05:13 | 39.88563 | 54.46818 | 35003 ft | 532 kts | 106° |
| 2026-04-24 05:14 | 39.86598 | 54.56101 | 34996 ft | 532 kts | 107° |
| 2026-04-24 05:14 | 39.84625 | 54.65380 | 34993 ft | 532 kts | 107° |
| 2026-04-24 05:15 | 39.82643 | 54.74658 | 35004 ft | 532 kts | 107° |
| 2026-04-24 05:15 | 39.80663 | 54.83926 | 34992 ft | 532 kts | 107° |
| 2026-04-24 05:16 | 39.78683 | 54.93189 | 34998 ft | 532 kts | 107° |
| 2026-04-24 05:16 | 39.76695 | 55.02445 | 35002 ft | 532 kts | 107° |
| 2026-04-24 05:17 | 39.74697 | 55.11705 | 34990 ft | 532 kts | 107° |
| 2026-04-24 05:17 | 39.72692 | 55.20956 | 35003 ft | 532 kts | 107° |
| 2026-04-24 05:18 | 39.70694 | 55.30138 | 34997 ft | 532 kts | 107° |
| 2026-04-24 05:18 | 39.68669 | 55.39382 | 34993 ft | 532 kts | 107° |
| 2026-04-24 05:19 | 39.66640 | 55.48597 | 35004 ft | 532 kts | 107° |
| 2026-04-24 05:19 | 39.64600 | 55.57819 | 34992 ft | 532 kts | 107° |
| 2026-04-24 05:20 | 39.62550 | 55.67044 | 34998 ft | 532 kts | 107° |
| 2026-04-24 05:20 | 39.60493 | 55.76263 | 35002 ft | 532 kts | 107° |
| 2026-04-24 05:21 | 39.58429 | 55.85475 | 34990 ft | 532 kts | 107° |
| 2026-04-24 05:21 | 39.56370 | 55.94675 | 35003 ft | 532 kts | 107° |
| 2026-04-24 05:22 | 39.54312 | 56.03883 | 34997 ft | 532 kts | 107° |
| 2026-04-24 05:22 | 39.52249 | 56.13084 | 34993 ft | 532 kts | 107° |
| 2026-04-24 05:23 | 39.50177 | 56.22281 | 35004 ft | 532 kts | 107° |
| 2026-04-24 05:23 | 39.48112 | 56.31406 | 34992 ft | 532 kts | 107° |
| 2026-04-24 05:24 | 39.46025 | 56.40593 | 34998 ft | 532 kts | 107° |
| 2026-04-24 05:24 | 39.43934 | 56.49761 | 35002 ft | 532 kts | 108° |
| 2026-04-24 05:25 | 39.41834 | 56.58931 | 34990 ft | 532 kts | 108° |
| 2026-04-24 05:25 | 39.39726 | 56.68100 | 35003 ft | 532 kts | 108° |
| 2026-04-24 05:26 | 39.37606 | 56.77260 | 34998 ft | 532 kts | 108° |
| 2026-04-24 05:26 | 39.35370 | 56.86381 | 34991 ft | 532 kts | 109° |
| 2026-04-24 05:27 | 39.33068 | 56.95443 | 35004 ft | 531 kts | 109° |
| 2026-04-24 05:27 | 39.30738 | 57.04502 | 34994 ft | 531 kts | 109° |
| 2026-04-24 05:28 | 39.28398 | 57.13558 | 34996 ft | 531 kts | 109° |
| 2026-04-24 05:28 | 39.26055 | 57.22601 | 35003 ft | 531 kts | 109° |
| 2026-04-24 05:29 | 39.23704 | 57.31641 | 34991 ft | 531 kts | 109° |
| 2026-04-24 05:29 | 39.21348 | 57.40672 | 35001 ft | 531 kts | 109° |
| 2026-04-24 05:30 | 39.18981 | 57.49709 | 34999 ft | 531 kts | 109° |
| 2026-04-24 05:30 | 39.16611 | 57.58729 | 34991 ft | 531 kts | 110° |
| 2026-04-24 05:31 | 39.14250 | 57.67678 | 35004 ft | 531 kts | 110° |
| 2026-04-24 05:31 | 39.11865 | 57.76690 | 34994 ft | 531 kts | 110° |
| 2026-04-24 05:32 | 39.09471 | 57.85701 | 34996 ft | 531 kts | 110° |
| 2026-04-24 05:32 | 39.07069 | 57.94707 | 35003 ft | 531 kts | 110° |
| 2026-04-24 05:33 | 39.04663 | 58.03700 | 34991 ft | 531 kts | 110° |
| 2026-04-24 05:33 | 39.02251 | 58.12684 | 35001 ft | 531 kts | 110° |
| 2026-04-24 05:34 | 38.98622 | 58.26141 | 34992 ft | 531 kts | 110° |
| 2026-04-24 05:34 | 38.96208 | 58.35051 | 34999 ft | 531 kts | 110° |
| 2026-04-24 05:35 | 38.93771 | 58.44014 | 35001 ft | 531 kts | 110° |
| 2026-04-24 05:35 | 38.91327 | 58.52975 | 34990 ft | 531 kts | 110° |
| 2026-04-24 05:36 | 38.88661 | 58.61822 | 35005 ft | 531 kts | 115° |
| 2026-04-24 05:36 | 38.85571 | 58.70443 | 34995 ft | 531 kts | 117° |
| 2026-04-24 05:37 | 38.82309 | 58.78927 | 34994 ft | 530 kts | 118° |
| 2026-04-24 05:37 | 38.78988 | 58.87375 | 35004 ft | 530 kts | 118° |
| 2026-04-24 05:38 | 38.75656 | 58.95816 | 34992 ft | 530 kts | 118° |
| 2026-04-24 05:38 | 38.72328 | 59.04235 | 34999 ft | 530 kts | 118° |
| 2026-04-24 05:39 | 38.69559 | 59.11230 | 35003 ft | 530 kts | 118° |
| 2026-04-24 05:39 | 38.66222 | 59.19637 | 34991 ft | 530 kts | 118° |
| 2026-04-24 05:40 | 38.62881 | 59.28033 | 35001 ft | 530 kts | 118° |
| 2026-04-24 05:40 | 38.59556 | 59.36435 | 35000 ft | 530 kts | 117° |
| 2026-04-24 05:41 | 38.56381 | 59.44946 | 34989 ft | 530 kts | 116° |
| 2026-04-24 05:41 | 38.53243 | 59.53462 | 35003 ft | 530 kts | 116° |
| 2026-04-24 05:42 | 38.50085 | 59.61979 | 34996 ft | 530 kts | 116° |
| 2026-04-24 05:42 | 38.46913 | 59.70482 | 34994 ft | 530 kts | 116° |
| 2026-04-24 05:43 | 38.43734 | 59.78976 | 35004 ft | 530 kts | 116° |
| 2026-04-24 05:43 | 38.40551 | 59.87456 | 34991 ft | 530 kts | 116° |
| 2026-04-24 05:44 | 38.37362 | 59.95929 | 34999 ft | 530 kts | 116° |
| 2026-04-24 05:44 | 38.34184 | 60.04349 | 35001 ft | 530 kts | 117° |
| 2026-04-24 05:45 | 38.30982 | 60.12811 | 34990 ft | 530 kts | 117° |
| 2026-04-24 05:45 | 38.27775 | 60.21260 | 35003 ft | 530 kts | 117° |
| 2026-04-24 05:46 | 38.24560 | 60.29710 | 34996 ft | 530 kts | 117° |
| 2026-04-24 05:46 | 38.21339 | 60.38149 | 34994 ft | 530 kts | 117° |
| 2026-04-24 05:47 | 38.18115 | 60.46575 | 35004 ft | 530 kts | 117° |
| 2026-04-24 05:47 | 38.14884 | 60.54993 | 34992 ft | 530 kts | 117° |
| 2026-04-24 05:48 | 38.11646 | 60.63409 | 34999 ft | 530 kts | 117° |
| 2026-04-24 05:48 | 38.08400 | 60.71821 | 35001 ft | 530 kts | 117° |
| 2026-04-24 05:49 | 38.05150 | 60.80221 | 34991 ft | 530 kts | 117° |
| 2026-04-24 05:49 | 38.01894 | 60.88615 | 35003 ft | 530 kts | 117° |
| 2026-04-24 05:50 | 37.98633 | 60.96996 | 34996 ft | 530 kts | 117° |
| 2026-04-24 05:50 | 37.95367 | 61.05370 | 34994 ft | 530 kts | 117° |
| 2026-04-24 05:51 | 37.92116 | 61.13682 | 35004 ft | 530 kts | 117° |
| 2026-04-24 05:51 | 37.88839 | 61.22038 | 34992 ft | 530 kts | 117° |
| 2026-04-24 05:52 | 37.85549 | 61.30405 | 34999 ft | 530 kts | 117° |
| 2026-04-24 05:52 | 37.82259 | 61.38748 | 35001 ft | 530 kts | 117° |
| 2026-04-24 05:53 | 37.78961 | 61.47090 | 34990 ft | 530 kts | 117° |
| 2026-04-24 05:53 | 37.75656 | 61.55428 | 35003 ft | 530 kts | 117° |
| 2026-04-24 05:54 | 37.72366 | 61.63705 | 34996 ft | 530 kts | 117° |
| 2026-04-24 05:54 | 37.69049 | 61.72028 | 34994 ft | 530 kts | 118° |
| 2026-04-24 05:55 | 37.65729 | 61.80338 | 35004 ft | 530 kts | 118° |
| 2026-04-24 05:55 | 37.62553 | 61.88720 | 34981 ft | 529 kts | 112° |
| 2026-04-24 05:56 | 37.60322 | 61.97573 | 35005 ft | 530 kts | 106° |
| 2026-04-24 05:56 | 37.58411 | 62.06563 | 34988 ft | 531 kts | 105° |
| 2026-04-24 05:57 | 37.56508 | 62.15564 | 35002 ft | 532 kts | 105° |
| 2026-04-24 05:57 | 37.54568 | 62.24566 | 34997 ft | 532 kts | 105° |
| 2026-04-24 05:58 | 37.52610 | 62.33550 | 34993 ft | 532 kts | 105° |
| 2026-04-24 05:58 | 37.50653 | 62.42488 | 35004 ft | 532 kts | 105° |
| 2026-04-24 05:59 | 37.48678 | 62.51471 | 34993 ft | 532 kts | 105° |
| 2026-04-24 05:59 | 37.46699 | 62.60440 | 34998 ft | 532 kts | 106° |
| 2026-04-24 06:00 | 37.44711 | 62.69418 | 35002 ft | 532 kts | 106° |
| 2026-04-24 06:00 | 37.42717 | 62.78384 | 34990 ft | 532 kts | 106° |
| 2026-04-24 06:01 | 37.40716 | 62.87345 | 35002 ft | 532 kts | 106° |
| 2026-04-24 06:01 | 37.38707 | 62.96307 | 34997 ft | 532 kts | 106° |
| 2026-04-24 06:02 | 37.36694 | 63.05257 | 34992 ft | 532 kts | 106° |
| 2026-04-24 06:02 | 37.34673 | 63.14203 | 35004 ft | 532 kts | 106° |
| 2026-04-24 06:03 | 37.32644 | 63.23152 | 34993 ft | 532 kts | 106° |
| 2026-04-24 06:03 | 37.30611 | 63.32081 | 34997 ft | 532 kts | 106° |
| 2026-04-24 06:04 | 37.28570 | 63.41012 | 35003 ft | 532 kts | 106° |
| 2026-04-24 06:04 | 37.26523 | 63.49939 | 34990 ft | 532 kts | 106° |
| 2026-04-24 06:05 | 37.24468 | 63.58860 | 35002 ft | 532 kts | 106° |
| 2026-04-24 06:05 | 37.22421 | 63.67721 | 34998 ft | 532 kts | 107° |
| 2026-04-24 06:06 | 37.20354 | 63.76627 | 34992 ft | 532 kts | 107° |
| 2026-04-24 06:06 | 37.18280 | 63.85534 | 35004 ft | 532 kts | 107° |
| 2026-04-24 06:07 | 37.16198 | 63.94442 | 34993 ft | 532 kts | 107° |
| 2026-04-24 06:07 | 37.14111 | 64.03337 | 34997 ft | 532 kts | 107° |
| 2026-04-24 06:08 | 37.12014 | 64.12240 | 35003 ft | 532 kts | 107° |
| 2026-04-24 06:08 | 37.09914 | 64.21125 | 34990 ft | 532 kts | 107° |
| 2026-04-24 06:09 | 37.07808 | 64.29999 | 35002 ft | 532 kts | 107° |
| 2026-04-24 06:09 | 37.05693 | 64.38882 | 34998 ft | 532 kts | 107° |
| 2026-04-24 06:10 | 37.03573 | 64.47750 | 34992 ft | 532 kts | 107° |
| 2026-04-24 06:11 | 37.00378 | 64.61057 | 35001 ft | 532 kts | 107° |
| 2026-04-24 06:11 | 36.98240 | 64.69912 | 34990 ft | 532 kts | 108° |
| 2026-04-24 06:12 | 36.95251 | 64.78368 | 35009 ft | 532 kts | 119° |
| 2026-04-24 06:12 | 36.91705 | 64.86403 | 34991 ft | 531 kts | 122° |
| 2026-04-24 06:13 | 36.87822 | 64.94236 | 34995 ft | 530 kts | 124° |
| 2026-04-24 06:13 | 36.83783 | 65.01927 | 35003 ft | 529 kts | 125° |
| 2026-04-24 06:14 | 36.79712 | 65.09577 | 34991 ft | 529 kts | 125° |
| 2026-04-24 06:14 | 36.75642 | 65.17216 | 34999 ft | 528 kts | 125° |
| 2026-04-24 06:15 | 36.71577 | 65.24842 | 35001 ft | 528 kts | 125° |
| 2026-04-24 06:15 | 36.67502 | 65.32470 | 34991 ft | 528 kts | 126° |
| 2026-04-24 06:16 | 36.63428 | 65.40083 | 35003 ft | 528 kts | 126° |
| 2026-04-24 06:16 | 36.59349 | 65.47686 | 34996 ft | 528 kts | 126° |
| 2026-04-24 06:17 | 36.55263 | 65.55284 | 34994 ft | 528 kts | 126° |
| 2026-04-24 06:17 | 36.51173 | 65.62874 | 35004 ft | 528 kts | 126° |
| 2026-04-24 06:18 | 36.47081 | 65.70451 | 34992 ft | 528 kts | 126° |
| 2026-04-24 06:18 | 36.42981 | 65.78026 | 34999 ft | 528 kts | 126° |
| 2026-04-24 06:19 | 36.38877 | 65.85589 | 35001 ft | 528 kts | 126° |
| 2026-04-24 06:19 | 36.34764 | 65.93155 | 34991 ft | 528 kts | 126° |
| 2026-04-24 06:20 | 36.30676 | 66.00657 | 35003 ft | 528 kts | 126° |
| 2026-04-24 06:20 | 36.26559 | 66.08195 | 34996 ft | 528 kts | 126° |
| 2026-04-24 06:21 | 36.22436 | 66.15726 | 34994 ft | 528 kts | 126° |
| 2026-04-24 06:21 | 36.18307 | 66.23244 | 35004 ft | 528 kts | 126° |
| 2026-04-24 06:22 | 36.14168 | 66.30761 | 34992 ft | 528 kts | 126° |
| 2026-04-24 06:22 | 36.10025 | 66.38269 | 34999 ft | 528 kts | 126° |
| 2026-04-24 06:23 | 36.06575 | 66.44508 | 35003 ft | 528 kts | 126° |
| 2026-04-24 06:23 | 36.01749 | 66.53217 | 34990 ft | 528 kts | 126° |
| 2026-04-24 06:24 | 35.98269 | 66.59484 | 35001 ft | 528 kts | 126° |
| 2026-04-24 06:24 | 35.94110 | 66.66957 | 34999 ft | 528 kts | 126° |
| 2026-04-24 06:25 | 35.89944 | 66.74428 | 34991 ft | 528 kts | 126° |
| 2026-04-24 06:25 | 35.85773 | 66.81890 | 35004 ft | 528 kts | 126° |
| 2026-04-24 06:26 | 35.81628 | 66.89291 | 34994 ft | 528 kts | 126° |
| 2026-04-24 06:26 | 35.77458 | 66.96746 | 34996 ft | 528 kts | 126° |
| 2026-04-24 06:27 | 35.73295 | 67.04200 | 35003 ft | 528 kts | 126° |
| 2026-04-24 06:27 | 35.69125 | 67.11652 | 34991 ft | 528 kts | 126° |
| 2026-04-24 06:28 | 35.64951 | 67.19094 | 35001 ft | 528 kts | 126° |
| 2026-04-24 06:28 | 35.60775 | 67.26524 | 34999 ft | 528 kts | 126° |
| 2026-04-24 06:29 | 35.56595 | 67.33943 | 34991 ft | 528 kts | 127° |
| 2026-04-24 06:29 | 35.52407 | 67.41360 | 35004 ft | 528 kts | 127° |
| 2026-04-24 06:30 | 35.48219 | 67.48763 | 34994 ft | 528 kts | 127° |
| 2026-04-24 06:30 | 35.44023 | 67.56164 | 34996 ft | 528 kts | 127° |
| 2026-04-24 06:31 | 35.39825 | 67.63551 | 35004 ft | 528 kts | 127° |
| 2026-04-24 06:31 | 35.35618 | 67.70942 | 34991 ft | 528 kts | 127° |
| 2026-04-24 06:32 | 35.31407 | 67.78321 | 35001 ft | 528 kts | 127° |
| 2026-04-24 06:32 | 35.27239 | 67.85661 | 34999 ft | 528 kts | 126° |
| 2026-04-24 06:33 | 35.23077 | 67.93068 | 34991 ft | 528 kts | 126° |
| 2026-04-24 06:33 | 35.18915 | 68.00470 | 35004 ft | 528 kts | 126° |
| 2026-04-24 06:34 | 35.14746 | 68.07865 | 34994 ft | 528 kts | 126° |
| 2026-04-24 06:34 | 35.10569 | 68.15255 | 34995 ft | 528 kts | 126° |
| 2026-04-24 06:35 | 35.06386 | 68.22638 | 35004 ft | 528 kts | 127° |
| 2026-04-24 06:35 | 35.02144 | 68.29960 | 34990 ft | 528 kts | 127° |
| 2026-04-24 06:36 | 34.97867 | 68.37241 | 35000 ft | 528 kts | 127° |
| 2026-04-24 06:36 | 34.93582 | 68.44513 | 35000 ft | 528 kts | 128° |
| 2026-04-24 06:37 | 34.89297 | 68.51775 | 34991 ft | 528 kts | 128° |
| 2026-04-24 06:37 | 34.85002 | 68.59041 | 35004 ft | 528 kts | 128° |
| 2026-04-24 06:38 | 34.80704 | 68.66298 | 34995 ft | 528 kts | 128° |
| 2026-04-24 06:38 | 34.76430 | 68.73500 | 34995 ft | 528 kts | 128° |
| 2026-04-24 06:39 | 34.72127 | 68.80736 | 35004 ft | 528 kts | 128° |
| 2026-04-24 06:39 | 34.67820 | 68.87965 | 34991 ft | 528 kts | 128° |
| 2026-04-24 06:40 | 34.63511 | 68.95182 | 35000 ft | 528 kts | 128° |
| 2026-04-24 06:40 | 34.59193 | 69.02399 | 35000 ft | 528 kts | 128° |
| 2026-04-24 06:41 | 34.54872 | 69.09607 | 34991 ft | 528 kts | 128° |
| 2026-04-24 06:41 | 34.50846 | 69.17045 | 35013 ft | 528 kts | 121° |
| 2026-04-24 06:42 | 34.47418 | 69.24922 | 34993 ft | 529 kts | 117° |
| 2026-04-24 06:42 | 34.44096 | 69.32880 | 34995 ft | 530 kts | 117° |
| 2026-04-24 06:43 | 34.40745 | 69.40835 | 35004 ft | 530 kts | 118° |
| 2026-04-24 06:43 | 34.37369 | 69.48777 | 34991 ft | 530 kts | 118° |
| 2026-04-24 06:44 | 34.33984 | 69.56704 | 35000 ft | 530 kts | 118° |
| 2026-04-24 06:44 | 34.30591 | 69.64628 | 35000 ft | 530 kts | 118° |
| 2026-04-24 06:45 | 34.27195 | 69.72543 | 34991 ft | 530 kts | 118° |
| 2026-04-24 06:45 | 34.23793 | 69.80457 | 35004 ft | 530 kts | 118° |
| 2026-04-24 06:46 | 34.20384 | 69.88365 | 34995 ft | 530 kts | 118° |
| 2026-04-24 06:46 | 34.16991 | 69.96207 | 34995 ft | 530 kts | 118° |
| 2026-04-24 06:47 | 34.13549 | 70.04093 | 35004 ft | 530 kts | 118° |
| 2026-04-24 06:47 | 34.10101 | 70.11960 | 34991 ft | 530 kts | 118° |
| 2026-04-24 06:48 | 34.06648 | 70.19825 | 35000 ft | 530 kts | 118° |
| 2026-04-24 06:48 | 34.03195 | 70.27672 | 35000 ft | 530 kts | 118° |
| 2026-04-24 06:49 | 33.99731 | 70.35528 | 34991 ft | 530 kts | 119° |
| 2026-04-24 06:49 | 33.96265 | 70.43371 | 35004 ft | 530 kts | 119° |
| 2026-04-24 06:50 | 33.93057 | 70.51360 | 34999 ft | 530 kts | 113° |
| 2026-04-24 06:50 | 33.90512 | 70.59697 | 34988 ft | 531 kts | 109° |
| 2026-04-24 06:51 | 33.88137 | 70.68109 | 35000 ft | 531 kts | 109° |
| 2026-04-24 06:51 | 33.85751 | 70.76537 | 35000 ft | 532 kts | 109° |
| 2026-04-24 06:52 | 33.83344 | 70.84943 | 34991 ft | 532 kts | 109° |
| 2026-04-24 06:52 | 33.80939 | 70.93293 | 35004 ft | 532 kts | 109° |
| 2026-04-24 06:53 | 33.78510 | 71.01695 | 34995 ft | 532 kts | 109° |
| 2026-04-24 06:53 | 33.76076 | 71.10094 | 34994 ft | 532 kts | 109° |
| 2026-04-24 06:54 | 33.73637 | 71.18485 | 35004 ft | 532 kts | 110° |
| 2026-04-24 06:54 | 33.71191 | 71.26877 | 34991 ft | 532 kts | 110° |
| 2026-04-24 06:55 | 33.68741 | 71.35259 | 35000 ft | 532 kts | 110° |
| 2026-04-24 06:55 | 33.66285 | 71.43635 | 35001 ft | 532 kts | 110° |
| 2026-04-24 06:56 | 33.63824 | 71.52003 | 34991 ft | 532 kts | 110° |
| 2026-04-24 06:56 | 33.61374 | 71.60313 | 35003 ft | 532 kts | 110° |
| 2026-04-24 06:57 | 33.58902 | 71.68675 | 34995 ft | 532 kts | 110° |
| 2026-04-24 06:57 | 33.56423 | 71.77033 | 34994 ft | 532 kts | 110° |
| 2026-04-24 06:58 | 33.53501 | 71.85164 | 35011 ft | 532 kts | 119° |
| 2026-04-24 06:58 | 33.49840 | 71.92862 | 34997 ft | 531 kts | 123° |
| 2026-04-24 06:59 | 33.45905 | 72.00337 | 34992 ft | 530 kts | 124° |
| 2026-04-24 06:59 | 33.41900 | 72.07736 | 35004 ft | 529 kts | 125° |
| 2026-04-24 07:00 | 33.37891 | 72.15126 | 34994 ft | 529 kts | 125° |
| 2026-04-24 07:00 | 33.33888 | 72.22507 | 34996 ft | 529 kts | 125° |
| 2026-04-24 07:01 | 33.29880 | 72.29891 | 35003 ft | 529 kts | 125° |
| 2026-04-24 07:01 | 33.25874 | 72.37256 | 34991 ft | 528 kts | 125° |
| 2026-04-24 07:02 | 33.21863 | 72.44616 | 35001 ft | 528 kts | 125° |
| 2026-04-24 07:02 | 33.17845 | 72.51971 | 34999 ft | 529 kts | 125° |
| 2026-04-24 07:03 | 33.13854 | 72.59266 | 34991 ft | 528 kts | 125° |
| 2026-04-24 07:03 | 33.09827 | 72.66610 | 35004 ft | 529 kts | 125° |
| 2026-04-24 07:04 | 33.05800 | 72.73942 | 34994 ft | 529 kts | 125° |
| 2026-04-24 07:04 | 33.01765 | 72.81270 | 34996 ft | 528 kts | 125° |
| 2026-04-24 07:05 | 32.97730 | 72.88587 | 35004 ft | 529 kts | 125° |
| 2026-04-24 07:05 | 32.93688 | 72.95902 | 34991 ft | 529 kts | 125° |
| 2026-04-24 07:06 | 32.89643 | 73.03205 | 35001 ft | 528 kts | 125° |
| 2026-04-24 07:06 | 32.85591 | 73.10510 | 34999 ft | 529 kts | 125° |
| 2026-04-24 07:07 | 32.81532 | 73.17811 | 34991 ft | 529 kts | 125° |
| 2026-04-24 07:07 | 32.74380 | 73.27671 | 35010 ft | 528 kts | 139° |
| 2026-04-24 07:08 | 32.68927 | 73.33488 | 34990 ft | 526 kts | 142° |
| 2026-04-24 07:08 | 32.64189 | 73.38097 | 34995 ft | 525 kts | 144° |
| 2026-04-24 07:09 | 32.58461 | 73.43453 | 35003 ft | 524 kts | 144° |
| 2026-04-24 07:09 | 32.52725 | 73.48767 | 34992 ft | 523 kts | 144° |
| 2026-04-24 07:10 | 32.47036 | 73.54034 | 34999 ft | 523 kts | 144° |
| 2026-04-24 07:10 | 32.41306 | 73.59338 | 35001 ft | 522 kts | 144° |
| 2026-04-24 07:11 | 32.35574 | 73.64636 | 34990 ft | 522 kts | 144° |
| 2026-04-24 07:11 | 32.29842 | 73.69926 | 35003 ft | 522 kts | 144° |
| 2026-04-24 07:12 | 32.24111 | 73.75207 | 34996 ft | 522 kts | 144° |
| 2026-04-24 07:12 | 32.18377 | 73.80480 | 34994 ft | 522 kts | 144° |
| 2026-04-24 07:13 | 32.12642 | 73.85747 | 35004 ft | 522 kts | 144° |
| 2026-04-24 07:13 | 32.06907 | 73.91005 | 34992 ft | 522 kts | 144° |
| 2026-04-24 07:14 | 32.01164 | 73.96262 | 34999 ft | 522 kts | 144° |
| 2026-04-24 07:14 | 31.95411 | 74.01518 | 35001 ft | 522 kts | 144° |
| 2026-04-24 07:15 | 31.89669 | 74.06757 | 34990 ft | 522 kts | 144° |
| 2026-04-24 07:15 | 31.83953 | 74.11964 | 35003 ft | 522 kts | 144° |
| 2026-04-24 07:16 | 31.78206 | 74.17190 | 34996 ft | 522 kts | 144° |
| 2026-04-24 07:16 | 31.72452 | 74.22414 | 34993 ft | 522 kts | 145° |
| 2026-04-24 07:17 | 31.66697 | 74.27631 | 35004 ft | 522 kts | 145° |
| 2026-04-24 07:17 | 31.60942 | 74.32839 | 34992 ft | 522 kts | 145° |
| 2026-04-24 07:18 | 31.55185 | 74.38040 | 34998 ft | 522 kts | 145° |
| 2026-04-24 07:18 | 31.49424 | 74.43238 | 35002 ft | 522 kts | 145° |
| 2026-04-24 07:19 | 31.43659 | 74.48430 | 34990 ft | 522 kts | 145° |
| 2026-04-24 07:19 | 31.37893 | 74.53615 | 35003 ft | 522 kts | 145° |
| 2026-04-24 07:20 | 31.32327 | 74.59078 | 35001 ft | 523 kts | 139° |
| 2026-04-24 07:20 | 31.27059 | 74.64876 | 34988 ft | 524 kts | 138° |
| 2026-04-24 07:21 | 31.21775 | 74.70748 | 35003 ft | 524 kts | 138° |
| 2026-04-24 07:21 | 31.16463 | 74.76602 | 34996 ft | 525 kts | 138° |
| 2026-04-24 07:22 | 31.11144 | 74.82433 | 34994 ft | 525 kts | 138° |
| 2026-04-24 07:22 | 31.05816 | 74.88257 | 35004 ft | 525 kts | 138° |
| 2026-04-24 07:23 | 31.00487 | 74.94075 | 34992 ft | 525 kts | 139° |
| 2026-04-24 07:23 | 30.95155 | 74.99887 | 34999 ft | 525 kts | 139° |
| 2026-04-24 07:24 | 30.89821 | 75.05691 | 35001 ft | 525 kts | 139° |
| 2026-04-24 07:24 | 30.84485 | 75.11489 | 34991 ft | 525 kts | 139° |
| 2026-04-24 07:25 | 30.79680 | 75.17873 | 35010 ft | 525 kts | 129° |
| 2026-04-24 07:25 | 30.75403 | 75.24775 | 34991 ft | 527 kts | 126° |
| 2026-04-24 07:26 | 30.71328 | 75.31861 | 34995 ft | 528 kts | 124° |
| 2026-04-24 07:26 | 30.67284 | 75.38989 | 35004 ft | 528 kts | 124° |
| 2026-04-24 07:27 | 30.63230 | 75.46113 | 34991 ft | 529 kts | 124° |
| 2026-04-24 07:27 | 30.59162 | 75.53232 | 35000 ft | 529 kts | 124° |
| 2026-04-24 07:28 | 30.55090 | 75.60342 | 35000 ft | 529 kts | 124° |
| 2026-04-24 07:28 | 30.51014 | 75.67446 | 34991 ft | 529 kts | 125° |
| 2026-04-24 07:29 | 30.46931 | 75.74548 | 35004 ft | 529 kts | 125° |
| 2026-04-24 07:29 | 30.42847 | 75.81642 | 34995 ft | 529 kts | 125° |
| 2026-04-24 07:30 | 30.38781 | 75.88689 | 34994 ft | 529 kts | 125° |
| 2026-04-24 07:30 | 30.34689 | 75.95771 | 35004 ft | 529 kts | 125° |
| 2026-04-24 07:31 | 30.30597 | 76.02840 | 34991 ft | 529 kts | 125° |
| 2026-04-24 07:31 | 30.26495 | 76.09912 | 34999 ft | 529 kts | 125° |
| 2026-04-24 07:32 | 30.22391 | 76.16977 | 35001 ft | 529 kts | 125° |
| 2026-04-24 07:32 | 30.18281 | 76.24039 | 34991 ft | 529 kts | 125° |
| 2026-04-24 07:33 | 30.14172 | 76.31088 | 35003 ft | 529 kts | 125° |
| 2026-04-24 07:33 | 30.10061 | 76.38126 | 34995 ft | 529 kts | 125° |
| 2026-04-24 07:34 | 30.05940 | 76.45171 | 34994 ft | 529 kts | 125° |
| 2026-04-24 07:34 | 30.01822 | 76.52198 | 35004 ft | 529 kts | 125° |
| 2026-04-24 07:35 | 29.97725 | 76.59176 | 34992 ft | 529 kts | 125° |
| 2026-04-24 07:35 | 29.93595 | 76.66199 | 34999 ft | 529 kts | 125° |
| 2026-04-24 07:36 | 29.89468 | 76.73205 | 35001 ft | 529 kts | 125° |
| 2026-04-24 07:36 | 29.85330 | 76.80218 | 34991 ft | 529 kts | 125° |
| 2026-04-24 07:37 | 29.81195 | 76.87213 | 35003 ft | 529 kts | 125° |
| 2026-04-24 07:37 | 29.77049 | 76.94214 | 34996 ft | 529 kts | 125° |
| 2026-04-24 07:38 | 29.72900 | 77.01209 | 34994 ft | 529 kts | 126° |
| 2026-04-24 07:38 | 29.68755 | 77.08186 | 35004 ft | 529 kts | 126° |
| 2026-04-24 07:39 | 29.64602 | 77.15162 | 34992 ft | 529 kts | 126° |
| 2026-04-24 07:39 | 29.60444 | 77.22137 | 34999 ft | 528 kts | 126° |
| 2026-04-24 07:40 | 29.56284 | 77.29103 | 35001 ft | 528 kts | 126° |
| 2026-04-24 07:40 | 29.52149 | 77.36014 | 34990 ft | 528 kts | 126° |
| 2026-04-24 07:41 | 29.47984 | 77.42965 | 35003 ft | 528 kts | 126° |
| 2026-04-24 07:41 | 29.43810 | 77.49918 | 34996 ft | 528 kts | 126° |
| 2026-04-24 07:42 | 29.39634 | 77.56864 | 34993 ft | 528 kts | 126° |
| 2026-04-24 07:42 | 29.35459 | 77.63796 | 35004 ft | 528 kts | 126° |
| 2026-04-24 07:43 | 29.31280 | 77.70723 | 34992 ft | 528 kts | 126° |
| 2026-04-24 07:43 | 29.27092 | 77.77653 | 34999 ft | 528 kts | 126° |
| 2026-04-24 07:44 | 29.22907 | 77.84566 | 35002 ft | 528 kts | 126° |
| 2026-04-24 07:44 | 29.18715 | 77.91481 | 34990 ft | 528 kts | 126° |
| 2026-04-24 07:45 | 29.14519 | 77.98389 | 35003 ft | 528 kts | 126° |
| 2026-04-24 07:45 | 29.10324 | 78.05285 | 34996 ft | 528 kts | 126° |
| 2026-04-24 07:46 | 29.06124 | 78.12177 | 34993 ft | 528 kts | 126° |
| 2026-04-24 07:46 | 29.01921 | 78.19064 | 35004 ft | 528 kts | 126° |
| 2026-04-24 07:47 | 28.97743 | 78.25899 | 34992 ft | 528 kts | 126° |
| 2026-04-24 07:47 | 28.93530 | 78.32777 | 34998 ft | 528 kts | 126° |
| 2026-04-24 07:48 | 28.89318 | 78.39645 | 35002 ft | 528 kts | 126° |
| 2026-04-24 07:48 | 28.85097 | 78.46515 | 34990 ft | 528 kts | 126° |
| 2026-04-24 07:49 | 28.80874 | 78.53378 | 35002 ft | 528 kts | 126° |
| 2026-04-24 07:49 | 28.76648 | 78.60234 | 34997 ft | 528 kts | 126° |
| 2026-04-24 07:50 | 28.72421 | 78.67080 | 34993 ft | 528 kts | 126° |
| 2026-04-24 07:50 | 28.68191 | 78.73921 | 35004 ft | 528 kts | 126° |
| 2026-04-24 07:51 | 28.63954 | 78.80761 | 34992 ft | 528 kts | 126° |
| 2026-04-24 07:51 | 28.59711 | 78.87600 | 34998 ft | 528 kts | 126° |
| 2026-04-24 07:52 | 28.55468 | 78.94428 | 35002 ft | 528 kts | 126° |
| 2026-04-24 07:52 | 28.51224 | 79.01246 | 34990 ft | 528 kts | 126° |
| 2026-04-24 07:53 | 28.47695 | 79.06908 | 35000 ft | 528 kts | 126° |
| 2026-04-24 07:53 | 28.42749 | 79.14830 | 34997 ft | 528 kts | 127° |
| 2026-04-24 07:54 | 28.39186 | 79.20529 | 34991 ft | 528 kts | 127° |
| 2026-04-24 07:54 | 28.34928 | 79.27329 | 35004 ft | 528 kts | 127° |
| 2026-04-24 07:55 | 28.30670 | 79.34117 | 34995 ft | 528 kts | 127° |
| 2026-04-24 07:55 | 28.26406 | 79.40904 | 34995 ft | 528 kts | 127° |
| 2026-04-24 07:56 | 28.22137 | 79.47688 | 35004 ft | 528 kts | 127° |
| 2026-04-24 07:56 | 28.17868 | 79.54463 | 34991 ft | 528 kts | 127° |
| 2026-04-24 07:57 | 28.13594 | 79.61232 | 35000 ft | 528 kts | 127° |
| 2026-04-24 07:57 | 28.09317 | 79.67999 | 35000 ft | 528 kts | 127° |
| 2026-04-24 07:58 | 28.05039 | 79.74754 | 34991 ft | 528 kts | 127° |
| 2026-04-24 07:58 | 28.00750 | 79.81517 | 35004 ft | 528 kts | 127° |
| 2026-04-24 07:59 | 27.96494 | 79.88217 | 34995 ft | 528 kts | 127° |
| 2026-04-24 07:59 | 27.92205 | 79.94959 | 34994 ft | 528 kts | 127° |
| 2026-04-24 08:00 | 27.87913 | 80.01695 | 35004 ft | 528 kts | 127° |
| 2026-04-24 08:00 | 27.83617 | 80.08427 | 34991 ft | 528 kts | 127° |
| 2026-04-24 08:01 | 27.79315 | 80.15157 | 34999 ft | 528 kts | 127° |
| 2026-04-24 08:01 | 27.75015 | 80.21875 | 35001 ft | 528 kts | 127° |
| 2026-04-24 08:02 | 27.70707 | 80.28594 | 34991 ft | 528 kts | 127° |
| 2026-04-24 08:02 | 27.66396 | 80.35307 | 35003 ft | 528 kts | 127° |
| 2026-04-24 08:03 | 27.62086 | 80.42008 | 34996 ft | 528 kts | 127° |
| 2026-04-24 08:03 | 27.57767 | 80.48714 | 34994 ft | 528 kts | 127° |
| 2026-04-24 08:04 | 27.53449 | 80.55409 | 35004 ft | 528 kts | 127° |
| 2026-04-24 08:04 | 27.49127 | 80.62097 | 34992 ft | 528 kts | 127° |
| 2026-04-24 08:05 | 27.44828 | 80.68741 | 34999 ft | 528 kts | 127° |
| 2026-04-24 08:05 | 27.40503 | 80.75415 | 35001 ft | 528 kts | 127° |
| 2026-04-24 08:06 | 27.36172 | 80.82089 | 34990 ft | 528 kts | 127° |
| 2026-04-24 08:06 | 27.31835 | 80.88761 | 35003 ft | 528 kts | 127° |
| 2026-04-24 08:07 | 27.27499 | 80.95421 | 34996 ft | 528 kts | 127° |
| 2026-04-24 08:07 | 27.23157 | 81.02081 | 34993 ft | 528 kts | 127° |
| 2026-04-24 08:08 | 27.18815 | 81.08730 | 35004 ft | 528 kts | 127° |
| 2026-04-24 08:09 | 27.12297 | 81.18694 | 34991 ft | 528 kts | 127° |
| 2026-04-24 08:09 | 27.07947 | 81.25331 | 35004 ft | 528 kts | 127° |
| 2026-04-24 08:10 | 27.03592 | 81.31966 | 34994 ft | 528 kts | 128° |
| 2026-04-24 08:10 | 26.99237 | 81.38591 | 34996 ft | 528 kts | 128° |
| 2026-04-24 08:11 | 26.94878 | 81.45216 | 35004 ft | 528 kts | 128° |
| 2026-04-24 08:11 | 26.90642 | 81.51879 | 34991 ft | 528 kts | 126° |
| 2026-04-24 08:12 | 26.86443 | 81.58626 | 34999 ft | 528 kts | 126° |
| 2026-04-24 08:12 | 26.82243 | 81.65381 | 35001 ft | 528 kts | 126° |
| 2026-04-24 08:13 | 26.78036 | 81.72128 | 34991 ft | 528 kts | 126° |
| 2026-04-24 08:13 | 26.73825 | 81.78866 | 35003 ft | 528 kts | 126° |
| 2026-04-24 08:14 | 26.69610 | 81.85599 | 34996 ft | 528 kts | 126° |
| 2026-04-24 08:14 | 26.65390 | 81.92331 | 34994 ft | 528 kts | 126° |
| 2026-04-24 08:15 | 26.61169 | 81.99054 | 35004 ft | 528 kts | 126° |
| 2026-04-24 08:15 | 26.56972 | 82.05729 | 34992 ft | 528 kts | 127° |
| 2026-04-24 08:16 | 26.52739 | 82.12451 | 34999 ft | 528 kts | 127° |
| 2026-04-24 08:16 | 26.48505 | 82.19165 | 35001 ft | 528 kts | 127° |
| 2026-04-24 08:17 | 26.44270 | 82.25871 | 34990 ft | 528 kts | 127° |
| 2026-04-24 08:17 | 26.40031 | 82.32572 | 35003 ft | 528 kts | 127° |
| 2026-04-24 08:18 | 26.35795 | 82.39261 | 34996 ft | 528 kts | 127° |
| 2026-04-24 08:18 | 26.31552 | 82.45950 | 34993 ft | 528 kts | 127° |
| 2026-04-24 08:19 | 26.27334 | 82.52589 | 35004 ft | 528 kts | 127° |
| 2026-04-24 08:19 | 26.23085 | 82.59267 | 34992 ft | 528 kts | 127° |
| 2026-04-24 08:20 | 26.18832 | 82.65943 | 34998 ft | 528 kts | 127° |
| 2026-04-24 08:20 | 26.14577 | 82.72612 | 35002 ft | 528 kts | 127° |
| 2026-04-24 08:21 | 26.10317 | 82.79278 | 34990 ft | 528 kts | 127° |
| 2026-04-24 08:21 | 26.06058 | 82.85934 | 35003 ft | 528 kts | 127° |
| 2026-04-24 08:22 | 26.01791 | 82.92593 | 34997 ft | 528 kts | 127° |
| 2026-04-24 08:22 | 25.97523 | 82.99242 | 34993 ft | 528 kts | 127° |
| 2026-04-24 08:23 | 25.93255 | 83.05884 | 35004 ft | 528 kts | 127° |
| 2026-04-24 08:23 | 25.89012 | 83.12477 | 34992 ft | 528 kts | 127° |
| 2026-04-24 08:24 | 25.84739 | 83.19106 | 34998 ft | 528 kts | 127° |
| 2026-04-24 08:24 | 25.80457 | 83.25740 | 35002 ft | 528 kts | 127° |
| 2026-04-24 08:25 | 25.76233 | 83.32411 | 34990 ft | 528 kts | 126° |
| 2026-04-24 08:25 | 25.72072 | 83.39128 | 35000 ft | 528 kts | 126° |
| 2026-04-24 08:26 | 25.67911 | 83.45846 | 35000 ft | 528 kts | 126° |
| 2026-04-24 08:26 | 25.63741 | 83.52558 | 34991 ft | 528 kts | 126° |
| 2026-04-24 08:27 | 25.59570 | 83.59257 | 35004 ft | 528 kts | 126° |
| 2026-04-24 08:27 | 25.55393 | 83.65956 | 34995 ft | 528 kts | 126° |
| 2026-04-24 08:28 | 25.51214 | 83.72648 | 34995 ft | 528 kts | 126° |
| 2026-04-24 08:28 | 25.47058 | 83.79293 | 35004 ft | 528 kts | 126° |
| 2026-04-24 08:29 | 25.42866 | 83.85987 | 34991 ft | 528 kts | 126° |
| 2026-04-24 08:29 | 25.38678 | 83.92665 | 35000 ft | 528 kts | 126° |
| 2026-04-24 08:30 | 25.34482 | 83.99346 | 35000 ft | 528 kts | 126° |
| 2026-04-24 08:30 | 25.30287 | 84.06016 | 34991 ft | 528 kts | 126° |
| 2026-04-24 08:31 | 25.26090 | 84.12681 | 35004 ft | 528 kts | 126° |
| 2026-04-24 08:31 | 25.21890 | 84.19339 | 34995 ft | 528 kts | 126° |
| 2026-04-24 08:32 | 25.17684 | 84.26000 | 34995 ft | 528 kts | 126° |
| 2026-04-24 08:32 | 25.13481 | 84.32645 | 35004 ft | 528 kts | 126° |
| 2026-04-24 08:33 | 25.09269 | 84.39295 | 34991 ft | 528 kts | 126° |
| 2026-04-24 08:33 | 25.05053 | 84.45944 | 35000 ft | 528 kts | 126° |
| 2026-04-24 08:34 | 25.00836 | 84.52583 | 35000 ft | 528 kts | 127° |
| 2026-04-24 08:34 | 24.96620 | 84.59212 | 34991 ft | 528 kts | 127° |
| 2026-04-24 08:35 | 24.92399 | 84.65841 | 35003 ft | 528 kts | 127° |
| 2026-04-24 08:35 | 24.88203 | 84.72420 | 34996 ft | 528 kts | 127° |
| 2026-04-24 08:36 | 24.83977 | 84.79037 | 34994 ft | 528 kts | 127° |
| 2026-04-24 08:36 | 24.79744 | 84.85657 | 35004 ft | 528 kts | 127° |
| 2026-04-24 08:37 | 24.75508 | 84.92272 | 34992 ft | 528 kts | 127° |
| 2026-04-24 08:37 | 24.71339 | 84.98928 | 34999 ft | 528 kts | 126° |
| 2026-04-24 08:38 | 24.67223 | 85.05630 | 35001 ft | 528 kts | 126° |
| 2026-04-24 08:38 | 24.63108 | 85.12323 | 34991 ft | 528 kts | 126° |
| 2026-04-24 08:39 | 24.58984 | 85.19010 | 35003 ft | 528 kts | 126° |
| 2026-04-24 08:39 | 24.54858 | 85.25686 | 34996 ft | 529 kts | 126° |
| 2026-04-24 08:40 | 24.51423 | 85.31237 | 34991 ft | 528 kts | 126° |
| 2026-04-24 08:40 | 24.47284 | 85.37916 | 35004 ft | 528 kts | 126° |
| 2026-04-24 08:41 | 24.43144 | 85.44589 | 34994 ft | 529 kts | 126° |
| 2026-04-24 08:41 | 24.39003 | 85.51254 | 34996 ft | 528 kts | 126° |
| 2026-04-24 08:42 | 24.34859 | 85.57915 | 35004 ft | 529 kts | 126° |
| 2026-04-24 08:42 | 24.30709 | 85.64576 | 34991 ft | 529 kts | 126° |
| 2026-04-24 08:43 | 24.26561 | 85.71225 | 35001 ft | 528 kts | 126° |
| 2026-04-24 08:43 | 24.22407 | 85.77875 | 34999 ft | 529 kts | 126° |
| 2026-04-24 08:44 | 24.18276 | 85.84478 | 34991 ft | 528 kts | 126° |
| 2026-04-24 08:44 | 24.14116 | 85.91121 | 35004 ft | 528 kts | 126° |
| 2026-04-24 08:45 | 24.09956 | 85.97753 | 34994 ft | 528 kts | 126° |
| 2026-04-24 08:45 | 24.05793 | 86.04382 | 34995 ft | 528 kts | 126° |
| 2026-04-24 08:46 | 24.01627 | 86.11006 | 35004 ft | 528 kts | 126° |
| 2026-04-24 08:46 | 23.97459 | 86.17625 | 34991 ft | 528 kts | 126° |
| 2026-04-24 08:47 | 23.93284 | 86.24246 | 35000 ft | 528 kts | 126° |
| 2026-04-24 08:47 | 23.89108 | 86.30859 | 35000 ft | 528 kts | 126° |
| 2026-04-24 08:48 | 23.84930 | 86.37467 | 34991 ft | 528 kts | 126° |
| 2026-04-24 08:48 | 23.80813 | 86.44118 | 35006 ft | 528 kts | 124° |
| 2026-04-24 08:49 | 23.76959 | 86.50953 | 34992 ft | 529 kts | 122° |
| 2026-04-24 08:49 | 23.73168 | 86.57831 | 34997 ft | 529 kts | 122° |
| 2026-04-24 08:50 | 23.69366 | 86.64705 | 35003 ft | 529 kts | 122° |
| 2026-04-24 08:50 | 23.65546 | 86.71579 | 34991 ft | 529 kts | 122° |
| 2026-04-24 08:51 | 23.61721 | 86.78443 | 35002 ft | 529 kts | 122° |
| 2026-04-24 08:51 | 23.57920 | 86.85255 | 34998 ft | 529 kts | 122° |
| 2026-04-24 08:52 | 23.54087 | 86.92115 | 34992 ft | 529 kts | 122° |
| 2026-04-24 08:52 | 23.50255 | 86.98965 | 35004 ft | 529 kts | 122° |
| 2026-04-24 08:53 | 23.46422 | 87.05813 | 34994 ft | 529 kts | 122° |
| 2026-04-24 08:53 | 23.42588 | 87.12661 | 34996 ft | 529 kts | 122° |
| 2026-04-24 08:54 | 23.38751 | 87.19510 | 35003 ft | 529 kts | 122° |
| 2026-04-24 08:54 | 23.34915 | 87.26345 | 34991 ft | 529 kts | 122° |
| 2026-04-24 08:55 | 23.31077 | 87.33174 | 35001 ft | 529 kts | 122° |
| 2026-04-24 08:55 | 23.27230 | 87.40010 | 34999 ft | 529 kts | 123° |
| 2026-04-24 08:56 | 23.23381 | 87.46841 | 34991 ft | 529 kts | 123° |
| 2026-04-24 08:56 | 23.19533 | 87.53660 | 35004 ft | 529 kts | 123° |
| 2026-04-24 08:57 | 23.15703 | 87.60438 | 34994 ft | 529 kts | 123° |
| 2026-04-24 08:57 | 23.11849 | 87.67251 | 34996 ft | 529 kts | 123° |
| 2026-04-24 08:58 | 23.07989 | 87.74064 | 35004 ft | 529 kts | 123° |
| 2026-04-24 08:58 | 23.04127 | 87.80872 | 34991 ft | 529 kts | 123° |
| 2026-04-24 08:59 | 23.00264 | 87.87673 | 35001 ft | 529 kts | 123° |
| 2026-04-24 08:59 | 22.96396 | 87.94472 | 34999 ft | 529 kts | 123° |
| 2026-04-24 09:00 | 22.92529 | 88.01262 | 34991 ft | 529 kts | 123° |
| 2026-04-24 09:00 | 22.88657 | 88.08053 | 35004 ft | 529 kts | 123° |
| 2026-04-24 09:01 | 22.84784 | 88.14836 | 34994 ft | 529 kts | 123° |
| 2026-04-24 09:01 | 22.80906 | 88.21616 | 34995 ft | 529 kts | 123° |
| 2026-04-24 09:02 | 22.77026 | 88.28394 | 35004 ft | 529 kts | 123° |
| 2026-04-24 09:02 | 22.73146 | 88.35162 | 34991 ft | 529 kts | 123° |
| 2026-04-24 09:03 | 22.69259 | 88.41934 | 35000 ft | 529 kts | 123° |
| 2026-04-24 09:03 | 22.65154 | 88.48557 | 34999 ft | 529 kts | 127° |
| 2026-04-24 09:04 | 22.60907 | 88.54994 | 34991 ft | 528 kts | 127° |
| 2026-04-24 09:04 | 22.56621 | 88.61460 | 35004 ft | 528 kts | 127° |
| 2026-04-24 09:05 | 22.52350 | 88.67926 | 34994 ft | 528 kts | 127° |
| 2026-04-24 09:05 | 22.48079 | 88.74397 | 34996 ft | 528 kts | 127° |
| 2026-04-24 09:06 | 22.43808 | 88.80863 | 35003 ft | 528 kts | 127° |
| 2026-04-24 09:06 | 22.39538 | 88.87320 | 34991 ft | 528 kts | 127° |
| 2026-04-24 09:07 | 22.35263 | 88.93776 | 35001 ft | 528 kts | 127° |
| 2026-04-24 09:07 | 22.28917 | 89.03500 | 34994 ft | 528 kts | 125° |
| 2026-04-24 09:08 | 22.24851 | 89.10115 | 34995 ft | 528 kts | 124° |
| 2026-04-24 09:08 | 22.20799 | 89.16733 | 35004 ft | 528 kts | 125° |
| 2026-04-24 09:09 | 22.16730 | 89.23342 | 34991 ft | 529 kts | 125° |
| 2026-04-24 09:09 | 22.12677 | 89.29902 | 35000 ft | 529 kts | 125° |
| 2026-04-24 09:10 | 22.08591 | 89.36505 | 35000 ft | 529 kts | 125° |
| 2026-04-24 09:10 | 22.04500 | 89.43108 | 34991 ft | 529 kts | 125° |
| 2026-04-24 09:11 | 22.00412 | 89.49698 | 35004 ft | 529 kts | 125° |
| 2026-04-24 09:11 | 21.96326 | 89.56276 | 34995 ft | 529 kts | 125° |
| 2026-04-24 09:12 | 21.92233 | 89.62860 | 34994 ft | 528 kts | 125° |
| 2026-04-24 09:12 | 21.88140 | 89.69433 | 35004 ft | 529 kts | 125° |
| 2026-04-24 09:13 | 21.84066 | 89.75969 | 34992 ft | 529 kts | 125° |
| 2026-04-24 09:13 | 21.79970 | 89.82534 | 34999 ft | 528 kts | 125° |
| 2026-04-24 09:14 | 21.75867 | 89.89100 | 35001 ft | 529 kts | 125° |
| 2026-04-24 09:14 | 21.71735 | 89.95705 | 34990 ft | 528 kts | 125° |
| 2026-04-24 09:15 | 21.67651 | 90.02225 | 35002 ft | 528 kts | 125° |
| 2026-04-24 09:15 | 21.63597 | 90.08692 | 34999 ft | 528 kts | 125° |
| 2026-04-24 09:16 | 21.59486 | 90.15239 | 34991 ft | 528 kts | 125° |
| 2026-04-24 09:16 | 21.57424 | 90.18521 | 35212 ft | 529 kts | 125° |
| 2026-04-24 09:16 | 21.55369 | 90.21789 | 35653 ft | 526 kts | 125° |
| 2026-04-24 09:17 | 21.53323 | 90.25042 | 36103 ft | 524 kts | 125° |
| 2026-04-24 09:17 | 21.51281 | 90.28285 | 36467 ft | 524 kts | 125° |
| 2026-04-24 09:17 | 21.49239 | 90.31527 | 36748 ft | 525 kts | 125° |
| 2026-04-24 09:17 | 21.47206 | 90.34752 | 37006 ft | 526 kts | 125° |
| 2026-04-24 09:18 | 21.45141 | 90.38025 | 37297 ft | 526 kts | 125° |
| 2026-04-24 09:18 | 21.43092 | 90.41272 | 37619 ft | 525 kts | 125° |
| 2026-04-24 09:18 | 21.41043 | 90.44519 | 37933 ft | 525 kts | 125° |
| 2026-04-24 09:18 | 21.38994 | 90.47761 | 38215 ft | 524 kts | 126° |
| 2026-04-24 09:19 | 21.36946 | 90.51002 | 38468 ft | 525 kts | 126° |
| 2026-04-24 09:19 | 21.34897 | 90.54242 | 38716 ft | 525 kts | 126° |
| 2026-04-24 09:19 | 21.32847 | 90.57484 | 38915 ft | 526 kts | 126° |
| 2026-04-24 09:19 | 21.30791 | 90.60733 | 38986 ft | 526 kts | 126° |
| 2026-04-24 09:20 | 21.26681 | 90.67225 | 38995 ft | 526 kts | 126° |
| 2026-04-24 09:20 | 21.22597 | 90.73671 | 39002 ft | 526 kts | 126° |
| 2026-04-24 09:21 | 21.18481 | 90.80158 | 38992 ft | 526 kts | 126° |
| 2026-04-24 09:21 | 21.14364 | 90.86640 | 38997 ft | 526 kts | 126° |
| 2026-04-24 09:22 | 21.10246 | 90.93115 | 39003 ft | 526 kts | 126° |
| 2026-04-24 09:22 | 21.06121 | 90.99593 | 38990 ft | 526 kts | 126° |
| 2026-04-24 09:23 | 21.02701 | 91.04959 | 38999 ft | 526 kts | 126° |
| 2026-04-24 09:23 | 20.98573 | 91.11429 | 39002 ft | 526 kts | 126° |
| 2026-04-24 09:24 | 20.94447 | 91.17888 | 38990 ft | 526 kts | 126° |
| 2026-04-24 09:24 | 20.90320 | 91.24341 | 39002 ft | 526 kts | 126° |
| 2026-04-24 09:25 | 20.86204 | 91.30771 | 39000 ft | 526 kts | 126° |
| 2026-04-24 09:25 | 20.82070 | 91.37221 | 38991 ft | 526 kts | 126° |
| 2026-04-24 09:26 | 20.77935 | 91.43665 | 39004 ft | 526 kts | 126° |
| 2026-04-24 09:26 | 20.73792 | 91.50114 | 38995 ft | 526 kts | 126° |
| 2026-04-24 09:27 | 20.69651 | 91.56553 | 38995 ft | 526 kts | 126° |
| 2026-04-24 09:27 | 20.65508 | 91.62988 | 39004 ft | 526 kts | 126° |
| 2026-04-24 09:28 | 20.61363 | 91.69419 | 38991 ft | 526 kts | 126° |
| 2026-04-24 09:28 | 20.57215 | 91.75847 | 39000 ft | 526 kts | 126° |
| 2026-04-24 09:29 | 20.53064 | 91.82273 | 39000 ft | 526 kts | 126° |
| 2026-04-24 09:29 | 20.48912 | 91.88693 | 38991 ft | 526 kts | 126° |
| 2026-04-24 09:30 | 20.44084 | 91.96150 | 39005 ft | 526 kts | 126° |
| 2026-04-24 09:30 | 20.40584 | 92.01525 | 38995 ft | 526 kts | 126° |
| 2026-04-24 09:31 | 20.36381 | 92.07903 | 38994 ft | 526 kts | 126° |
| 2026-04-24 09:31 | 20.32173 | 92.14269 | 39004 ft | 526 kts | 127° |
| 2026-04-24 09:32 | 20.27959 | 92.20641 | 38991 ft | 526 kts | 127° |
| 2026-04-24 09:32 | 20.23775 | 92.26964 | 39000 ft | 525 kts | 127° |
| 2026-04-24 09:33 | 20.19565 | 92.33321 | 39001 ft | 526 kts | 127° |
| 2026-04-24 09:33 | 20.15345 | 92.39685 | 38990 ft | 525 kts | 127° |
| 2026-04-24 09:34 | 20.11130 | 92.46034 | 39003 ft | 525 kts | 127° |
| 2026-04-24 09:34 | 20.06910 | 92.52384 | 38995 ft | 526 kts | 127° |
| 2026-04-24 09:35 | 20.02688 | 92.58731 | 38994 ft | 525 kts | 127° |
| 2026-04-24 09:35 | 19.98460 | 92.65079 | 39004 ft | 525 kts | 127° |
| 2026-04-24 09:36 | 19.94233 | 92.71420 | 38991 ft | 525 kts | 127° |
| 2026-04-24 09:36 | 19.90006 | 92.77754 | 38999 ft | 525 kts | 127° |
| 2026-04-24 09:37 | 19.85768 | 92.84097 | 39001 ft | 525 kts | 127° |
| 2026-04-24 09:37 | 19.81567 | 92.90379 | 38990 ft | 525 kts | 127° |
| 2026-04-24 09:38 | 19.77331 | 92.96706 | 39003 ft | 525 kts | 127° |
| 2026-04-24 09:38 | 19.73096 | 93.03025 | 38996 ft | 525 kts | 127° |
| 2026-04-24 09:39 | 19.68850 | 93.09352 | 38993 ft | 525 kts | 127° |
| 2026-04-24 09:39 | 19.64609 | 93.15667 | 39004 ft | 525 kts | 127° |
| 2026-04-24 09:40 | 19.60364 | 93.21981 | 38992 ft | 525 kts | 127° |
| 2026-04-24 09:40 | 19.56117 | 93.28291 | 38999 ft | 525 kts | 127° |
| 2026-04-24 09:41 | 19.51868 | 93.34598 | 39001 ft | 525 kts | 127° |
| 2026-04-24 09:41 | 19.47616 | 93.40902 | 38990 ft | 525 kts | 127° |
| 2026-04-24 09:42 | 19.43364 | 93.47200 | 39003 ft | 525 kts | 127° |
| 2026-04-24 09:42 | 19.39110 | 93.53494 | 38996 ft | 525 kts | 127° |
| 2026-04-24 09:43 | 19.34853 | 93.59787 | 38994 ft | 525 kts | 127° |
| 2026-04-24 09:43 | 19.30593 | 93.66077 | 39004 ft | 525 kts | 127° |
| 2026-04-24 09:44 | 19.26360 | 93.72322 | 38992 ft | 525 kts | 127° |
| 2026-04-24 09:44 | 19.22097 | 93.78603 | 38999 ft | 525 kts | 127° |
| 2026-04-24 09:45 | 19.17834 | 93.84878 | 39001 ft | 525 kts | 127° |
| 2026-04-24 09:45 | 19.13565 | 93.91157 | 38990 ft | 525 kts | 127° |
| 2026-04-24 09:46 | 19.09293 | 93.97432 | 39003 ft | 525 kts | 127° |
| 2026-04-24 09:46 | 19.05021 | 94.03702 | 38996 ft | 525 kts | 127° |
| 2026-04-24 09:47 | 19.00748 | 94.09967 | 38993 ft | 525 kts | 127° |
| 2026-04-24 09:47 | 18.96471 | 94.16230 | 39004 ft | 525 kts | 127° |
| 2026-04-24 09:48 | 18.92196 | 94.22486 | 38992 ft | 525 kts | 127° |
| 2026-04-24 09:48 | 18.87915 | 94.28743 | 38999 ft | 525 kts | 127° |
| 2026-04-24 09:49 | 18.83626 | 94.35006 | 39001 ft | 525 kts | 127° |
| 2026-04-24 09:49 | 18.79342 | 94.41256 | 38990 ft | 525 kts | 127° |
| 2026-04-24 09:50 | 18.75058 | 94.47499 | 39003 ft | 525 kts | 127° |
| 2026-04-24 09:50 | 18.70770 | 94.53742 | 38996 ft | 525 kts | 127° |
| 2026-04-24 09:51 | 18.66510 | 94.59938 | 38993 ft | 525 kts | 127° |
| 2026-04-24 09:51 | 18.62217 | 94.66175 | 39004 ft | 525 kts | 127° |
| 2026-04-24 09:52 | 18.57933 | 94.72421 | 38993 ft | 525 kts | 127° |
| 2026-04-24 09:52 | 18.53746 | 94.78738 | 38997 ft | 525 kts | 126° |
| 2026-04-24 09:53 | 18.49593 | 94.85075 | 39003 ft | 526 kts | 126° |
| 2026-04-24 09:53 | 18.45435 | 94.91412 | 38990 ft | 526 kts | 126° |
| 2026-04-24 09:54 | 18.41264 | 94.97754 | 39002 ft | 526 kts | 126° |
| 2026-04-24 09:54 | 18.37123 | 95.04042 | 38998 ft | 526 kts | 126° |
| 2026-04-24 09:55 | 18.32955 | 95.10364 | 38992 ft | 526 kts | 126° |
| 2026-04-24 09:55 | 18.28699 | 95.16679 | 39005 ft | 526 kts | 128° |
| 2026-04-24 09:56 | 18.24357 | 95.22808 | 38991 ft | 525 kts | 129° |
| 2026-04-24 09:56 | 18.19973 | 95.28954 | 39000 ft | 525 kts | 129° |
| 2026-04-24 09:57 | 18.15592 | 95.35110 | 39000 ft | 525 kts | 128° |
| 2026-04-24 09:57 | 18.11225 | 95.41254 | 38991 ft | 525 kts | 128° |
| 2026-04-24 09:58 | 18.06848 | 95.47407 | 39004 ft | 525 kts | 129° |
| 2026-04-24 09:58 | 18.02471 | 95.53555 | 38995 ft | 525 kts | 129° |
| 2026-04-24 09:59 | 17.98093 | 95.59697 | 38994 ft | 525 kts | 129° |
| 2026-04-24 09:59 | 17.93712 | 95.65839 | 39004 ft | 525 kts | 129° |
| 2026-04-24 10:00 | 17.89331 | 95.71973 | 38991 ft | 525 kts | 129° |
| 2026-04-24 10:00 | 17.84947 | 95.78107 | 39000 ft | 525 kts | 129° |
| 2026-04-24 10:01 | 17.80557 | 95.84244 | 39000 ft | 525 kts | 129° |
| 2026-04-24 10:01 | 17.76171 | 95.90369 | 38991 ft | 525 kts | 129° |
| 2026-04-24 10:02 | 17.71782 | 95.96493 | 39004 ft | 525 kts | 129° |
| 2026-04-24 10:02 | 17.67391 | 96.02613 | 38995 ft | 525 kts | 129° |
| 2026-04-24 10:03 | 17.63003 | 96.08725 | 38994 ft | 525 kts | 129° |
| 2026-04-24 10:03 | 17.58607 | 96.14843 | 39004 ft | 525 kts | 129° |
| 2026-04-24 10:04 | 17.54209 | 96.20955 | 38991 ft | 525 kts | 129° |
| 2026-04-24 10:04 | 17.49813 | 96.27062 | 39000 ft | 525 kts | 129° |
| 2026-04-24 10:05 | 17.45440 | 96.33130 | 39001 ft | 525 kts | 129° |
| 2026-04-24 10:05 | 17.41034 | 96.39238 | 38991 ft | 525 kts | 129° |
| 2026-04-24 10:06 | 17.34429 | 96.48385 | 39003 ft | 525 kts | 129° |
| 2026-04-24 10:07 | 17.29999 | 96.54472 | 38990 ft | 525 kts | 129° |
| 2026-04-24 10:07 | 17.25536 | 96.60518 | 39001 ft | 525 kts | 129° |
| 2026-04-24 10:08 | 17.21815 | 96.65546 | 39002 ft | 525 kts | 129° |
| 2026-04-24 10:08 | 17.17350 | 96.71580 | 38990 ft | 525 kts | 129° |
| 2026-04-24 10:09 | 17.12875 | 96.77624 | 39003 ft | 525 kts | 129° |
| 2026-04-24 10:09 | 17.08406 | 96.83656 | 38996 ft | 525 kts | 129° |
| 2026-04-24 10:10 | 17.03937 | 96.89684 | 38993 ft | 525 kts | 129° |
| 2026-04-24 10:10 | 16.99457 | 96.95721 | 39004 ft | 525 kts | 130° |
| 2026-04-24 10:11 | 16.94981 | 97.01747 | 38992 ft | 525 kts | 130° |
| 2026-04-24 10:11 | 16.90508 | 97.07763 | 38999 ft | 525 kts | 130° |
| 2026-04-24 10:12 | 16.86025 | 97.13787 | 39002 ft | 525 kts | 130° |
| 2026-04-24 10:12 | 16.81546 | 97.19802 | 38990 ft | 525 kts | 130° |
| 2026-04-24 10:13 | 16.77095 | 97.25773 | 39003 ft | 525 kts | 130° |
| 2026-04-24 10:13 | 16.72611 | 97.31785 | 38996 ft | 525 kts | 130° |
| 2026-04-24 10:14 | 16.68124 | 97.37793 | 38993 ft | 525 kts | 130° |
| 2026-04-24 10:14 | 16.63636 | 97.43799 | 39004 ft | 525 kts | 130° |
| 2026-04-24 10:15 | 16.59141 | 97.49809 | 38992 ft | 525 kts | 130° |
| 2026-04-24 10:15 | 16.54647 | 97.55813 | 38999 ft | 525 kts | 130° |
| 2026-04-24 10:16 | 16.50183 | 97.61770 | 39002 ft | 525 kts | 130° |
| 2026-04-24 10:16 | 16.45688 | 97.67765 | 38990 ft | 525 kts | 130° |
| 2026-04-24 10:17 | 16.41192 | 97.73756 | 39003 ft | 525 kts | 130° |
| 2026-04-24 10:17 | 16.36438 | 97.79509 | 38999 ft | 524 kts | 137° |
| 2026-04-24 10:18 | 16.31126 | 97.84704 | 38991 ft | 523 kts | 140° |
| 2026-04-24 10:18 | 16.25654 | 97.89676 | 38997 ft | 522 kts | 141° |
| 2026-04-24 10:19 | 16.20142 | 97.94614 | 39003 ft | 522 kts | 142° |
| 2026-04-24 10:19 | 16.14636 | 97.99551 | 38990 ft | 521 kts | 141° |
| 2026-04-24 10:20 | 16.09149 | 98.04477 | 39002 ft | 521 kts | 141° |
| 2026-04-24 10:20 | 16.03659 | 98.09405 | 38998 ft | 521 kts | 141° |
| 2026-04-24 10:21 | 15.98205 | 98.14297 | 38992 ft | 521 kts | 141° |
| 2026-04-24 10:21 | 15.92720 | 98.19214 | 39004 ft | 521 kts | 141° |
| 2026-04-24 10:22 | 15.87228 | 98.24133 | 38993 ft | 521 kts | 142° |
| 2026-04-24 10:22 | 15.81735 | 98.29048 | 38997 ft | 521 kts | 142° |
| 2026-04-24 10:23 | 15.76240 | 98.33963 | 39003 ft | 521 kts | 142° |
| 2026-04-24 10:23 | 15.70749 | 98.38869 | 38990 ft | 521 kts | 142° |
| 2026-04-24 10:24 | 15.65255 | 98.43776 | 39002 ft | 521 kts | 142° |
| 2026-04-24 10:24 | 15.59753 | 98.48685 | 38998 ft | 521 kts | 142° |
| 2026-04-24 10:25 | 15.54256 | 98.53586 | 38992 ft | 521 kts | 142° |
| 2026-04-24 10:25 | 15.48916 | 98.58656 | 39007 ft | 521 kts | 135° |
| 2026-04-24 10:26 | 15.44094 | 98.64276 | 38997 ft | 522 kts | 131° |
| 2026-04-24 10:26 | 15.39473 | 98.70094 | 38991 ft | 523 kts | 130° |
| 2026-04-24 10:27 | 15.34921 | 98.75928 | 39004 ft | 524 kts | 130° |
| 2026-04-24 10:27 | 15.30330 | 98.81803 | 38994 ft | 524 kts | 130° |
| 2026-04-24 10:28 | 15.25738 | 98.87664 | 38996 ft | 524 kts | 130° |
| 2026-04-24 10:28 | 15.21127 | 98.93540 | 39004 ft | 524 kts | 130° |
| 2026-04-24 10:29 | 15.16549 | 98.99369 | 38991 ft | 524 kts | 130° |
| 2026-04-24 10:29 | 15.11941 | 99.05231 | 39001 ft | 524 kts | 130° |
| 2026-04-24 10:30 | 15.07335 | 99.11087 | 38999 ft | 524 kts | 130° |
| 2026-04-24 10:30 | 15.02724 | 99.16945 | 38991 ft | 524 kts | 130° |
| 2026-04-24 10:31 | 14.98118 | 99.22792 | 39004 ft | 524 kts | 130° |
| 2026-04-24 10:31 | 14.93503 | 99.28646 | 38994 ft | 524 kts | 130° |
| 2026-04-24 10:32 | 14.88894 | 99.34488 | 38996 ft | 524 kts | 130° |
| 2026-04-24 10:32 | 14.84311 | 99.40293 | 39004 ft | 524 kts | 130° |
| 2026-04-24 10:33 | 14.79699 | 99.46130 | 38991 ft | 524 kts | 130° |
| 2026-04-24 10:33 | 14.75081 | 99.51970 | 39001 ft | 524 kts | 130° |
| 2026-04-24 10:34 | 14.70463 | 99.57806 | 38999 ft | 524 kts | 130° |
| 2026-04-24 10:34 | 14.65843 | 99.63641 | 38991 ft | 524 kts | 130° |
| 2026-04-24 10:35 | 14.61222 | 99.69472 | 39004 ft | 524 kts | 130° |
| 2026-04-24 10:35 | 14.56600 | 99.75300 | 38994 ft | 524 kts | 131° |
| 2026-04-24 10:36 | 14.51981 | 99.81121 | 38996 ft | 524 kts | 131° |
| 2026-04-24 10:36 | 14.47354 | 99.86947 | 39004 ft | 524 kts | 131° |
| 2026-04-24 10:37 | 14.42730 | 99.92766 | 38991 ft | 524 kts | 131° |
| 2026-04-24 10:37 | 14.38103 | 99.98585 | 39001 ft | 524 kts | 131° |
| 2026-04-24 10:38 | 14.33505 | 100.04363 | 38999 ft | 524 kts | 131° |
| 2026-04-24 10:38 | 14.28874 | 100.10179 | 38991 ft | 524 kts | 131° |
| 2026-04-24 10:39 | 14.24214 | 100.16027 | 39004 ft | 524 kts | 131° |
| 2026-04-24 10:39 | 14.19613 | 100.21796 | 38994 ft | 524 kts | 131° |
| 2026-04-24 10:40 | 14.14980 | 100.27603 | 38996 ft | 524 kts | 131° |
| 2026-04-24 10:40 | 14.10346 | 100.33405 | 39004 ft | 524 kts | 131° |
| 2026-04-24 10:41 | 14.05711 | 100.39205 | 38991 ft | 524 kts | 131° |
| 2026-04-24 10:41 | 14.01074 | 100.45004 | 39001 ft | 524 kts | 131° |
| 2026-04-24 10:42 | 13.96436 | 100.50800 | 38999 ft | 524 kts | 131° |
| 2026-04-24 10:42 | 13.91840 | 100.56630 | 38981 ft | 524 kts | 127° |
| 2026-04-24 10:43 | 13.87941 | 100.62966 | 39006 ft | 525 kts | 121° |
| 2026-04-24 10:43 | 13.84448 | 100.69569 | 38988 ft | 526 kts | 118° |
| 2026-04-24 10:44 | 13.81110 | 100.76274 | 38999 ft | 527 kts | 117° |
| 2026-04-24 10:44 | 13.77792 | 100.82999 | 39001 ft | 527 kts | 118° |
| 2026-04-24 10:45 | 13.74465 | 100.89722 | 38991 ft | 527 kts | 118° |
| 2026-04-24 10:45 | 13.71133 | 100.96436 | 39003 ft | 527 kts | 118° |
| 2026-04-24 10:46 | 13.67788 | 101.03166 | 38996 ft | 528 kts | 118° |
| 2026-04-24 10:46 | 13.64447 | 101.09884 | 38994 ft | 528 kts | 118° |
| 2026-04-24 10:47 | 13.61104 | 101.16601 | 39004 ft | 528 kts | 118° |
| 2026-04-24 10:47 | 13.57778 | 101.23277 | 38992 ft | 528 kts | 118° |
| 2026-04-24 10:48 | 13.54412 | 101.30029 | 38999 ft | 528 kts | 118° |
| 2026-04-24 10:48 | 13.51087 | 101.36694 | 39001 ft | 528 kts | 118° |
| 2026-04-24 10:49 | 13.47737 | 101.43404 | 38990 ft | 528 kts | 118° |
| 2026-04-24 10:49 | 13.44386 | 101.50111 | 39003 ft | 528 kts | 118° |
| 2026-04-24 10:50 | 13.41034 | 101.56814 | 38996 ft | 528 kts | 118° |
| 2026-04-24 10:50 | 13.37744 | 101.63549 | 38992 ft | 528 kts | 117° |
| 2026-04-24 10:51 | 13.34487 | 101.70309 | 39004 ft | 528 kts | 117° |
| 2026-04-24 10:51 | 13.31230 | 101.77067 | 38993 ft | 528 kts | 117° |
| 2026-04-24 10:52 | 13.27971 | 101.83815 | 38996 ft | 528 kts | 117° |
| 2026-04-24 10:52 | 13.24708 | 101.90563 | 39003 ft | 528 kts | 117° |
| 2026-04-24 10:53 | 13.21995 | 101.96172 | 38992 ft | 528 kts | 117° |
| 2026-04-24 10:53 | 13.18199 | 102.04010 | 39001 ft | 528 kts | 117° |
| 2026-04-24 10:54 | 13.15460 | 102.09662 | 39001 ft | 528 kts | 117° |
| 2026-04-24 10:54 | 13.12186 | 102.16414 | 38990 ft | 528 kts | 117° |
| 2026-04-24 10:55 | 13.08916 | 102.23152 | 39003 ft | 528 kts | 117° |
| 2026-04-24 10:55 | 13.05667 | 102.29842 | 38996 ft | 528 kts | 117° |
| 2026-04-24 10:56 | 13.02392 | 102.36581 | 38994 ft | 527 kts | 117° |
| 2026-04-24 10:56 | 12.99117 | 102.43313 | 39004 ft | 528 kts | 117° |
| 2026-04-24 10:57 | 12.95742 | 102.50001 | 38993 ft | 528 kts | 121° |
| 2026-04-24 10:57 | 12.91988 | 102.56465 | 38997 ft | 527 kts | 123° |
| 2026-04-24 10:58 | 12.88146 | 102.62864 | 39004 ft | 527 kts | 123° |
| 2026-04-24 10:58 | 12.84316 | 102.69260 | 38991 ft | 526 kts | 123° |
| 2026-04-24 10:59 | 12.80499 | 102.75660 | 39001 ft | 526 kts | 123° |
| 2026-04-24 10:59 | 12.76684 | 102.82061 | 38999 ft | 526 kts | 123° |
| 2026-04-24 11:00 | 12.72892 | 102.88421 | 38991 ft | 526 kts | 123° |
| 2026-04-24 11:00 | 12.69075 | 102.94816 | 39004 ft | 526 kts | 123° |
| 2026-04-24 11:01 | 12.65253 | 103.01215 | 38994 ft | 526 kts | 123° |
| 2026-04-24 11:01 | 12.61429 | 103.07614 | 38995 ft | 526 kts | 123° |
| 2026-04-24 11:02 | 12.57608 | 103.14002 | 39004 ft | 526 kts | 123° |
| 2026-04-24 11:02 | 12.53785 | 103.20390 | 38991 ft | 526 kts | 123° |
| 2026-04-24 11:03 | 12.49958 | 103.26779 | 39001 ft | 526 kts | 123° |
| 2026-04-24 11:03 | 12.46132 | 103.33162 | 38999 ft | 526 kts | 123° |
| 2026-04-24 11:04 | 12.42303 | 103.39548 | 38991 ft | 526 kts | 123° |
| 2026-04-24 11:04 | 12.38500 | 103.45884 | 39004 ft | 526 kts | 123° |
| 2026-04-24 11:05 | 12.34668 | 103.52264 | 38994 ft | 526 kts | 123° |
| 2026-04-24 11:05 | 12.30838 | 103.58637 | 38995 ft | 526 kts | 123° |
| 2026-04-24 11:06 | 12.27001 | 103.65017 | 39004 ft | 526 kts | 123° |
| 2026-04-24 11:06 | 12.23163 | 103.71391 | 38991 ft | 526 kts | 123° |
| 2026-04-24 11:07 | 12.17385 | 103.80938 | 39005 ft | 526 kts | 123° |
| 2026-04-24 11:07 | 12.13527 | 103.87301 | 38992 ft | 526 kts | 123° |
| 2026-04-24 11:08 | 12.09670 | 103.93659 | 38998 ft | 526 kts | 123° |
| 2026-04-24 11:08 | 12.05810 | 104.00019 | 39002 ft | 526 kts | 123° |
| 2026-04-24 11:09 | 12.01952 | 104.06372 | 38990 ft | 526 kts | 123° |
| 2026-04-24 11:09 | 11.98089 | 104.12728 | 39003 ft | 526 kts | 123° |
| 2026-04-24 11:10 | 11.94225 | 104.19083 | 38997 ft | 526 kts | 123° |
| 2026-04-24 11:10 | 11.90363 | 104.25430 | 38993 ft | 526 kts | 123° |
| 2026-04-24 11:11 | 11.86523 | 104.31735 | 39004 ft | 526 kts | 123° |
| 2026-04-24 11:11 | 11.82656 | 104.38083 | 38992 ft | 526 kts | 123° |
| 2026-04-24 11:12 | 11.78790 | 104.44424 | 38998 ft | 526 kts | 123° |
| 2026-04-24 11:12 | 11.74923 | 104.50762 | 39002 ft | 526 kts | 123° |
| 2026-04-24 11:13 | 11.71053 | 104.57101 | 38990 ft | 526 kts | 123° |
| 2026-04-24 11:13 | 11.67181 | 104.63440 | 39003 ft | 526 kts | 124° |
| 2026-04-24 11:14 | 11.63307 | 104.69777 | 38997 ft | 526 kts | 124° |
| 2026-04-24 11:14 | 11.59433 | 104.76111 | 38993 ft | 526 kts | 124° |
| 2026-04-24 11:15 | 11.55659 | 104.82497 | 39001 ft | 526 kts | 118° |
| 2026-04-24 11:15 | 11.52570 | 104.89278 | 38998 ft | 527 kts | 114° |
| 2026-04-24 11:16 | 11.49803 | 104.96193 | 38991 ft | 527 kts | 112° |
| 2026-04-24 11:16 | 11.47126 | 105.03115 | 39004 ft | 528 kts | 112° |
| 2026-04-24 11:17 | 11.44430 | 105.10077 | 38995 ft | 528 kts | 112° |
| 2026-04-24 11:17 | 11.41719 | 105.17045 | 38995 ft | 528 kts | 112° |
| 2026-04-24 11:18 | 11.39005 | 105.24007 | 39004 ft | 528 kts | 112° |
| 2026-04-24 11:18 | 11.36289 | 105.30969 | 38991 ft | 528 kts | 112° |
| 2026-04-24 11:19 | 11.33569 | 105.37933 | 39000 ft | 528 kts | 112° |
| 2026-04-24 11:19 | 11.30848 | 105.44898 | 39000 ft | 528 kts | 112° |
| 2026-04-24 11:20 | 11.28146 | 105.51807 | 38991 ft | 528 kts | 112° |
| 2026-04-24 11:20 | 11.25423 | 105.58764 | 39004 ft | 528 kts | 112° |
| 2026-04-24 11:21 | 11.22696 | 105.65725 | 38995 ft | 528 kts | 112° |
| 2026-04-24 11:21 | 11.19972 | 105.72674 | 38995 ft | 528 kts | 112° |
| 2026-04-24 11:22 | 11.17244 | 105.79629 | 39004 ft | 528 kts | 112° |
| 2026-04-24 11:22 | 11.14513 | 105.86585 | 38991 ft | 528 kts | 112° |
| 2026-04-24 11:23 | 11.11783 | 105.93533 | 39000 ft | 528 kts | 112° |
| 2026-04-24 11:23 | 11.09053 | 106.00478 | 39000 ft | 528 kts | 112° |
| 2026-04-24 11:24 | 11.06338 | 106.07378 | 38991 ft | 528 kts | 112° |
| 2026-04-24 11:24 | 11.03603 | 106.14323 | 39004 ft | 528 kts | 112° |
| 2026-04-24 11:25 | 11.00778 | 106.21235 | 38995 ft | 528 kts | 115° |
| 2026-04-24 11:25 | 10.97815 | 106.28076 | 38994 ft | 528 kts | 115° |
| 2026-04-24 11:26 | 10.94845 | 106.34907 | 39005 ft | 528 kts | 115° |
| 2026-04-24 11:26 | 10.91886 | 106.41744 | 38992 ft | 528 kts | 115° |
| 2026-04-24 11:27 | 10.88931 | 106.48584 | 38999 ft | 528 kts | 115° |
| 2026-04-24 11:27 | 10.85977 | 106.55425 | 39001 ft | 528 kts | 115° |
| 2026-04-24 11:28 | 10.82881 | 106.62192 | 38977 ft | 528 kts | 121° |
| 2026-04-24 11:28 | 10.78931 | 106.68491 | 39004 ft | 527 kts | 127° |
| 2026-04-24 11:29 | 10.74592 | 106.74502 | 38989 ft | 526 kts | 129° |
| 2026-04-24 11:29 | 10.70111 | 106.80386 | 39000 ft | 525 kts | 130° |
| 2026-04-24 11:30 | 10.65642 | 106.86208 | 39000 ft | 525 kts | 130° |
| 2026-04-24 11:30 | 10.61157 | 106.92061 | 38991 ft | 524 kts | 130° |
| 2026-04-24 11:31 | 10.56674 | 106.97916 | 39003 ft | 524 kts | 130° |
| 2026-04-24 11:31 | 10.52191 | 107.03772 | 38995 ft | 524 kts | 130° |
| 2026-04-24 11:32 | 10.47725 | 107.09630 | 38995 ft | 524 kts | 129° |
| 2026-04-24 11:32 | 10.43296 | 107.15509 | 39004 ft | 524 kts | 129° |
| 2026-04-24 11:33 | 10.38865 | 107.21395 | 38991 ft | 524 kts | 129° |
| 2026-04-24 11:33 | 10.34431 | 107.27272 | 39000 ft | 524 kts | 129° |
| 2026-04-24 11:34 | 10.29992 | 107.33155 | 39000 ft | 524 kts | 129° |
| 2026-04-24 11:34 | 10.25584 | 107.38998 | 38991 ft | 524 kts | 129° |
| 2026-04-24 11:35 | 10.21149 | 107.44874 | 39004 ft | 524 kts | 129° |
| 2026-04-24 11:35 | 10.16708 | 107.50755 | 38995 ft | 524 kts | 129° |
| 2026-04-24 11:36 | 10.12272 | 107.56633 | 38995 ft | 524 kts | 129° |
| 2026-04-24 11:36 | 10.07848 | 107.62521 | 39004 ft | 524 kts | 129° |
| 2026-04-24 11:37 | 10.03428 | 107.68406 | 38991 ft | 524 kts | 129° |
| 2026-04-24 11:37 | 9.99004 | 107.74291 | 39000 ft | 524 kts | 129° |
| 2026-04-24 11:38 | 9.94580 | 107.80171 | 39000 ft | 524 kts | 129° |
| 2026-04-24 11:38 | 9.90142 | 107.86067 | 38991 ft | 524 kts | 129° |
| 2026-04-24 11:39 | 9.86461 | 107.90956 | 39002 ft | 524 kts | 129° |
| 2026-04-24 11:39 | 9.81314 | 107.97787 | 38995 ft | 525 kts | 129° |
| 2026-04-24 11:40 | 9.76879 | 108.03670 | 38995 ft | 524 kts | 129° |
| 2026-04-24 11:40 | 9.73168 | 108.08592 | 39004 ft | 524 kts | 129° |
| 2026-04-24 11:41 | 9.68736 | 108.14466 | 38993 ft | 525 kts | 129° |
| 2026-04-24 11:41 | 9.64330 | 108.20302 | 38997 ft | 524 kts | 129° |
| 2026-04-24 11:42 | 9.59895 | 108.26175 | 39003 ft | 525 kts | 129° |
| 2026-04-24 11:42 | 9.55460 | 108.32044 | 38990 ft | 524 kts | 129° |
| 2026-04-24 11:43 | 9.51023 | 108.37914 | 39002 ft | 524 kts | 129° |
| 2026-04-24 11:43 | 9.46601 | 108.43792 | 38999 ft | 524 kts | 128° |
| 2026-04-24 11:44 | 9.42362 | 108.49802 | 38989 ft | 525 kts | 126° |
| 2026-04-24 11:44 | 9.38174 | 108.55859 | 39003 ft | 525 kts | 126° |
| 2026-04-24 11:45 | 9.33970 | 108.61914 | 38996 ft | 525 kts | 127° |
| 2026-04-24 11:45 | 9.29760 | 108.67956 | 38993 ft | 525 kts | 127° |
| 2026-04-24 11:46 | 9.25543 | 108.73998 | 39005 ft | 525 kts | 127° |
| 2026-04-24 11:46 | 9.21326 | 108.80036 | 38992 ft | 525 kts | 127° |
| 2026-04-24 11:47 | 9.17108 | 108.86074 | 38999 ft | 525 kts | 127° |
| 2026-04-24 11:47 | 9.12892 | 108.92108 | 39002 ft | 525 kts | 127° |
| 2026-04-24 11:48 | 9.08696 | 108.98108 | 38990 ft | 525 kts | 127° |
| 2026-04-24 11:48 | 9.04477 | 109.04140 | 39003 ft | 525 kts | 127° |
| 2026-04-24 11:49 | 9.00256 | 109.10170 | 38996 ft | 525 kts | 127° |
| 2026-04-24 11:49 | 8.96031 | 109.16205 | 38993 ft | 525 kts | 127° |
| 2026-04-24 11:50 | 8.91809 | 109.22232 | 39004 ft | 525 kts | 127° |
| 2026-04-24 11:50 | 8.87583 | 109.28262 | 38992 ft | 525 kts | 127° |
| 2026-04-24 11:51 | 8.83354 | 109.34294 | 38999 ft | 525 kts | 127° |
| 2026-04-24 11:51 | 8.79144 | 109.40278 | 39002 ft | 525 kts | 127° |
| 2026-04-24 11:52 | 8.74908 | 109.46288 | 38990 ft | 525 kts | 127° |
| 2026-04-24 11:52 | 8.70666 | 109.52302 | 39003 ft | 525 kts | 127° |
| 2026-04-24 11:53 | 8.66428 | 109.58311 | 38996 ft | 525 kts | 127° |
| 2026-04-24 11:53 | 8.62184 | 109.64324 | 38993 ft | 525 kts | 127° |
| 2026-04-24 11:54 | 8.57939 | 109.70338 | 39004 ft | 525 kts | 127° |
| 2026-04-24 11:54 | 8.53693 | 109.76350 | 38992 ft | 525 kts | 127° |
| 2026-04-24 11:55 | 8.49448 | 109.82358 | 38999 ft | 525 kts | 127° |
| 2026-04-24 11:55 | 8.45200 | 109.88366 | 39001 ft | 525 kts | 127° |
| 2026-04-24 11:56 | 8.40955 | 109.94368 | 38990 ft | 525 kts | 127° |
| 2026-04-24 11:56 | 8.36711 | 110.00367 | 39003 ft | 525 kts | 127° |
| 2026-04-24 11:57 | 8.32460 | 110.06372 | 38996 ft | 525 kts | 127° |
| 2026-04-24 11:57 | 8.28241 | 110.12330 | 38993 ft | 525 kts | 127° |
| 2026-04-24 11:58 | 8.23992 | 110.18327 | 39004 ft | 525 kts | 127° |
| 2026-04-24 11:58 | 8.19744 | 110.24332 | 38992 ft | 525 kts | 127° |
| 2026-04-24 11:59 | 8.15510 | 110.30338 | 38998 ft | 525 kts | 127° |
| 2026-04-24 11:59 | 8.11268 | 110.36354 | 39002 ft | 525 kts | 127° |
| 2026-04-24 12:00 | 8.07029 | 110.42361 | 38990 ft | 525 kts | 127° |
| 2026-04-24 12:00 | 8.02792 | 110.48364 | 39003 ft | 525 kts | 127° |
| 2026-04-24 12:01 | 7.98551 | 110.54369 | 38996 ft | 525 kts | 127° |
| 2026-04-24 12:01 | 7.94312 | 110.60368 | 38993 ft | 525 kts | 127° |
| 2026-04-24 12:02 | 7.90070 | 110.66370 | 39004 ft | 525 kts | 127° |
| 2026-04-24 12:02 | 7.85832 | 110.72363 | 38992 ft | 525 kts | 127° |
| 2026-04-24 12:03 | 7.81589 | 110.78361 | 38999 ft | 525 kts | 127° |
| 2026-04-24 12:03 | 7.77346 | 110.84356 | 39002 ft | 525 kts | 127° |
| 2026-04-24 12:04 | 7.73128 | 110.90315 | 38990 ft | 525 kts | 127° |
| 2026-04-24 12:04 | 7.68887 | 110.96303 | 39003 ft | 525 kts | 127° |
| 2026-04-24 12:05 | 7.64639 | 111.02298 | 38996 ft | 525 kts | 127° |
| 2026-04-24 12:05 | 7.60392 | 111.08289 | 38993 ft | 525 kts | 127° |
| 2026-04-24 12:06 | 7.56146 | 111.14278 | 39004 ft | 525 kts | 127° |
| 2026-04-24 12:06 | 7.51894 | 111.20272 | 38992 ft | 525 kts | 127° |
| 2026-04-24 12:07 | 7.47647 | 111.26257 | 38998 ft | 525 kts | 127° |
| 2026-04-24 12:07 | 7.43396 | 111.32246 | 39002 ft | 525 kts | 127° |
| 2026-04-24 12:08 | 7.39148 | 111.38227 | 38990 ft | 525 kts | 127° |
| 2026-04-24 12:08 | 7.34895 | 111.44212 | 39003 ft | 525 kts | 127° |
| 2026-04-24 12:09 | 7.30642 | 111.50197 | 38996 ft | 525 kts | 127° |
| 2026-04-24 12:09 | 7.26393 | 111.56173 | 38993 ft | 525 kts | 127° |
| 2026-04-24 12:10 | 7.22138 | 111.62148 | 39004 ft | 525 kts | 127° |
| 2026-04-24 12:11 | 7.15781 | 111.71073 | 38991 ft | 525 kts | 127° |
| 2026-04-24 12:11 | 7.11520 | 111.77052 | 39004 ft | 525 kts | 127° |
| 2026-04-24 12:12 | 7.07263 | 111.83023 | 38994 ft | 525 kts | 127° |
| 2026-04-24 12:12 | 7.03006 | 111.88993 | 38996 ft | 525 kts | 127° |
| 2026-04-24 12:13 | 6.98745 | 111.94965 | 39004 ft | 525 kts | 127° |
| 2026-04-24 12:13 | 6.94484 | 112.00936 | 38991 ft | 525 kts | 127° |
| 2026-04-24 12:14 | 6.90224 | 112.06904 | 39001 ft | 525 kts | 127° |
| 2026-04-24 12:14 | 6.85963 | 112.12870 | 38999 ft | 525 kts | 127° |
| 2026-04-24 12:15 | 6.81701 | 112.18835 | 38991 ft | 525 kts | 127° |
| 2026-04-24 12:15 | 6.77441 | 112.24796 | 39004 ft | 525 kts | 127° |
| 2026-04-24 12:16 | 6.73176 | 112.30761 | 38994 ft | 525 kts | 127° |
| 2026-04-24 12:16 | 6.68911 | 112.36726 | 38996 ft | 525 kts | 127° |
| 2026-04-24 12:17 | 6.64674 | 112.42648 | 39004 ft | 525 kts | 127° |
| 2026-04-24 12:17 | 6.60407 | 112.48610 | 38991 ft | 525 kts | 127° |
| 2026-04-24 12:18 | 6.56142 | 112.54568 | 39001 ft | 525 kts | 127° |
| 2026-04-24 12:18 | 6.51868 | 112.60533 | 38999 ft | 525 kts | 127° |
| 2026-04-24 12:19 | 6.47590 | 112.66484 | 38991 ft | 525 kts | 127° |
| 2026-04-24 12:19 | 6.43313 | 112.72429 | 39004 ft | 525 kts | 127° |
| 2026-04-24 12:20 | 6.39034 | 112.78377 | 38994 ft | 525 kts | 127° |
| 2026-04-24 12:20 | 6.34751 | 112.84327 | 38996 ft | 525 kts | 127° |
| 2026-04-24 12:21 | 6.30472 | 112.90271 | 39004 ft | 525 kts | 127° |
| 2026-04-24 12:21 | 6.26191 | 112.96215 | 38991 ft | 525 kts | 127° |
| 2026-04-24 12:22 | 6.21910 | 113.02157 | 39001 ft | 525 kts | 127° |
| 2026-04-24 12:22 | 6.17629 | 113.08098 | 38999 ft | 525 kts | 127° |
| 2026-04-24 12:23 | 6.13375 | 113.13999 | 38991 ft | 525 kts | 127° |
| 2026-04-24 12:23 | 6.09093 | 113.19938 | 39004 ft | 525 kts | 127° |
| 2026-04-24 12:24 | 6.04813 | 113.25871 | 38994 ft | 525 kts | 127° |
| 2026-04-24 12:24 | 6.00527 | 113.31812 | 38995 ft | 525 kts | 127° |
| 2026-04-24 12:25 | 5.96244 | 113.37757 | 39004 ft | 525 kts | 127° |
| 2026-04-24 12:25 | 5.91971 | 113.43700 | 38991 ft | 525 kts | 127° |
| 2026-04-24 12:26 | 5.88420 | 113.48640 | 38998 ft | 525 kts | 127° |
| 2026-04-24 12:26 | 5.84142 | 113.54587 | 39002 ft | 525 kts | 127° |
| 2026-04-24 12:27 | 5.79864 | 113.60531 | 38990 ft | 525 kts | 127° |
| 2026-04-24 12:27 | 5.75582 | 113.66480 | 39003 ft | 525 kts | 127° |
| 2026-04-24 12:28 | 5.71332 | 113.72384 | 38997 ft | 525 kts | 127° |
| 2026-04-24 12:28 | 5.67054 | 113.78323 | 38993 ft | 525 kts | 127° |
| 2026-04-24 12:29 | 5.62774 | 113.84264 | 39004 ft | 525 kts | 127° |
| 2026-04-24 12:29 | 5.58494 | 113.90203 | 38992 ft | 525 kts | 127° |
| 2026-04-24 12:30 | 5.54213 | 113.96142 | 38998 ft | 525 kts | 127° |
| 2026-04-24 12:30 | 5.49937 | 114.02073 | 39002 ft | 525 kts | 127° |
| 2026-04-24 12:31 | 5.45654 | 114.08012 | 38990 ft | 525 kts | 127° |
| 2026-04-24 12:31 | 5.41373 | 114.13945 | 39003 ft | 525 kts | 127° |
| 2026-04-24 12:32 | 5.37090 | 114.19884 | 38997 ft | 525 kts | 127° |
| 2026-04-24 12:32 | 5.32850 | 114.25762 | 38993 ft | 525 kts | 127° |
| 2026-04-24 12:33 | 5.28567 | 114.31696 | 39004 ft | 525 kts | 127° |
| 2026-04-24 12:33 | 5.24284 | 114.37630 | 38992 ft | 525 kts | 127° |
| 2026-04-24 12:34 | 5.19999 | 114.43565 | 38998 ft | 525 kts | 127° |
| 2026-04-24 12:34 | 5.15719 | 114.49491 | 39002 ft | 525 kts | 127° |
| 2026-04-24 12:35 | 5.11435 | 114.55422 | 38990 ft | 525 kts | 127° |
| 2026-04-24 12:35 | 5.07153 | 114.61348 | 39002 ft | 525 kts | 127° |
| 2026-04-24 12:36 | 5.02896 | 114.67238 | 38997 ft | 525 kts | 127° |
| 2026-04-24 12:36 | 4.98609 | 114.73168 | 38992 ft | 525 kts | 127° |
| 2026-04-24 12:37 | 4.94322 | 114.79097 | 39004 ft | 525 kts | 127° |
| 2026-04-24 12:37 | 4.90036 | 114.85022 | 38993 ft | 525 kts | 127° |
| 2026-04-24 12:38 | 4.85488 | 114.90753 | 38999 ft | 524 kts | 132° |
| 2026-04-24 12:38 | 4.80683 | 114.96256 | 39000 ft | 524 kts | 134° |
| 2026-04-24 12:39 | 4.71001 | 115.07176 | 39004 ft | 523 kts | 134° |
| 2026-04-24 12:40 | 4.66176 | 115.12637 | 38994 ft | 523 kts | 134° |
| 2026-04-24 12:40 | 4.61356 | 115.18095 | 38995 ft | 523 kts | 134° |
| 2026-04-24 12:41 | 4.56560 | 115.23525 | 39004 ft | 523 kts | 134° |
| 2026-04-24 12:41 | 4.51733 | 115.28987 | 38991 ft | 523 kts | 134° |
| 2026-04-24 12:42 | 4.46907 | 115.34448 | 39000 ft | 523 kts | 134° |
| 2026-04-24 12:42 | 4.42082 | 115.39907 | 39000 ft | 523 kts | 134° |
| 2026-04-24 12:43 | 4.37257 | 115.45364 | 38991 ft | 523 kts | 134° |
| 2026-04-24 12:43 | 4.32436 | 115.50824 | 39004 ft | 523 kts | 133° |
| 2026-04-24 12:44 | 4.27669 | 115.56334 | 38994 ft | 523 kts | 133° |
| 2026-04-24 12:44 | 4.22925 | 115.61855 | 38995 ft | 523 kts | 133° |
| 2026-04-24 12:45 | 4.18175 | 115.67382 | 39004 ft | 523 kts | 133° |
| 2026-04-24 12:45 | 4.13425 | 115.72901 | 38991 ft | 523 kts | 133° |
| 2026-04-24 12:46 | 4.08557 | 115.78331 | 39001 ft | 523 kts | 136° |
| 2026-04-24 12:46 | 4.03335 | 115.83403 | 38998 ft | 522 kts | 139° |
| 2026-04-24 12:47 | 3.98000 | 115.88341 | 38992 ft | 522 kts | 140° |
| 2026-04-24 12:47 | 3.92653 | 115.93253 | 39005 ft | 521 kts | 140° |
| 2026-04-24 12:48 | 3.87314 | 115.98167 | 38993 ft | 521 kts | 140° |
| 2026-04-24 12:48 | 3.82010 | 116.03055 | 38997 ft | 521 kts | 140° |
| 2026-04-24 12:49 | 3.76677 | 116.07970 | 39003 ft | 521 kts | 140° |
| 2026-04-24 12:49 | 3.71341 | 116.12887 | 38990 ft | 521 kts | 140° |
| 2026-04-24 12:50 | 3.66004 | 116.17804 | 39002 ft | 521 kts | 140° |
| 2026-04-24 12:50 | 3.60670 | 116.22718 | 38997 ft | 521 kts | 140° |
| 2026-04-24 12:51 | 3.55329 | 116.27637 | 38992 ft | 521 kts | 140° |
| 2026-04-24 12:51 | 3.49996 | 116.32549 | 39004 ft | 521 kts | 140° |
| 2026-04-24 12:52 | 3.44657 | 116.37464 | 38993 ft | 521 kts | 140° |
| 2026-04-24 12:52 | 3.39317 | 116.42381 | 38997 ft | 521 kts | 140° |
| 2026-04-24 12:53 | 3.33985 | 116.47288 | 39003 ft | 521 kts | 140° |
| 2026-04-24 12:53 | 3.28644 | 116.52204 | 38990 ft | 521 kts | 140° |
| 2026-04-24 12:54 | 3.23310 | 116.57112 | 39002 ft | 521 kts | 140° |
| 2026-04-24 12:54 | 3.17970 | 116.62024 | 38997 ft | 521 kts | 140° |
| 2026-04-24 12:55 | 3.12632 | 116.66936 | 38992 ft | 521 kts | 140° |
| 2026-04-24 12:55 | 3.07292 | 116.71846 | 39004 ft | 521 kts | 140° |
| 2026-04-24 12:56 | 3.01990 | 116.76722 | 38993 ft | 521 kts | 140° |
| 2026-04-24 12:56 | 2.96652 | 116.81631 | 38997 ft | 521 kts | 140° |
| 2026-04-24 12:57 | 2.91309 | 116.86544 | 39003 ft | 521 kts | 140° |
| 2026-04-24 12:57 | 2.85965 | 116.91455 | 38990 ft | 521 kts | 140° |
| 2026-04-24 12:58 | 2.80624 | 116.96365 | 39002 ft | 521 kts | 140° |
| 2026-04-24 12:58 | 2.75283 | 117.01273 | 38998 ft | 521 kts | 140° |
| 2026-04-24 12:59 | 2.69945 | 117.06179 | 38992 ft | 521 kts | 140° |
| 2026-04-24 12:59 | 2.64607 | 117.11083 | 39004 ft | 521 kts | 140° |
| 2026-04-24 13:00 | 2.59268 | 117.15988 | 38993 ft | 521 kts | 140° |
| 2026-04-24 13:00 | 2.53927 | 117.20894 | 38997 ft | 521 kts | 140° |
| 2026-04-24 13:01 | 2.48615 | 117.25772 | 39003 ft | 521 kts | 140° |
| 2026-04-24 13:01 | 2.43272 | 117.30679 | 38990 ft | 521 kts | 140° |
| 2026-04-24 13:02 | 2.37927 | 117.35587 | 39002 ft | 521 kts | 140° |
| 2026-04-24 13:02 | 2.32584 | 117.40493 | 38998 ft | 521 kts | 140° |
| 2026-04-24 13:03 | 2.27243 | 117.45396 | 38992 ft | 521 kts | 140° |
| 2026-04-24 13:03 | 2.21903 | 117.50298 | 39004 ft | 521 kts | 140° |
| 2026-04-24 13:04 | 2.16561 | 117.55201 | 38993 ft | 521 kts | 140° |
| 2026-04-24 13:04 | 2.11219 | 117.60104 | 38997 ft | 521 kts | 140° |
| 2026-04-24 13:05 | 2.05876 | 117.65007 | 39003 ft | 521 kts | 140° |
| 2026-04-24 13:05 | 2.00536 | 117.69907 | 38990 ft | 521 kts | 140° |
| 2026-04-24 13:06 | 1.95197 | 117.74805 | 39002 ft | 521 kts | 140° |
| 2026-04-24 13:06 | 1.89886 | 117.79677 | 38998 ft | 521 kts | 140° |
| 2026-04-24 13:07 | 1.84544 | 117.84578 | 38992 ft | 521 kts | 140° |
| 2026-04-24 13:07 | 1.79195 | 117.89485 | 39004 ft | 521 kts | 140° |
| 2026-04-24 13:08 | 1.73851 | 117.94386 | 38993 ft | 521 kts | 140° |
| 2026-04-24 13:08 | 1.68505 | 117.99289 | 38997 ft | 521 kts | 140° |
| 2026-04-24 13:09 | 1.60489 | 118.06640 | 38995 ft | 521 kts | 140° |
| 2026-04-24 13:09 | 1.55143 | 118.11542 | 38994 ft | 521 kts | 140° |
| 2026-04-24 13:10 | 1.50704 | 118.15612 | 39004 ft | 521 kts | 140° |
| 2026-04-24 13:10 | 1.44487 | 118.21311 | 38991 ft | 521 kts | 140° |
| 2026-04-24 13:11 | 1.40041 | 118.25388 | 38997 ft | 521 kts | 140° |
| 2026-04-24 13:11 | 1.34698 | 118.30285 | 39003 ft | 521 kts | 140° |
| 2026-04-24 13:12 | 1.29352 | 118.35186 | 38990 ft | 521 kts | 140° |
| 2026-04-24 13:12 | 1.24010 | 118.40082 | 39001 ft | 521 kts | 140° |
| 2026-04-24 13:13 | 1.18668 | 118.44978 | 38998 ft | 521 kts | 140° |
| 2026-04-24 13:13 | 1.13320 | 118.49879 | 38992 ft | 521 kts | 140° |
| 2026-04-24 13:14 | 1.07979 | 118.54774 | 39004 ft | 521 kts | 140° |
| 2026-04-24 13:14 | 1.02637 | 118.59669 | 38994 ft | 521 kts | 140° |
| 2026-04-24 13:15 | 0.97294 | 118.64565 | 38996 ft | 521 kts | 140° |
| 2026-04-24 13:15 | 0.91947 | 118.69465 | 39003 ft | 521 kts | 140° |
| 2026-04-24 13:16 | 0.86600 | 118.74364 | 38991 ft | 521 kts | 140° |
| 2026-04-24 13:16 | 0.81259 | 118.79257 | 39001 ft | 521 kts | 140° |
| 2026-04-24 13:17 | 0.75914 | 118.84154 | 38999 ft | 521 kts | 140° |
| 2026-04-24 13:17 | 0.70564 | 118.89056 | 38991 ft | 521 kts | 140° |
| 2026-04-24 13:18 | 0.65246 | 118.93928 | 39004 ft | 521 kts | 140° |
| 2026-04-24 13:18 | 0.59899 | 118.98827 | 38994 ft | 521 kts | 140° |
| 2026-04-24 13:19 | 0.54551 | 119.03725 | 38996 ft | 521 kts | 140° |
| 2026-04-24 13:19 | 0.49211 | 119.08617 | 39004 ft | 521 kts | 140° |
| 2026-04-24 13:20 | 0.43862 | 119.13517 | 38991 ft | 521 kts | 140° |
| 2026-04-24 13:20 | 0.38513 | 119.18417 | 39001 ft | 521 kts | 140° |
| 2026-04-24 13:21 | 0.33168 | 119.23313 | 38999 ft | 521 kts | 140° |
| 2026-04-24 13:21 | 0.27859 | 119.28176 | 38991 ft | 521 kts | 140° |
| 2026-04-24 13:22 | 0.22481 | 119.33102 | 39004 ft | 521 kts | 140° |
| 2026-04-24 13:22 | 0.17168 | 119.37969 | 38994 ft | 521 kts | 140° |
| 2026-04-24 13:23 | 0.11823 | 119.42864 | 38995 ft | 521 kts | 140° |
| 2026-04-24 13:23 | 0.06478 | 119.47760 | 39004 ft | 521 kts | 140° |
| 2026-04-24 13:24 | 0.01118 | 119.52637 | 38991 ft | 521 kts | 140° |
| 2026-04-24 13:24 | -0.04283 | 119.57476 | 38999 ft | 521 kts | 140° |
| 2026-04-24 13:25 | -0.09684 | 119.62304 | 39001 ft | 521 kts | 140° |
| 2026-04-24 13:25 | -0.15087 | 119.67135 | 38991 ft | 521 kts | 140° |
| 2026-04-24 13:26 | -0.20489 | 119.71969 | 39003 ft | 521 kts | 140° |
| 2026-04-24 13:26 | -0.25894 | 119.76805 | 38996 ft | 521 kts | 140° |
| 2026-04-24 13:27 | -0.31296 | 119.81640 | 38994 ft | 521 kts | 140° |
| 2026-04-24 13:27 | -0.36694 | 119.86471 | 39004 ft | 521 kts | 140° |
| 2026-04-24 13:28 | -0.42094 | 119.91303 | 38992 ft | 521 kts | 140° |
| 2026-04-24 13:28 | -0.47492 | 119.96134 | 38999 ft | 521 kts | 140° |
| 2026-04-24 13:29 | -0.52893 | 120.00968 | 39001 ft | 521 kts | 140° |
| 2026-04-24 13:29 | -0.58296 | 120.05803 | 38990 ft | 521 kts | 140° |
| 2026-04-24 13:30 | -0.63696 | 120.10636 | 39003 ft | 521 kts | 140° |
| 2026-04-24 13:30 | -0.69091 | 120.15465 | 38996 ft | 521 kts | 140° |
| 2026-04-24 13:31 | -0.74493 | 120.20300 | 38993 ft | 521 kts | 140° |
| 2026-04-24 13:31 | -0.79862 | 120.25106 | 39004 ft | 521 kts | 140° |
| 2026-04-24 13:32 | -0.85259 | 120.29936 | 38992 ft | 521 kts | 140° |
| 2026-04-24 13:32 | -0.90662 | 120.34773 | 38998 ft | 521 kts | 140° |
| 2026-04-24 13:33 | -0.96058 | 120.39603 | 39002 ft | 521 kts | 140° |
| 2026-04-24 13:33 | -1.01457 | 120.44437 | 38990 ft | 521 kts | 140° |
| 2026-04-24 13:34 | -1.06850 | 120.49265 | 39003 ft | 521 kts | 140° |
| 2026-04-24 13:34 | -1.12254 | 120.54103 | 38997 ft | 521 kts | 140° |
| 2026-04-24 13:35 | -1.17655 | 120.58939 | 38993 ft | 521 kts | 140° |
| 2026-04-24 13:35 | -1.23058 | 120.63777 | 39004 ft | 521 kts | 140° |
| 2026-04-24 13:36 | -1.28452 | 120.68607 | 38992 ft | 521 kts | 140° |
| 2026-04-24 13:36 | -1.33850 | 120.73441 | 38998 ft | 521 kts | 140° |
| 2026-04-24 13:37 | -1.39242 | 120.78270 | 39002 ft | 521 kts | 140° |
| 2026-04-24 13:37 | -1.44610 | 120.83078 | 38990 ft | 521 kts | 140° |
| 2026-04-24 13:38 | -1.50008 | 120.87913 | 39002 ft | 521 kts | 140° |
| 2026-04-24 13:38 | -1.55414 | 120.92756 | 38997 ft | 521 kts | 140° |
| 2026-04-24 13:39 | -1.60814 | 120.97593 | 38993 ft | 521 kts | 140° |
| 2026-04-24 13:39 | -1.66209 | 121.02426 | 39004 ft | 521 kts | 140° |
| 2026-04-24 13:40 | -1.71611 | 121.07266 | 38993 ft | 521 kts | 140° |
| 2026-04-24 13:40 | -1.77009 | 121.12102 | 38998 ft | 521 kts | 140° |
| 2026-04-24 13:41 | -1.82408 | 121.16941 | 39002 ft | 521 kts | 140° |
| 2026-04-24 13:41 | -1.87806 | 121.21778 | 38990 ft | 521 kts | 140° |
| 2026-04-24 13:42 | -1.93204 | 121.26616 | 39002 ft | 521 kts | 140° |
| 2026-04-24 13:42 | -1.98599 | 121.31451 | 38997 ft | 521 kts | 140° |
| 2026-04-24 13:43 | -2.03960 | 121.36257 | 38992 ft | 521 kts | 140° |
| 2026-04-24 13:43 | -2.09353 | 121.41092 | 39004 ft | 521 kts | 140° |
| 2026-04-24 13:44 | -2.14757 | 121.45937 | 38993 ft | 521 kts | 140° |
| 2026-04-24 13:44 | -2.20152 | 121.50774 | 38997 ft | 521 kts | 140° |
| 2026-04-24 13:45 | -2.25546 | 121.55611 | 39003 ft | 521 kts | 140° |
| 2026-04-24 13:45 | -2.30941 | 121.60450 | 38990 ft | 521 kts | 140° |
| 2026-04-24 13:46 | -2.36337 | 121.65290 | 39002 ft | 521 kts | 140° |
| 2026-04-24 13:46 | -2.41690 | 121.70092 | 38998 ft | 521 kts | 140° |
| 2026-04-24 13:47 | -2.47087 | 121.74934 | 38992 ft | 521 kts | 140° |
| 2026-04-24 13:47 | -2.52480 | 121.79772 | 39004 ft | 521 kts | 140° |
| 2026-04-24 13:48 | -2.57871 | 121.84610 | 38993 ft | 521 kts | 140° |
| 2026-04-24 13:48 | -2.63267 | 121.89453 | 38997 ft | 521 kts | 140° |
| 2026-04-24 13:49 | -2.68658 | 121.94292 | 39003 ft | 521 kts | 140° |
| 2026-04-24 13:49 | -2.74052 | 121.99134 | 38990 ft | 521 kts | 140° |
| 2026-04-24 13:50 | -2.79444 | 122.03975 | 39002 ft | 521 kts | 140° |
| 2026-04-24 13:50 | -2.84837 | 122.08817 | 38998 ft | 521 kts | 140° |
| 2026-04-24 13:51 | -2.90232 | 122.13662 | 38992 ft | 521 kts | 140° |
| 2026-04-24 13:51 | -2.95624 | 122.18505 | 39004 ft | 521 kts | 140° |
| 2026-04-24 13:52 | -3.01018 | 122.23350 | 38993 ft | 521 kts | 140° |
| 2026-04-24 13:52 | -3.06411 | 122.28195 | 38996 ft | 521 kts | 140° |
| 2026-04-24 13:53 | -3.11803 | 122.33039 | 39003 ft | 521 kts | 140° |
| 2026-04-24 13:53 | -3.17197 | 122.37887 | 38991 ft | 521 kts | 140° |
| 2026-04-24 13:54 | -3.22555 | 122.42702 | 39001 ft | 521 kts | 140° |
| 2026-04-24 13:54 | -3.27949 | 122.47551 | 38999 ft | 521 kts | 140° |
| 2026-04-24 13:55 | -3.33346 | 122.52403 | 38991 ft | 521 kts | 140° |
| 2026-04-24 13:55 | -3.37861 | 122.56463 | 39003 ft | 521 kts | 140° |
| 2026-04-24 13:56 | -3.43226 | 122.61288 | 38996 ft | 521 kts | 140° |
| 2026-04-24 13:56 | -3.48616 | 122.66136 | 38993 ft | 521 kts | 140° |
| 2026-04-24 13:57 | -3.54007 | 122.70985 | 39004 ft | 521 kts | 140° |
| 2026-04-24 13:57 | -3.59402 | 122.75840 | 38992 ft | 521 kts | 140° |
| 2026-04-24 13:58 | -3.64797 | 122.80694 | 38998 ft | 521 kts | 140° |
| 2026-04-24 13:58 | -3.70188 | 122.85546 | 39002 ft | 521 kts | 140° |
| 2026-04-24 13:59 | -3.75579 | 122.90400 | 38990 ft | 521 kts | 140° |
| 2026-04-24 13:59 | -3.80929 | 122.95216 | 39003 ft | 521 kts | 140° |
| 2026-04-24 14:00 | -3.86325 | 123.00075 | 38997 ft | 521 kts | 140° |
| 2026-04-24 14:00 | -3.91748 | 123.04960 | 38993 ft | 521 kts | 140° |
| 2026-04-24 14:01 | -3.97097 | 123.09778 | 39004 ft | 521 kts | 140° |
| 2026-04-24 14:01 | -4.02494 | 123.14641 | 38992 ft | 521 kts | 140° |
| 2026-04-24 14:02 | -4.07879 | 123.19494 | 38998 ft | 521 kts | 140° |
| 2026-04-24 14:02 | -4.13267 | 123.24350 | 39002 ft | 521 kts | 140° |
| 2026-04-24 14:03 | -4.18658 | 123.29210 | 38990 ft | 521 kts | 140° |
| 2026-04-24 14:03 | -4.24047 | 123.34069 | 39002 ft | 521 kts | 140° |
| 2026-04-24 14:04 | -4.29438 | 123.38931 | 38997 ft | 521 kts | 140° |
| 2026-04-24 14:04 | -4.34784 | 123.43753 | 38993 ft | 521 kts | 140° |
| 2026-04-24 14:05 | -4.40173 | 123.48615 | 39004 ft | 521 kts | 140° |
| 2026-04-24 14:05 | -4.45558 | 123.53474 | 38993 ft | 521 kts | 140° |
| 2026-04-24 14:06 | -4.50943 | 123.58335 | 38998 ft | 521 kts | 140° |
| 2026-04-24 14:06 | -4.56328 | 123.63196 | 39002 ft | 521 kts | 140° |
| 2026-04-24 14:07 | -4.61712 | 123.68058 | 38990 ft | 521 kts | 140° |
| 2026-04-24 14:07 | -4.67096 | 123.72920 | 39002 ft | 521 kts | 140° |
| 2026-04-24 14:08 | -4.72485 | 123.77788 | 38997 ft | 521 kts | 140° |
| 2026-04-24 14:08 | -4.77868 | 123.82653 | 38992 ft | 521 kts | 140° |
| 2026-04-24 14:09 | -4.83248 | 123.87514 | 39004 ft | 521 kts | 140° |
| 2026-04-24 14:09 | -4.88637 | 123.92386 | 38993 ft | 521 kts | 140° |
| 2026-04-24 14:10 | -4.94017 | 123.97251 | 38997 ft | 521 kts | 140° |
| 2026-04-24 14:10 | -4.99373 | 124.02077 | 39002 ft | 521 kts | 140° |
| 2026-04-24 14:11 | -5.04785 | 124.06922 | 38990 ft | 521 kts | 141° |
| 2026-04-24 14:12 | -5.12895 | 124.14176 | 39004 ft | 521 kts | 141° |
| 2026-04-24 14:12 | -5.18302 | 124.19014 | 38991 ft | 521 kts | 141° |
| 2026-04-24 14:13 | -5.23710 | 124.23855 | 39000 ft | 521 kts | 141° |
| 2026-04-24 14:13 | -5.29118 | 124.28698 | 39000 ft | 521 kts | 141° |
| 2026-04-24 14:14 | -5.34525 | 124.33541 | 38991 ft | 521 kts | 141° |
| 2026-04-24 14:14 | -5.42595 | 124.40771 | 39002 ft | 521 kts | 141° |
| 2026-04-24 14:15 | -5.47999 | 124.45614 | 38990 ft | 521 kts | 141° |
| 2026-04-24 14:15 | -5.53406 | 124.50460 | 39002 ft | 521 kts | 141° |
| 2026-04-24 14:16 | -5.58814 | 124.55310 | 38998 ft | 521 kts | 141° |
| 2026-04-24 14:17 | -5.66926 | 124.62586 | 39000 ft | 521 kts | 141° |
| 2026-04-24 14:17 | -5.75026 | 124.69854 | 38993 ft | 521 kts | 141° |
| 2026-04-24 14:18 | -5.80430 | 124.74704 | 38997 ft | 521 kts | 141° |
| 2026-04-24 14:18 | -5.85833 | 124.79555 | 39003 ft | 521 kts | 141° |
| 2026-04-24 14:19 | -5.91200 | 124.84375 | 38990 ft | 521 kts | 141° |
| 2026-04-24 14:19 | -5.96599 | 124.89226 | 39002 ft | 521 kts | 140° |
| 2026-04-24 14:20 | -6.01998 | 124.94076 | 38998 ft | 521 kts | 140° |
| 2026-04-24 14:20 | -6.07401 | 124.98933 | 38992 ft | 521 kts | 140° |
| 2026-04-24 14:21 | -6.12799 | 125.03786 | 39004 ft | 521 kts | 140° |
| 2026-04-24 14:21 | -6.18207 | 125.08650 | 38993 ft | 521 kts | 140° |
| 2026-04-24 14:22 | -6.23612 | 125.13512 | 38997 ft | 521 kts | 140° |
| 2026-04-24 14:23 | -6.31711 | 125.20800 | 38996 ft | 521 kts | 140° |
| 2026-04-24 14:23 | -6.37109 | 125.25660 | 38994 ft | 521 kts | 140° |
| 2026-04-24 14:24 | -6.42506 | 125.30520 | 39004 ft | 521 kts | 140° |
| 2026-04-24 14:24 | -6.47868 | 125.35350 | 38992 ft | 521 kts | 140° |
| 2026-04-24 14:25 | -6.53264 | 125.40212 | 38999 ft | 521 kts | 140° |
| 2026-04-24 14:25 | -6.58664 | 125.45079 | 39001 ft | 521 kts | 140° |
| 2026-04-24 14:26 | -6.64060 | 125.49944 | 38991 ft | 521 kts | 140° |
| 2026-04-24 14:26 | -6.69459 | 125.54813 | 39003 ft | 521 kts | 140° |
| 2026-04-24 14:27 | -6.74848 | 125.59675 | 38996 ft | 521 kts | 140° |
| 2026-04-24 14:27 | -6.80250 | 125.64550 | 38994 ft | 521 kts | 140° |
| 2026-04-24 14:28 | -6.85650 | 125.69425 | 39004 ft | 521 kts | 140° |
| 2026-04-24 14:28 | -6.91006 | 125.74261 | 38992 ft | 521 kts | 140° |
| 2026-04-24 14:29 | -6.96400 | 125.79133 | 38999 ft | 521 kts | 140° |
| 2026-04-24 14:29 | -7.01822 | 125.84032 | 39001 ft | 521 kts | 140° |
| 2026-04-24 14:30 | -7.06310 | 125.88088 | 38991 ft | 521 kts | 140° |
| 2026-04-24 14:30 | -7.12580 | 125.93758 | 39003 ft | 521 kts | 140° |
| 2026-04-24 14:31 | -7.17969 | 125.98632 | 38996 ft | 521 kts | 140° |
| 2026-04-24 14:31 | -7.23360 | 126.03509 | 38993 ft | 521 kts | 140° |
| 2026-04-24 14:32 | -7.28754 | 126.08391 | 39004 ft | 521 kts | 140° |
| 2026-04-24 14:32 | -7.34155 | 126.13281 | 38992 ft | 521 kts | 140° |
| 2026-04-24 14:33 | -7.39543 | 126.18161 | 38998 ft | 521 kts | 140° |
| 2026-04-24 14:33 | -7.44900 | 126.23014 | 39002 ft | 521 kts | 140° |
| 2026-04-24 14:34 | -7.50289 | 126.27898 | 38990 ft | 521 kts | 140° |
| 2026-04-24 14:34 | -7.55680 | 126.32786 | 39003 ft | 521 kts | 140° |
| 2026-04-24 14:35 | -7.61065 | 126.37670 | 38997 ft | 521 kts | 140° |
| 2026-04-24 14:35 | -7.66453 | 126.42558 | 38993 ft | 521 kts | 140° |
| 2026-04-24 14:36 | -7.71838 | 126.47445 | 39004 ft | 521 kts | 140° |
| 2026-04-24 14:36 | -7.77223 | 126.52334 | 38992 ft | 521 kts | 140° |
| 2026-04-24 14:37 | -7.82612 | 126.57229 | 38998 ft | 521 kts | 140° |
| 2026-04-24 14:37 | -7.87997 | 126.62121 | 39002 ft | 521 kts | 140° |
| 2026-04-24 14:38 | -7.93382 | 126.67016 | 38990 ft | 521 kts | 140° |
| 2026-04-24 14:38 | -7.98771 | 126.71916 | 39002 ft | 521 kts | 140° |
| 2026-04-24 14:39 | -8.04154 | 126.76812 | 38997 ft | 521 kts | 140° |
| 2026-04-24 14:39 | -8.09527 | 126.81715 | 38993 ft | 521 kts | 140° |
| 2026-04-24 14:40 | -8.14899 | 126.86626 | 39004 ft | 521 kts | 140° |
| 2026-04-24 14:40 | -8.20233 | 126.91504 | 38993 ft | 521 kts | 140° |
| 2026-04-24 14:41 | -8.25607 | 126.96420 | 38998 ft | 521 kts | 140° |
| 2026-04-24 14:41 | -8.30975 | 127.01332 | 39002 ft | 521 kts | 140° |
| 2026-04-24 14:42 | -8.35477 | 127.05453 | 38991 ft | 521 kts | 140° |
| 2026-04-24 14:42 | -8.40846 | 127.10369 | 39000 ft | 521 kts | 140° |
| 2026-04-24 14:43 | -8.46216 | 127.15288 | 39000 ft | 521 kts | 140° |
| 2026-04-24 14:43 | -8.51584 | 127.20206 | 38991 ft | 521 kts | 140° |
| 2026-04-24 14:44 | -8.56950 | 127.25125 | 39004 ft | 521 kts | 140° |
| 2026-04-24 14:44 | -8.62281 | 127.30014 | 38995 ft | 521 kts | 140° |
| 2026-04-24 14:45 | -8.67648 | 127.34938 | 38995 ft | 521 kts | 140° |
| 2026-04-24 14:45 | -8.73011 | 127.39861 | 39004 ft | 521 kts | 140° |
| 2026-04-24 14:46 | -8.78384 | 127.44794 | 38991 ft | 521 kts | 140° |
| 2026-04-24 14:46 | -8.83748 | 127.49721 | 39000 ft | 521 kts | 140° |
| 2026-04-24 14:47 | -8.89110 | 127.54649 | 39000 ft | 521 kts | 140° |
| 2026-04-24 14:47 | -8.94474 | 127.59580 | 38991 ft | 521 kts | 140° |
| 2026-04-24 14:48 | -8.99835 | 127.64511 | 39003 ft | 521 kts | 140° |
| 2026-04-24 14:48 | -9.05197 | 127.69444 | 38995 ft | 521 kts | 140° |
| 2026-04-24 14:49 | -9.10547 | 127.74396 | 38995 ft | 521 kts | 140° |
| 2026-04-24 14:49 | -9.15828 | 127.79349 | 39004 ft | 521 kts | 139° |
| 2026-04-24 14:50 | -9.21140 | 127.84343 | 38991 ft | 521 kts | 139° |
| 2026-04-24 14:50 | -9.26461 | 127.89345 | 38999 ft | 521 kts | 139° |
| 2026-04-24 14:51 | -9.31770 | 127.94336 | 39001 ft | 521 kts | 139° |
| 2026-04-24 14:51 | -9.37081 | 127.99331 | 38991 ft | 521 kts | 139° |
| 2026-04-24 14:52 | -9.42389 | 128.04325 | 39003 ft | 521 kts | 139° |
| 2026-04-24 14:52 | -9.47704 | 128.09328 | 38996 ft | 521 kts | 139° |
| 2026-04-24 14:53 | -9.52974 | 128.14290 | 38994 ft | 521 kts | 139° |
| 2026-04-24 14:53 | -9.58280 | 128.19289 | 39004 ft | 521 kts | 139° |
| 2026-04-24 14:54 | -9.63589 | 128.24292 | 38992 ft | 521 kts | 139° |
| 2026-04-24 14:54 | -9.68891 | 128.29292 | 38999 ft | 521 kts | 139° |
| 2026-04-24 14:55 | -9.73303 | 128.33454 | 39003 ft | 521 kts | 139° |
| 2026-04-24 14:55 | -9.79502 | 128.39304 | 38990 ft | 521 kts | 139° |
| 2026-04-24 14:56 | -9.84805 | 128.44311 | 39003 ft | 521 kts | 139° |
| 2026-04-24 14:56 | -9.90106 | 128.49318 | 38996 ft | 521 kts | 139° |
| 2026-04-24 14:57 | -9.95406 | 128.54328 | 38993 ft | 521 kts | 139° |
| 2026-04-24 14:57 | -10.00706 | 128.59339 | 39004 ft | 521 kts | 139° |
| 2026-04-24 14:58 | -10.06013 | 128.64359 | 38992 ft | 521 kts | 139° |
| 2026-04-24 14:58 | -10.11312 | 128.69374 | 38999 ft | 521 kts | 139° |
| 2026-04-24 14:59 | -10.16614 | 128.74395 | 39001 ft | 521 kts | 139° |
| 2026-04-24 14:59 | -10.21880 | 128.79383 | 38990 ft | 521 kts | 139° |
| 2026-04-24 15:00 | -10.27186 | 128.84411 | 39003 ft | 521 kts | 139° |
| 2026-04-24 15:00 | -10.32520 | 128.89469 | 38996 ft | 521 kts | 139° |
| 2026-04-24 15:01 | -10.37811 | 128.94489 | 38993 ft | 521 kts | 139° |
| 2026-04-24 15:01 | -10.43113 | 128.99522 | 39004 ft | 521 kts | 139° |
| 2026-04-24 15:02 | -10.48383 | 129.04526 | 38992 ft | 521 kts | 139° |
| 2026-04-24 15:02 | -10.53677 | 129.09555 | 38998 ft | 521 kts | 139° |
| 2026-04-24 15:03 | -10.59009 | 129.14554 | 39003 ft | 521 kts | 141° |
| 2026-04-24 15:03 | -10.64556 | 129.19296 | 38989 ft | 521 kts | 143° |
| 2026-04-24 15:04 | -10.70185 | 129.23924 | 39001 ft | 520 kts | 143° |
| 2026-04-24 15:04 | -10.75834 | 129.28538 | 38999 ft | 520 kts | 143° |
| 2026-04-24 15:05 | -10.81476 | 129.33154 | 38991 ft | 520 kts | 143° |
| 2026-04-24 15:05 | -10.87107 | 129.37767 | 39004 ft | 520 kts | 143° |
| 2026-04-24 15:06 | -10.92699 | 129.42352 | 38994 ft | 520 kts | 143° |
| 2026-04-24 15:06 | -10.98327 | 129.46970 | 38996 ft | 520 kts | 143° |
| 2026-04-24 15:07 | -11.03953 | 129.51588 | 39004 ft | 520 kts | 143° |
| 2026-04-24 15:07 | -11.09577 | 129.56207 | 38991 ft | 520 kts | 143° |
| 2026-04-24 15:08 | -11.15202 | 129.60829 | 39001 ft | 520 kts | 143° |
| 2026-04-24 15:08 | -11.20829 | 129.65454 | 38999 ft | 520 kts | 143° |
| 2026-04-24 15:09 | -11.26454 | 129.70081 | 38991 ft | 520 kts | 143° |
| 2026-04-24 15:09 | -11.32078 | 129.74709 | 39004 ft | 520 kts | 143° |
| 2026-04-24 15:10 | -11.37707 | 129.79344 | 38994 ft | 520 kts | 143° |
| 2026-04-24 15:10 | -11.43331 | 129.83977 | 38995 ft | 520 kts | 143° |
| 2026-04-24 15:11 | -11.48955 | 129.88613 | 39004 ft | 520 kts | 143° |
| 2026-04-24 15:11 | -11.54205 | 129.93670 | 38995 ft | 520 kts | 135° |
| 2026-04-24 15:12 | -11.59149 | 129.99076 | 38991 ft | 521 kts | 134° |
| 2026-04-24 15:12 | -11.66531 | 130.07243 | 39001 ft | 522 kts | 134° |
| 2026-04-24 15:13 | -11.71476 | 130.12676 | 38991 ft | 522 kts | 134° |
| 2026-04-24 15:13 | -11.76425 | 130.18104 | 39003 ft | 522 kts | 134° |
| 2026-04-24 15:14 | -11.81369 | 130.23530 | 38996 ft | 523 kts | 134° |
| 2026-04-24 15:14 | -11.86294 | 130.28937 | 38993 ft | 523 kts | 134° |
| 2026-04-24 15:15 | -11.91241 | 130.34372 | 39004 ft | 523 kts | 134° |
| 2026-04-24 15:15 | -11.96189 | 130.39811 | 38992 ft | 523 kts | 134° |
| 2026-04-24 15:16 | -12.01137 | 130.45253 | 38998 ft | 523 kts | 134° |
| 2026-04-24 15:16 | -12.06082 | 130.50696 | 39002 ft | 523 kts | 134° |
| 2026-04-24 15:17 | -12.11028 | 130.56143 | 38990 ft | 523 kts | 134° |
| 2026-04-24 15:17 | -12.15971 | 130.61589 | 39003 ft | 523 kts | 134° |
| 2026-04-24 15:18 | -12.20924 | 130.67049 | 38997 ft | 523 kts | 134° |
| 2026-04-24 15:18 | -12.25865 | 130.72500 | 38993 ft | 523 kts | 134° |
| 2026-04-24 15:19 | -12.30805 | 130.77954 | 39004 ft | 523 kts | 134° |
| 2026-04-24 15:19 | -12.35749 | 130.83414 | 38992 ft | 523 kts | 134° |
| 2026-04-24 15:20 | -12.40820 | 130.88670 | 38994 ft | 523 kts | 141° |
| 2026-04-24 15:20 | -12.46501 | 130.93294 | 39002 ft | 521 kts | 146° |
| 2026-04-24 15:21 | -12.52412 | 130.97587 | 38989 ft | 520 kts | 148° |
| 2026-04-24 15:21 | -12.58392 | 131.01740 | 39002 ft | 519 kts | 148° |
| 2026-04-24 15:22 | -12.64374 | 131.05868 | 38997 ft | 518 kts | 148° |
| 2026-04-24 15:23 | -12.73331 | 131.12067 | 39000 ft | 518 kts | 148° |
| 2026-04-24 15:23 | -12.82282 | 131.18273 | 38993 ft | 518 kts | 148° |
| 2026-04-24 15:25 | -12.96185 | 131.27927 | 38997 ft | 518 kts | 148° |
| 2026-04-24 15:26 | -13.12059 | 131.38963 | 38998 ft | 518 kts | 148° |
| 2026-04-24 15:27 | -13.28971 | 131.50749 | 38995 ft | 518 kts | 148° |
| 2026-04-24 15:29 | -13.46804 | 131.63198 | 38991 ft | 518 kts | 148° |
| 2026-04-24 15:31 | -13.67657 | 131.77783 | 38997 ft | 518 kts | 148° |
| 2026-04-24 15:33 | -13.91431 | 131.94453 | 38998 ft | 518 kts | 148° |
| 2026-04-24 15:34 | -14.06326 | 132.04919 | 39001 ft | 518 kts | 148° |
| 2026-04-24 15:35 | -14.21166 | 132.15363 | 39003 ft | 518 kts | 148° |
| 2026-04-24 15:36 | -14.27120 | 132.19557 | 38991 ft | 518 kts | 148° |
| 2026-04-24 15:36 | -14.36048 | 132.25852 | 39004 ft | 518 kts | 148° |
| 2026-04-24 15:37 | -14.41995 | 132.30049 | 38992 ft | 518 kts | 148° |
| 2026-04-24 15:37 | -14.47934 | 132.34266 | 38992 ft | 518 kts | 145° |
| 2026-04-24 15:38 | -14.53081 | 132.39458 | 39014 ft | 519 kts | 133° |
| 2026-04-24 15:38 | -14.57731 | 132.45178 | 38991 ft | 521 kts | 130° |
| 2026-04-24 15:39 | -14.62186 | 132.51093 | 38996 ft | 522 kts | 129° |
| 2026-04-24 15:39 | -14.66595 | 132.57069 | 39004 ft | 523 kts | 128° |
| 2026-04-24 15:40 | -14.71007 | 132.63057 | 38991 ft | 524 kts | 128° |
| 2026-04-24 15:40 | -14.75386 | 132.69017 | 39000 ft | 524 kts | 128° |
| 2026-04-24 15:41 | -14.79799 | 132.75029 | 39000 ft | 524 kts | 128° |
| 2026-04-24 15:41 | -14.84207 | 132.81040 | 38991 ft | 524 kts | 128° |
| 2026-04-24 15:42 | -14.88616 | 132.87055 | 39004 ft | 524 kts | 128° |
| 2026-04-24 15:42 | -14.93021 | 132.93069 | 38995 ft | 525 kts | 128° |
| 2026-04-24 15:43 | -14.97425 | 132.99086 | 38995 ft | 524 kts | 128° |
| 2026-04-24 15:43 | -15.01826 | 133.05105 | 39004 ft | 524 kts | 128° |
| 2026-04-24 15:44 | -15.06225 | 133.11125 | 38991 ft | 524 kts | 128° |
| 2026-04-24 15:44 | -15.10622 | 133.17147 | 39000 ft | 524 kts | 128° |
| 2026-04-24 15:45 | -15.15019 | 133.23175 | 39000 ft | 524 kts | 128° |
| 2026-04-24 15:45 | -15.19412 | 133.29200 | 38991 ft | 524 kts | 128° |
| 2026-04-24 15:46 | -15.23803 | 133.35228 | 39004 ft | 524 kts | 128° |
| 2026-04-24 15:46 | -15.28166 | 133.41222 | 38995 ft | 524 kts | 128° |
| 2026-04-24 15:47 | -15.32553 | 133.47253 | 38994 ft | 524 kts | 128° |
| 2026-04-24 15:47 | -15.36941 | 133.53292 | 39004 ft | 524 kts | 128° |
| 2026-04-24 15:48 | -15.41321 | 133.59324 | 38991 ft | 524 kts | 128° |
| 2026-04-24 15:48 | -15.45710 | 133.65373 | 39000 ft | 524 kts | 128° |
| 2026-04-24 15:49 | -15.50090 | 133.71415 | 39000 ft | 524 kts | 128° |
| 2026-04-24 15:49 | -15.54469 | 133.77460 | 38991 ft | 524 kts | 128° |
| 2026-04-24 15:50 | -15.58845 | 133.83505 | 39003 ft | 524 kts | 128° |
| 2026-04-24 15:50 | -15.63225 | 133.89560 | 38995 ft | 524 kts | 128° |
| 2026-04-24 15:51 | -15.67599 | 133.95613 | 38994 ft | 524 kts | 128° |
| 2026-04-24 15:51 | -15.71973 | 134.01670 | 39004 ft | 524 kts | 128° |
| 2026-04-24 15:52 | -15.76343 | 134.07727 | 38991 ft | 524 kts | 128° |
| 2026-04-24 15:52 | -15.80715 | 134.13792 | 38999 ft | 524 kts | 128° |
| 2026-04-24 15:53 | -15.85057 | 134.19819 | 39001 ft | 524 kts | 128° |
| 2026-04-24 15:53 | -15.89427 | 134.25891 | 38991 ft | 524 kts | 128° |
| 2026-04-24 15:54 | -15.93793 | 134.31962 | 39003 ft | 524 kts | 128° |
| 2026-04-24 15:54 | -15.98155 | 134.38033 | 38996 ft | 524 kts | 128° |
| 2026-04-24 15:55 | -16.02618 | 134.44024 | 38996 ft | 524 kts | 132° |
| 2026-04-24 15:55 | -16.07404 | 134.49736 | 39002 ft | 524 kts | 134° |
| 2026-04-24 15:56 | -16.12288 | 134.55350 | 38990 ft | 523 kts | 134° |
| 2026-04-24 15:56 | -16.17182 | 134.60949 | 39002 ft | 523 kts | 134° |
| 2026-04-24 15:57 | -16.22066 | 134.66552 | 38997 ft | 523 kts | 134° |
| 2026-04-24 15:57 | -16.26948 | 134.72163 | 38992 ft | 522 kts | 134° |
| 2026-04-24 15:58 | -16.31822 | 134.77771 | 39004 ft | 522 kts | 134° |
| 2026-04-24 15:58 | -16.36699 | 134.83387 | 38993 ft | 522 kts | 134° |
| 2026-04-24 15:59 | -16.41575 | 134.89006 | 38997 ft | 522 kts | 134° |
| 2026-04-24 15:59 | -16.46415 | 134.94588 | 39003 ft | 522 kts | 134° |
| 2026-04-24 16:00 | -16.51288 | 135.00213 | 38990 ft | 522 kts | 134° |
| 2026-04-24 16:00 | -16.56156 | 135.05836 | 39002 ft | 522 kts | 134° |
| 2026-04-24 16:01 | -16.61025 | 135.11465 | 38998 ft | 523 kts | 134° |
| 2026-04-24 16:01 | -16.65887 | 135.17092 | 38992 ft | 522 kts | 134° |
| 2026-04-24 16:02 | -16.70755 | 135.22729 | 39004 ft | 522 kts | 134° |
| 2026-04-24 16:02 | -16.75616 | 135.28363 | 38993 ft | 523 kts | 134° |
| 2026-04-24 16:03 | -16.80478 | 135.34003 | 38997 ft | 522 kts | 134° |
| 2026-04-24 16:03 | -16.85341 | 135.39648 | 39003 ft | 523 kts | 134° |
| 2026-04-24 16:04 | -16.90198 | 135.45292 | 38991 ft | 523 kts | 134° |
| 2026-04-24 16:04 | -16.95033 | 135.50914 | 39002 ft | 523 kts | 134° |
| 2026-04-24 16:05 | -17.02322 | 135.59399 | 38991 ft | 523 kts | 134° |
| 2026-04-24 16:06 | -17.09605 | 135.67888 | 39004 ft | 523 kts | 134° |
| 2026-04-24 16:07 | -17.16882 | 135.76380 | 38991 ft | 523 kts | 134° |
| 2026-04-24 16:07 | -17.24159 | 135.84883 | 39003 ft | 523 kts | 134° |
| 2026-04-24 16:08 | -17.31429 | 135.93389 | 38994 ft | 523 kts | 134° |
| 2026-04-24 16:09 | -17.38698 | 136.01905 | 38998 ft | 523 kts | 134° |
| 2026-04-24 16:09 | -17.43539 | 136.07582 | 38992 ft | 523 kts | 134° |
| 2026-04-24 16:11 | -17.55640 | 136.21796 | 38991 ft | 523 kts | 134° |
| 2026-04-24 16:11 | -17.59661 | 136.26525 | 39001 ft | 523 kts | 134° |
| 2026-04-24 16:12 | -17.66919 | 136.35071 | 38992 ft | 523 kts | 134° |
| 2026-04-24 16:13 | -17.74144 | 136.43590 | 39004 ft | 523 kts | 134° |
| 2026-04-24 16:14 | -17.83809 | 136.55002 | 38996 ft | 523 kts | 134° |
| 2026-04-24 16:14 | -17.91051 | 136.63566 | 38996 ft | 523 kts | 134° |
| 2026-04-24 16:15 | -17.98293 | 136.72142 | 39001 ft | 523 kts | 134° |
| 2026-04-24 16:16 | -18.05524 | 136.80716 | 38992 ft | 523 kts | 134° |
| 2026-04-24 16:17 | -18.17573 | 136.95031 | 38994 ft | 523 kts | 134° |
| 2026-04-24 16:18 | -18.27206 | 137.06497 | 39003 ft | 523 kts | 134° |
| 2026-04-24 16:19 | -18.34427 | 137.15107 | 38994 ft | 523 kts | 134° |
| 2026-04-24 16:20 | -18.41650 | 137.23730 | 38999 ft | 523 kts | 133° |
| 2026-04-24 16:20 | -18.48830 | 137.32314 | 38999 ft | 523 kts | 133° |
| 2026-04-24 16:21 | -18.56040 | 137.40945 | 38994 ft | 523 kts | 133° |
| 2026-04-24 16:22 | -18.60847 | 137.46707 | 38996 ft | 523 kts | 133° |
| 2026-04-24 16:22 | -18.68049 | 137.55349 | 38996 ft | 523 kts | 133° |
| 2026-04-24 16:23 | -18.72853 | 137.61119 | 38994 ft | 523 kts | 133° |
| 2026-04-24 16:24 | -18.80049 | 137.69778 | 38999 ft | 523 kts | 133° |
| 2026-04-24 16:24 | -18.84847 | 137.75558 | 38991 ft | 523 kts | 133° |
| 2026-04-24 16:25 | -18.89609 | 137.81298 | 39004 ft | 523 kts | 133° |
| 2026-04-24 16:25 | -18.94399 | 137.87079 | 38994 ft | 523 kts | 133° |
| 2026-04-24 16:26 | -19.01588 | 137.95763 | 39003 ft | 523 kts | 133° |
| 2026-04-24 16:27 | -19.08780 | 138.04465 | 38991 ft | 523 kts | 133° |
| 2026-04-24 16:27 | -19.13564 | 138.10260 | 39001 ft | 523 kts | 133° |
| 2026-04-24 16:28 | -19.18351 | 138.16064 | 38999 ft | 523 kts | 133° |
| 2026-04-24 16:28 | -19.25524 | 138.24771 | 38998 ft | 523 kts | 133° |
| 2026-04-24 16:29 | -19.30275 | 138.30546 | 39002 ft | 523 kts | 133° |
| 2026-04-24 16:30 | -19.39825 | 138.42169 | 39003 ft | 523 kts | 133° |
| 2026-04-24 16:30 | -19.44599 | 138.47989 | 38996 ft | 523 kts | 133° |
| 2026-04-24 16:31 | -19.49371 | 138.53812 | 38993 ft | 523 kts | 133° |
| 2026-04-24 16:31 | -19.54140 | 138.59636 | 39004 ft | 523 kts | 133° |
| 2026-04-24 16:32 | -19.58908 | 138.65465 | 38992 ft | 523 kts | 133° |
| 2026-04-24 16:32 | -19.63673 | 138.71296 | 38998 ft | 523 kts | 133° |
| 2026-04-24 16:33 | -19.68441 | 138.77137 | 39002 ft | 523 kts | 133° |
| 2026-04-24 16:33 | -19.73205 | 138.82978 | 38990 ft | 523 kts | 133° |
| 2026-04-24 16:34 | -19.77964 | 138.88819 | 39003 ft | 523 kts | 133° |
| 2026-04-24 16:34 | -19.82726 | 138.94670 | 38997 ft | 523 kts | 133° |
| 2026-04-24 16:35 | -19.87482 | 139.00519 | 38993 ft | 523 kts | 133° |
| 2026-04-24 16:35 | -19.92238 | 139.06374 | 39004 ft | 523 kts | 133° |
| 2026-04-24 16:36 | -19.96961 | 139.12194 | 38992 ft | 523 kts | 133° |
| 2026-04-24 16:36 | -20.01742 | 139.18092 | 38998 ft | 523 kts | 133° |
| 2026-04-24 16:37 | -20.06461 | 139.23918 | 39002 ft | 523 kts | 133° |
| 2026-04-24 16:37 | -20.11208 | 139.29786 | 38990 ft | 523 kts | 133° |
| 2026-04-24 16:38 | -20.15965 | 139.35672 | 39003 ft | 523 kts | 133° |
| 2026-04-24 16:38 | -20.20708 | 139.41547 | 38997 ft | 523 kts | 133° |
| 2026-04-24 16:39 | -20.25448 | 139.47424 | 38993 ft | 523 kts | 133° |
| 2026-04-24 16:39 | -20.30194 | 139.53314 | 39004 ft | 523 kts | 133° |
| 2026-04-24 16:40 | -20.34933 | 139.59201 | 38992 ft | 523 kts | 133° |
| 2026-04-24 16:40 | -20.39671 | 139.65093 | 38998 ft | 523 kts | 133° |
| 2026-04-24 16:41 | -20.44383 | 139.70959 | 39002 ft | 523 kts | 133° |
| 2026-04-24 16:41 | -20.49122 | 139.76865 | 38990 ft | 523 kts | 133° |
| 2026-04-24 16:42 | -20.53850 | 139.82764 | 39003 ft | 523 kts | 133° |
| 2026-04-24 16:42 | -20.58579 | 139.88669 | 38997 ft | 523 kts | 133° |
| 2026-04-24 16:43 | -20.63299 | 139.94570 | 38993 ft | 523 kts | 133° |
| 2026-04-24 16:43 | -20.68024 | 140.00483 | 39004 ft | 523 kts | 133° |
| 2026-04-24 16:44 | -20.72747 | 140.06399 | 38992 ft | 523 kts | 133° |
| 2026-04-24 16:44 | -20.77466 | 140.12317 | 38998 ft | 523 kts | 133° |
| 2026-04-24 16:45 | -20.82185 | 140.18242 | 39002 ft | 523 kts | 133° |
| 2026-04-24 16:45 | -20.86902 | 140.24169 | 38990 ft | 523 kts | 132° |
| 2026-04-24 16:46 | -20.91586 | 140.30063 | 39002 ft | 523 kts | 132° |
| 2026-04-24 16:46 | -20.96300 | 140.35999 | 38997 ft | 523 kts | 132° |
| 2026-04-24 16:47 | -21.01014 | 140.41942 | 38993 ft | 523 kts | 132° |
| 2026-04-24 16:47 | -21.05721 | 140.47882 | 39004 ft | 523 kts | 132° |
| 2026-04-24 16:48 | -21.10425 | 140.53825 | 38992 ft | 523 kts | 132° |
| 2026-04-24 16:48 | -21.15131 | 140.59778 | 38998 ft | 523 kts | 132° |
| 2026-04-24 16:49 | -21.19830 | 140.65727 | 39002 ft | 523 kts | 132° |
| 2026-04-24 16:49 | -21.24530 | 140.71684 | 38990 ft | 523 kts | 132° |
| 2026-04-24 16:50 | -21.29226 | 140.77644 | 39002 ft | 523 kts | 132° |
| 2026-04-24 16:50 | -21.33922 | 140.83609 | 38997 ft | 523 kts | 132° |
| 2026-04-24 16:51 | -21.38617 | 140.89575 | 38993 ft | 523 kts | 132° |
| 2026-04-24 16:51 | -21.43306 | 140.95548 | 39004 ft | 523 kts | 132° |
| 2026-04-24 16:52 | -21.47993 | 141.01523 | 38992 ft | 523 kts | 132° |
| 2026-04-24 16:52 | -21.52649 | 141.07466 | 38998 ft | 523 kts | 132° |
| 2026-04-24 16:53 | -21.57334 | 141.13451 | 39002 ft | 523 kts | 132° |
| 2026-04-24 16:53 | -21.62014 | 141.19436 | 38990 ft | 523 kts | 132° |
| 2026-04-24 16:54 | -21.66698 | 141.25432 | 39002 ft | 523 kts | 132° |
| 2026-04-24 16:54 | -21.71375 | 141.31427 | 38997 ft | 523 kts | 132° |
| 2026-04-24 16:55 | -21.76051 | 141.37427 | 38992 ft | 523 kts | 132° |
| 2026-04-24 16:55 | -21.80724 | 141.43430 | 39004 ft | 523 kts | 132° |
| 2026-04-24 16:56 | -21.85391 | 141.49432 | 38993 ft | 523 kts | 132° |
| 2026-04-24 16:56 | -21.90058 | 141.55440 | 38998 ft | 523 kts | 132° |
| 2026-04-24 16:57 | -21.94699 | 141.61422 | 39002 ft | 523 kts | 132° |
| 2026-04-24 16:57 | -21.99364 | 141.67441 | 38990 ft | 523 kts | 132° |
| 2026-04-24 16:58 | -22.04023 | 141.73460 | 39002 ft | 523 kts | 132° |
| 2026-04-24 16:58 | -22.07928 | 141.78510 | 39000 ft | 523 kts | 132° |
| 2026-04-24 16:59 | -22.12584 | 141.84537 | 38991 ft | 523 kts | 132° |
| 2026-04-24 17:00 | -22.19565 | 141.93587 | 39002 ft | 523 kts | 132° |
| 2026-04-24 17:00 | -22.26544 | 142.02649 | 38995 ft | 523 kts | 132° |
| 2026-04-24 17:01 | -22.33492 | 142.11687 | 38998 ft | 523 kts | 131° |
| 2026-04-24 17:02 | -22.40455 | 142.20760 | 39000 ft | 523 kts | 131° |
| 2026-04-24 17:02 | -22.45101 | 142.26821 | 39000 ft | 523 kts | 131° |
| 2026-04-24 17:03 | -22.52058 | 142.35912 | 38997 ft | 523 kts | 131° |
| 2026-04-24 17:04 | -22.56699 | 142.41988 | 39003 ft | 523 kts | 131° |
| 2026-04-24 17:04 | -22.63652 | 142.51103 | 38995 ft | 523 kts | 131° |
| 2026-04-24 17:05 | -22.68257 | 142.57147 | 39004 ft | 523 kts | 131° |
| 2026-04-24 17:06 | -22.75206 | 142.66283 | 38992 ft | 523 kts | 131° |
| 2026-04-24 17:06 | -22.82145 | 142.75421 | 39000 ft | 524 kts | 131° |
| 2026-04-24 17:07 | -22.86777 | 142.81529 | 38991 ft | 524 kts | 131° |
| 2026-04-24 17:08 | -22.96020 | 142.93742 | 38995 ft | 524 kts | 131° |
| 2026-04-24 17:08 | -23.00607 | 142.99813 | 38994 ft | 524 kts | 131° |
| 2026-04-24 17:09 | -23.09841 | 143.12056 | 38991 ft | 524 kts | 131° |
| 2026-04-24 17:10 | -23.19062 | 143.24312 | 39001 ft | 524 kts | 131° |
| 2026-04-24 17:12 | -23.37470 | 143.48867 | 38994 ft | 524 kts | 131° |
| 2026-04-24 18:54 | -34.21985 | 151.14239 | 4757 ft | 241 kts | 94° |
| 2026-04-24 18:55 | -34.20733 | 151.17482 | 4526 ft | 204 kts | 47° |
| 2026-04-24 18:55 | -34.19850 | 151.18814 | 4265 ft | 203 kts | 51° |
| 2026-04-24 18:55 | -34.19037 | 151.20193 | 4034 ft | 199 kts | 54° |
| 2026-04-24 18:56 | -34.18287 | 151.21560 | 3892 ft | 192 kts | 56° |
| 2026-04-24 18:56 | -34.17410 | 151.22735 | 3585 ft | 191 kts | 30° |
| 2026-04-24 18:56 | -34.16170 | 151.23115 | 3378 ft | 179 kts | 359° |
| 2026-04-24 18:56 | -34.15006 | 151.22921 | 3372 ft | 164 kts | 349° |
| 2026-04-24 18:57 | -34.13891 | 151.22643 | 3146 ft | 162 kts | 347° |
| 2026-04-24 18:57 | -34.12811 | 151.22333 | 2999 ft | 158 kts | 346° |
| 2026-04-24 18:57 | -34.11750 | 151.22031 | 2968 ft | 157 kts | 347° |
| 2026-04-24 18:57 | -34.10683 | 151.21756 | 2859 ft | 157 kts | 348° |
| 2026-04-24 18:58 | -34.09616 | 151.21503 | 2667 ft | 156 kts | 349° |
| 2026-04-24 18:58 | -34.08560 | 151.21241 | 2444 ft | 154 kts | 348° |
| 2026-04-24 18:58 | -34.07515 | 151.20957 | 2254 ft | 154 kts | 347° |
| 2026-04-24 18:58 | -34.06473 | 151.20666 | 2044 ft | 154 kts | 347° |
| 2026-04-24 18:59 | -34.05437 | 151.20395 | 1835 ft | 151 kts | 348° |
| 2026-04-24 18:59 | -34.04418 | 151.20143 | 1627 ft | 148 kts | 348° |
| 2026-04-24 18:59 | -34.03415 | 151.19893 | 1445 ft | 147 kts | 348° |
| 2026-04-24 18:59 | -34.02424 | 151.19632 | 1244 ft | 146 kts | 348° |
| 2026-04-24 19:00 | -34.01438 | 151.19367 | 1050 ft | 145 kts | 347° |
| 2026-04-24 19:00 | -34.00455 | 151.19106 | 858 ft | 144 kts | 347° |
| 2026-04-24 19:00 | -33.99474 | 151.18855 | 661 ft | 144 kts | 348° |
| 2026-04-24 19:00 | -33.98496 | 151.18606 | 436 ft | 143 kts | 348° |
| 2026-04-24 19:01 | -33.97525 | 151.18363 | 271 ft | 143 kts | 348° |
| 2026-04-24 19:01 | -33.96553 | 151.18113 | 132 ft | 142 kts | 348° |
| 2026-04-24 19:01 | -33.95609 | 151.17855 | 36 ft | 130 kts | 347° |
| 2026-04-24 19:01 | -33.95040 | 151.17706 | 34 ft | 35 kts | 347° |
| 2026-04-24 19:02 | -33.94919 | 151.17675 | 34 ft | 25 kts | 349° |
| 2026-04-24 19:02 | -33.94661 | 151.17606 | 34 ft | 31 kts | 347° |
| 2026-04-24 19:02 | -33.94502 | 151.17513 | 34 ft | 17 kts | 324° |
| 2026-04-24 19:02 | -33.94417 | 151.17453 | 34 ft | 17 kts | 323° |
| 2026-04-24 19:03 | -33.94336 | 151.17359 | 34 ft | 14 kts | 313° |
| 2026-04-24 19:03 | -33.94243 | 151.17297 | 34 ft | 17 kts | 349° |
| 2026-04-24 19:03 | -33.94125 | 151.17268 | 34 ft | 20 kts | 342° |
| 2026-04-24 19:03 | -33.94006 | 151.17232 | 34 ft | 18 kts | 352° |
| 2026-04-24 19:04 | -33.93905 | 151.17208 | 34 ft | 16 kts | 347° |
| 2026-04-24 19:04 | -33.93769 | 151.17172 | 34 ft | 19 kts | 348° |
| 2026-04-24 19:04 | -33.93707 | 151.17095 | 34 ft | 13 kts | 258° |
| 2026-04-24 19:04 | -33.93780 | 151.17054 | 34 ft | 17 kts | 171° |
| 2026-04-24 19:05 | -33.93913 | 151.17093 | 34 ft | 21 kts | 166° |
| 2026-04-24 19:05 | -33.93987 | 151.17090 | 34 ft | 10 kts | 224° |
| 2026-04-24 19:05 | -33.94024 | 151.16990 | 34 ft | 11 kts | 252° |
| 2026-04-24 19:05 | -33.94030 | 151.16966 | 34 ft | 0 kts | 255° |
| 2026-04-24 19:06 | -33.94031 | 151.16960 | 34 ft | 0 kts | 254° |
| 2026-04-24 19:06 | -33.94038 | 151.16933 | 34 ft | 3 kts | 254° |
| 2026-04-24 19:06 | -33.94038 | 151.16932 | 34 ft | 0 kts | 254° |
| 2026-04-24 19:07 | -33.94039 | 151.16927 | 34 ft | 0 kts | 254° |
| 2026-04-24 19:08 | -33.94039 | 151.16926 | 34 ft | 0 kts | 254° |
| 2026-04-24 19:09 | -33.94039 | 151.16925 | 34 ft | 0 kts | 254° |
| 2026-04-24 19:10 | -33.94040 | 151.16925 | 34 ft | 0 kts | 254° |
| 2026-04-24 19:11 | -33.94040 | 151.16924 | 34 ft | 0 kts | 254° |
| 2026-04-24 19:13 | -33.94040 | 151.16923 | 34 ft | 0 kts | 254° |
| 2026-04-24 19:15 | -33.94040 | 151.16922 | 34 ft | 0 kts | 254° |
| 2026-04-24 19:16 | -33.94042 | 151.16913 | 34 ft | 0 kts | 253° |
| 2026-04-24 19:16 | -33.94043 | 151.16913 | 34 ft | 0 kts | 253° |
| 2026-04-24 19:17 | -33.94048 | 151.16890 | 34 ft | 5 kts | 253° |
| 2026-04-24 19:17 | -33.94063 | 151.16828 | 34 ft | 8 kts | 254° |
| 2026-04-24 19:17 | -33.94083 | 151.16743 | 34 ft | 11 kts | 254° |
| 2026-04-24 19:18 | -33.94075 | 151.16687 | 34 ft | 6 kts | 311° |
| 2026-04-24 19:18 | -33.94037 | 151.16660 | 34 ft | 4 kts | 347° |
| 2026-04-24 19:18 | -33.94013 | 151.16653 | 34 ft | 3 kts | 346° |
| 2026-04-24 19:18 | -33.93999 | 151.16649 | 34 ft | 3 kts | 346° |
| 2026-04-24 19:19 | -33.93998 | 151.16649 | 34 ft | 0 kts | 346° |